Darstellungsparameter: Aktuell verwendete Einstellungen:
Skalierung der Graphiken ... ?
xyx+y,   Skalierungsfaktor:      Skalierung: Modus: x, Faktor: 1
Darstellungszeitraum ... ?
Vom - - bis: - -   Zeitraum: 18.02.2010 - 17.05.2010
Min/Max/Avg-Anzeige ... ?
Zeige MMA aktuell
Zeige MMA Monat
Zeige MMA alles
Zeige --A aktuell
Zeige --A Monat
Zeige --A alles
Keine MMA-Anzeige
MMA:
Average (ber die Originaldaten)
MMA-Basis: 18.02.2010 - 17.05.2010
Quicknavigation für Darstellung... ?
Tage:      1T, 2T, 3T, 5T -1T -2T -3T -5T +1T +2T +3T +5T
Wochen: 1W, 2W, 3W -1W -2W -3W +1W +2W +3W
Monate: 1M, 3M, 6M -1M -3M -6M +1M +3M +6M
Jahre:    1J, 3J, 5J, 10J -1J -3J -5J -10J +1J +3J +5J +10J
Nutze für die Darstellung ... ?
Originaldaten oder Mittelwerte auf ...
Stundenbasis Tagesbasis Wochenbasis
Monatsbasis Jahresbasis      Datenbasis: Original-Daten
Darstellen als:
Statistik (Auto) Statistik J:M      Darstellung:
Zur Graphik,    zurück zur Übersicht aller Sensoren.
 
Tabellarische Datenbersicht: ?
 
Sensor: Nr:Datum:Temp:Abs-Feuchte:Windchill:Wind:
Aussen-T/F 1 18-02-2010 00:01:39 0.8 C 4.51 g/m*3 0.8 C 0 km/h
2 18-02-2010 00:26:39 0.9 C 4.54 g/m*3 0.9 C 0 km/h
3 18-02-2010 00:51:39 0.9 C 4.54 g/m*3 0.9 C 0 km/h
4 18-02-2010 01:16:39 1 C 4.57 g/m*3 1 C 0 km/h
5 18-02-2010 01:41:39 1 C 4.57 g/m*3 1 C 0 km/h
6 18-02-2010 02:06:39 1 C 4.57 g/m*3 1 C 0 km/h
7 18-02-2010 02:31:39 1.2 C 4.63 g/m*3 1.2 C 0 km/h
8 18-02-2010 02:56:39 1 C 4.57 g/m*3 1 C 0 km/h
9 18-02-2010 03:21:39 1.2 C 4.63 g/m*3 1.2 C 0 km/h
10 18-02-2010 03:46:39 1 C 4.57 g/m*3 1 C 0 km/h
11 18-02-2010 04:11:39 1 C 4.62 g/m*3 1 C 0 km/h
12 18-02-2010 04:36:39 1 C 4.62 g/m*3 1 C 0 km/h
13 18-02-2010 05:01:39 1.2 C 4.68 g/m*3 1.2 C 0 km/h
14 18-02-2010 05:26:39 1 C 4.62 g/m*3 1 C 0 km/h
15 18-02-2010 05:51:39 1.1 C 4.65 g/m*3 1.1 C 0 km/h
16 18-02-2010 06:16:40 1.1 C 4.65 g/m*3 1.1 C 0 km/h
17 18-02-2010 06:41:40 1.2 C 4.74 g/m*3 1.2 C 0 km/h
18 18-02-2010 07:06:40 1.1 C 4.7 g/m*3 1.1 C 0 km/h
19 18-02-2010 07:31:40 1.1 C 4.7 g/m*3 1.1 C 0 km/h
20 18-02-2010 07:56:40 1.1 C 4.7 g/m*3 1.1 C 0 km/h
21 18-02-2010 08:21:40 1.1 C 4.76 g/m*3 1.1 C 0 km/h
22 18-02-2010 08:46:40 1.4 C 4.85 g/m*3 1.4 C 0 km/h
23 18-02-2010 09:11:40 1.7 C 5.01 g/m*3 1.7 C 0 km/h
24 18-02-2010 09:36:40 2 C 5.06 g/m*3 2 C 0 km/h
25 18-02-2010 10:01:40 2.6 C 5.32 g/m*3 2.6 C 0 km/h
Sensor: Nr:Datum:Temp:Abs-Feuchte:Windchill:Wind:
Aussen-T/F 26 18-02-2010 10:26:40 3.6 C 5.63 g/m*3 3.6 C 0 km/h
27 18-02-2010 10:51:40 3.8 C 5.58 g/m*3 3.8 C 0 km/h
28 18-02-2010 11:16:40 4.1 C 5.25 g/m*3 4.1 C 0 km/h
29 18-02-2010 11:41:40 4.4 C 5.03 g/m*3 4.4 C 0 km/h
30 18-02-2010 12:06:40 4.7 C 4.86 g/m*3 4.7 C 0 km/h
31 18-02-2010 12:31:40 5.1 C 4.65 g/m*3 5.1 C 0 km/h
32 18-02-2010 12:56:40 5.8 C 4.58 g/m*3 5.8 C 0 km/h
33 18-02-2010 13:21:40 6.8 C 4.36 g/m*3 6.8 C 0 km/h
34 18-02-2010 13:46:40 7.4 C 4.14 g/m*3 7.4 C 0 km/h
35 18-02-2010 14:11:40 8 C 4.13 g/m*3 8 C 0 km/h
36 18-02-2010 14:36:41 8.5 C 4.1 g/m*3 8.5 C 0 km/h
37 18-02-2010 15:01:41 9.1 C 3.73 g/m*3 9.1 C 0 km/h
38 18-02-2010 15:26:41 9.5 C 3.64 g/m*3 9.5 C 0 km/h
39 18-02-2010 15:51:41 10.1 C 3.59 g/m*3 10.1 C 0 km/h
40 18-02-2010 16:16:41 9.6 C 3.57 g/m*3 9.6 C 0 km/h
41 18-02-2010 16:41:41 9.3 C 3.59 g/m*3 9.3 C 0 km/h
42 18-02-2010 17:06:41 7.5 C 3.36 g/m*3 7.5 C 0 km/h
43 18-02-2010 17:31:41 6.3 C 3.55 g/m*3 6.3 C 0 km/h
44 18-02-2010 17:56:41 5.6 C 3.68 g/m*3 5.6 C 0 km/h
45 18-02-2010 18:21:41 4 C 3.88 g/m*3 4 C 0 km/h
46 18-02-2010 18:46:41 3.2 C 3.98 g/m*3 3.2 C 0 km/h
47 18-02-2010 19:11:41 2.6 C 4.11 g/m*3 2.6 C 0 km/h
48 18-02-2010 19:36:41 2.5 C 4.2 g/m*3 2.5 C 0 km/h
49 18-02-2010 20:01:41 2.1 C 4.08 g/m*3 2.1 C 0 km/h
50 18-02-2010 20:26:41 2 C 4.17 g/m*3 2 C 0 km/h
Sensor: Nr:Datum:Temp:Abs-Feuchte:Windchill:Wind:
Aussen-T/F 51 18-02-2010 20:51:41 1.6 C 4.16 g/m*3 1.6 C 0 km/h
52 18-02-2010 21:16:41 1.4 C 4.21 g/m*3 1.4 C 0 km/h
53 18-02-2010 21:41:41 1.4 C 4.21 g/m*3 1.4 C 0 km/h
54 18-02-2010 22:06:41 1.7 C 4.3 g/m*3 1.7 C 0 km/h
55 18-02-2010 22:31:41 2 C 4.33 g/m*3 2 C 0 km/h
56 18-02-2010 22:56:42 1.9 C 4.36 g/m*3 1.9 C 0 km/h
57 18-02-2010 23:21:42 1.7 C 4.3 g/m*3 1.7 C 0 km/h
58 18-02-2010 23:46:42 1.9 C 4.53 g/m*3 1.9 C 0 km/h
59 19-02-2010 00:11:42 2.1 C 4.59 g/m*3 2.1 C 0 km/h
60 19-02-2010 00:36:42 1.8 C 4.55 g/m*3 1.8 C 0 km/h
61 19-02-2010 01:01:42 2 C 4.67 g/m*3 2 C 0 km/h
62 19-02-2010 01:26:42 2 C 4.67 g/m*3 2 C 0 km/h
63 19-02-2010 01:51:42 2.1 C 4.76 g/m*3 2.1 C 0 km/h
64 19-02-2010 02:16:42 2.1 C 4.7 g/m*3 2.1 C 0 km/h
65 19-02-2010 02:41:42 2 C 4.67 g/m*3 2 C 0 km/h
66 19-02-2010 03:06:42 1.8 C 4.66 g/m*3 1.8 C 0 km/h
67 19-02-2010 03:31:42 1.8 C 4.71 g/m*3 1.8 C 0 km/h
68 19-02-2010 03:56:42 1.6 C 4.7 g/m*3 1.6 C 0 km/h
69 19-02-2010 04:21:42 1.6 C 4.7 g/m*3 1.6 C 0 km/h
70 19-02-2010 04:46:42 1.6 C 4.7 g/m*3 1.6 C 0 km/h
71 19-02-2010 05:11:42 1.7 C 4.79 g/m*3 1.7 C 0 km/h
72 19-02-2010 05:36:42 1.8 C 4.77 g/m*3 1.8 C 0 km/h
73 19-02-2010 06:01:42 1.9 C 4.8 g/m*3 1.9 C 0 km/h
74 19-02-2010 06:26:42 2.1 C 4.76 g/m*3 2.1 C 0 km/h
75 19-02-2010 06:51:42 2 C 4.67 g/m*3 2 C 0 km/h
Sensor: Nr:Datum:Temp:Abs-Feuchte:Windchill:Wind:
Aussen-T/F 76 19-02-2010 07:16:42 1.7 C 4.63 g/m*3 1.7 C 0 km/h
77 19-02-2010 07:41:43 1.5 C 4.57 g/m*3 1.5 C 0 km/h
78 19-02-2010 08:06:43 1.5 C 4.62 g/m*3 1.5 C 0 km/h
79 19-02-2010 08:31:43 1.6 C 4.65 g/m*3 1.6 C 0 km/h
80 19-02-2010 08:56:43 2.1 C 4.81 g/m*3 2.1 C 0 km/h
81 19-02-2010 09:21:43 2.5 C 4.83 g/m*3 2.5 C 0 km/h
82 19-02-2010 09:46:43 3.1 C 4.91 g/m*3 3.1 C 0 km/h
83 19-02-2010 10:11:43 3.7 C 5.05 g/m*3 3.7 C 0 km/h
84 19-02-2010 10:36:02 4.6 C 5.1 g/m*3 4.6 C 0 km/h
85 19-02-2010 11:01:02 5.3 C 5.06 g/m*3 5.3 C 0 km/h
86 19-02-2010 11:26:01 6 C 4.79 g/m*3 6 C 0 km/h
87 19-02-2010 11:51:02 6.5 C 4.72 g/m*3 6.5 C 0 km/h
88 19-02-2010 12:16:02 7 C 4.49 g/m*3 7 C 0 km/h
89 19-02-2010 12:41:02 7.6 C 4.27 g/m*3 7.6 C 0 km/h
90 19-02-2010 13:06:02 7.6 C 4.11 g/m*3 7.6 C 0 km/h
91 19-02-2010 13:31:02 7.7 C 4.05 g/m*3 7.7 C 0 km/h
92 19-02-2010 13:56:02 7.6 C 3.95 g/m*3 7.6 C 0 km/h
93 19-02-2010 14:21:01 7.5 C 4 g/m*3 7.5 C 0 km/h
94 19-02-2010 14:46:02 7.5 C 3.92 g/m*3 7.5 C 0 km/h
95 19-02-2010 15:11:03 7.8 C 3.67 g/m*3 7.8 C 0 km/h
96 19-02-2010 15:36:02 7.2 C 3.53 g/m*3 7.2 C 0 km/h
97 19-02-2010 16:01:02 6.3 C 3.33 g/m*3 6.3 C 0 km/h
98 19-02-2010 16:26:01 6.1 C 3.29 g/m*3 6.1 C 0 km/h
99 19-02-2010 16:51:01 5.5 C 3.23 g/m*3 5.5 C 0 km/h
100 19-02-2010 17:16:02 5 C 3.06 g/m*3 5 C 0 km/h
Sensor: Nr:Datum:Temp:Abs-Feuchte:Windchill:Wind:
Aussen-T/F 101 19-02-2010 17:41:02 5.1 C 3.01 g/m*3 5.1 C 0 km/h
102 19-02-2010 18:06:02 4.5 C 3.02 g/m*3 4.5 C 0 km/h
103 19-02-2010 18:31:02 4.1 C 3.07 g/m*3 4.1 C 0 km/h
104 19-02-2010 18:56:01 3.7 C 3.18 g/m*3 3.7 C 0 km/h
105 19-02-2010 19:21:01 3.6 C 3.22 g/m*3 3.6 C 0 km/h
106 19-02-2010 19:46:02 3.6 C 3.28 g/m*3 3.6 C 0 km/h
107 19-02-2010 20:11:02 3.3 C 3.34 g/m*3 3.3 C 0 km/h
108 19-02-2010 20:36:02 3.3 C 3.46 g/m*3 3.3 C 0 km/h
109 19-02-2010 21:14:02 3.3 C 3.52 g/m*3 3.3 C 0 km/h
110 19-02-2010 21:26:02 3.2 C 3.56 g/m*3 3.2 C 0 km/h
111 19-02-2010 21:38:01 3.2 C 3.5 g/m*3 3.2 C 0 km/h
112 19-02-2010 21:50:01 3.1 C 3.53 g/m*3 3.1 C 0 km/h
113 19-02-2010 22:02:02 2.8 C 3.52 g/m*3 2.8 C 0 km/h
114 19-02-2010 22:14:02 2.6 C 3.53 g/m*3 2.6 C 0 km/h
115 19-02-2010 22:26:01 2.6 C 3.47 g/m*3 2.6 C 0 km/h
116 19-02-2010 22:38:02 2.4 C 3.43 g/m*3 2.4 C 0 km/h
117 19-02-2010 22:50:01 2.2 C 3.38 g/m*3 2.2 C 0 km/h
118 19-02-2010 23:02:02 2.1 C 3.36 g/m*3 2.1 C 0 km/h
119 19-02-2010 23:14:02 2.5 C 3.22 g/m*3 2.5 C 0 km/h
120 19-02-2010 23:26:01 2.5 C 3.16 g/m*3 2.5 C 0 km/h
121 19-02-2010 23:38:02 2.2 C 3.21 g/m*3 2.2 C 0 km/h
122 19-02-2010 23:50:01 1.6 C 3.24 g/m*3 1.6 C 0 km/h
123 20-02-2010 00:02:02 1.5 C 3.33 g/m*3 1.5 C 0 km/h
124 20-02-2010 00:14:02 1.4 C 3.31 g/m*3 1.4 C 0 km/h
125 20-02-2010 00:26:02 1.2 C 3.37 g/m*3 1.2 C 0 km/h
Sensor: Nr:Datum:Temp:Abs-Feuchte:Windchill:Wind:
Aussen-T/F 126 20-02-2010 00:38:01 1.1 C 3.4 g/m*3 1.1 C 0 km/h
127 20-02-2010 00:50:02 0.7 C 3.41 g/m*3 0.7 C 0 km/h
128 20-02-2010 01:02:01 0.4 C 3.39 g/m*3 0.4 C 0 km/h
129 20-02-2010 01:14:01 0.1 C 3.42 g/m*3 0.1 C 0 km/h
130 20-02-2010 01:26:01 -0.1 C 3.46 g/m*3 -0.1 C 0 km/h
131 20-02-2010 01:38:02 -0.1 C 3.51 g/m*3 -0.1 C 0 km/h
132 20-02-2010 01:50:02 -0.1 C 3.56 g/m*3 -0.1 C 0 km/h
133 20-02-2010 02:02:02 -0.2 C 3.58 g/m*3 -0.2 C 0 km/h
134 20-02-2010 02:14:02 -0.3 C 3.56 g/m*3 -0.3 C 0 km/h
135 20-02-2010 02:26:02 -0.3 C 3.61 g/m*3 -0.3 C 0 km/h
136 20-02-2010 02:38:02 -0.4 C 3.58 g/m*3 -0.4 C 0 km/h
137 20-02-2010 02:50:01 -0.4 C 3.58 g/m*3 -0.4 C 0 km/h
138 20-02-2010 03:02:01 -0.4 C 3.58 g/m*3 -0.4 C 0 km/h
139 20-02-2010 03:14:01 -0.7 C 3.46 g/m*3 -0.7 C 0 km/h
140 20-02-2010 03:26:01 -0.7 C 3.51 g/m*3 -0.7 C 0 km/h
141 20-02-2010 03:38:02 -0.8 C 3.48 g/m*3 -0.8 C 0 km/h
142 20-02-2010 03:50:02 -1 C 3.44 g/m*3 -1 C 0 km/h
143 20-02-2010 04:02:01 -0.9 C 3.51 g/m*3 -0.9 C 0 km/h
144 20-02-2010 04:14:01 -0.7 C 3.55 g/m*3 -0.7 C 0 km/h
145 20-02-2010 04:26:01 -0.7 C 3.51 g/m*3 -0.7 C 0 km/h
146 20-02-2010 04:38:02 -0.4 C 3.58 g/m*3 -0.4 C 0 km/h
147 20-02-2010 04:50:01 -0.2 C 3.58 g/m*3 -0.2 C 0 km/h
148 20-02-2010 05:02:01 -0.1 C 3.61 g/m*3 -0.1 C 0 km/h
149 20-02-2010 05:14:01 -0.2 C 3.54 g/m*3 -0.2 C 0 km/h
150 20-02-2010 05:26:01 -0.2 C 3.58 g/m*3 -0.2 C 0 km/h
Sensor: Nr:Datum:Temp:Abs-Feuchte:Windchill:Wind:
Aussen-T/F 151 20-02-2010 05:38:02 -0.2 C 3.58 g/m*3 -0.2 C 0 km/h
152 20-02-2010 05:50:01 0 C 3.63 g/m*3 0 C 0 km/h
153 20-02-2010 06:02:02 -0.2 C 3.58 g/m*3 -0.2 C 0 km/h
154 20-02-2010 06:14:02 0.1 C 3.71 g/m*3 0.1 C 0 km/h
155 20-02-2010 06:26:01 0.4 C 3.79 g/m*3 0.4 C 0 km/h
156 20-02-2010 06:38:01 0.3 C 3.76 g/m*3 0.3 C 0 km/h
157 20-02-2010 06:50:01 0 C 3.68 g/m*3 0 C 0 km/h
158 20-02-2010 07:02:01 -0.2 C 3.68 g/m*3 -0.2 C 0 km/h
159 20-02-2010 07:14:02 -0.5 C 3.65 g/m*3 -0.5 C 0 km/h
160 20-02-2010 07:26:01 -0.6 C 3.67 g/m*3 -0.6 C 0 km/h
161 20-02-2010 07:38:01 -0.6 C 3.72 g/m*3 -0.6 C 0 km/h
162 20-02-2010 07:50:01 -0.6 C 3.76 g/m*3 -0.6 C 0 km/h
163 20-02-2010 08:02:02 -0.2 C 3.92 g/m*3 -0.2 C 0 km/h
164 20-02-2010 08:14:02 0.1 C 3.95 g/m*3 0.1 C 0 km/h
165 20-02-2010 08:26:01 0.4 C 3.98 g/m*3 0.4 C 0 km/h
166 20-02-2010 08:38:01 0.7 C 3.97 g/m*3 0.7 C 0 km/h
167 20-02-2010 08:50:01 1 C 3.94 g/m*3 1 C 0 km/h
168 20-02-2010 09:02:02 1.2 C 3.95 g/m*3 1.2 C 0 km/h
169 20-02-2010 09:14:02 1.4 C 3.89 g/m*3 1.4 C 0 km/h
170 20-02-2010 09:26:01 1.5 C 3.87 g/m*3 1.5 C 0 km/h
171 20-02-2010 09:38:01 1.2 C 3.79 g/m*3 1.2 C 0 km/h
172 20-02-2010 09:50:01 1.2 C 3.74 g/m*3 1.2 C 0 km/h
173 20-02-2010 10:02:01 1.3 C 3.76 g/m*3 1.3 C 0 km/h
174 20-02-2010 10:14:01 1.4 C 3.73 g/m*3 1.4 C 0 km/h
175 20-02-2010 10:26:01 1.5 C 3.71 g/m*3 1.5 C 0 km/h
Sensor: Nr:Datum:Temp:Abs-Feuchte:Windchill:Wind:
Aussen-T/F 176 20-02-2010 10:38:01 1.7 C 3.76 g/m*3 1.7 C 0 km/h
177 20-02-2010 10:50:01 1.8 C 3.73 g/m*3 1.8 C 0 km/h
178 20-02-2010 11:02:01 2.1 C 3.75 g/m*3 2.1 C 0 km/h
179 20-02-2010 11:14:01 3 C 3.63 g/m*3 3 C 0 km/h
180 20-02-2010 11:26:01 3.3 C 3.58 g/m*3 3.3 C 0 km/h
181 20-02-2010 11:38:01 3.7 C 3.61 g/m*3 3.7 C 0 km/h
182 20-02-2010 11:50:01 4.1 C 3.46 g/m*3 4.1 C 0 km/h
183 20-02-2010 12:02:01 4.1 C 3.33 g/m*3 4.1 C 0 km/h
184 20-02-2010 12:14:01 3.9 C 3.47 g/m*3 3.9 C 0 km/h
185 20-02-2010 12:26:02 4.1 C 3.39 g/m*3 4.1 C 0 km/h
186 20-02-2010 12:38:01 3.8 C 3.45 g/m*3 3.8 C 0 km/h
187 20-02-2010 12:50:01 4.2 C 3.41 g/m*3 4.2 C 0 km/h
188 20-02-2010 13:02:01 4.2 C 3.22 g/m*3 4.2 C 0 km/h
189 20-02-2010 13:14:01 4.3 C 3.18 g/m*3 4.3 C 0 km/h
190 20-02-2010 13:26:02 4.5 C 3.22 g/m*3 4.5 C 0 km/h
191 20-02-2010 13:38:01 4.5 C 3.16 g/m*3 4.5 C 0 km/h
192 20-02-2010 13:50:02 4.3 C 3.11 g/m*3 4.3 C 0 km/h
193 20-02-2010 14:02:01 4.2 C 3.22 g/m*3 4.2 C 0 km/h
194 20-02-2010 14:14:01 4.5 C 3.22 g/m*3 4.5 C 0 km/h
195 20-02-2010 14:26:02 4.9 C 3.24 g/m*3 4.9 C 0 km/h
196 20-02-2010 14:38:01 4.7 C 3.2 g/m*3 4.7 C 0 km/h
197 20-02-2010 14:50:01 4.5 C 3.22 g/m*3 4.5 C 0 km/h
198 20-02-2010 15:02:01 4.4 C 3.2 g/m*3 4.4 C 0 km/h
199 20-02-2010 15:14:01 4.8 C 3.22 g/m*3 4.8 C 0 km/h
200 20-02-2010 15:26:02 4.9 C 3.17 g/m*3 4.9 C 0 km/h
Sensor: Nr:Datum:Temp:Abs-Feuchte:Windchill:Wind:
Aussen-T/F 201 20-02-2010 15:38:01 5.1 C 3.15 g/m*3 5.1 C 0 km/h
202 20-02-2010 15:50:02 5.1 C 3.08 g/m*3 5.1 C 0 km/h
203 20-02-2010 16:02:01 5 C 3.06 g/m*3 5 C 0 km/h
204 20-02-2010 16:14:01 4.9 C 3.11 g/m*3 4.9 C 0 km/h
205 20-02-2010 16:26:02 5 C 3.06 g/m*3 5 C 0 km/h
206 20-02-2010 16:38:01 5.2 C 3.1 g/m*3 5.2 C 0 km/h
207 20-02-2010 16:50:02 4.9 C 3.04 g/m*3 4.9 C 0 km/h
208 20-02-2010 17:02:01 4.5 C 3.09 g/m*3 4.5 C 0 km/h
209 20-02-2010 17:14:01 4.9 C 3.11 g/m*3 4.9 C 0 km/h
210 20-02-2010 17:26:01 4.8 C 3.08 g/m*3 4.8 C 0 km/h
211 20-02-2010 17:38:01 4.2 C 3.16 g/m*3 4.2 C 0 km/h
212 20-02-2010 17:50:02 3.6 C 3.47 g/m*3 3.6 C 0 km/h
213 20-02-2010 18:02:01 2.9 C 3.54 g/m*3 2.9 C 0 km/h
214 20-02-2010 18:14:01 2.5 C 3.56 g/m*3 2.5 C 0 km/h
215 20-02-2010 18:26:02 2.5 C 3.56 g/m*3 2.5 C 0 km/h
216 20-02-2010 18:38:01 2.7 C 3.55 g/m*3 2.7 C 0 km/h
217 20-02-2010 18:50:02 2.6 C 3.47 g/m*3 2.6 C 0 km/h
218 20-02-2010 19:02:01 2.2 C 3.44 g/m*3 2.2 C 0 km/h
219 20-02-2010 19:14:01 2 C 3.45 g/m*3 2 C 0 km/h
220 20-02-2010 19:26:01 1.8 C 3.45 g/m*3 1.8 C 0 km/h
221 20-02-2010 19:38:02 2 C 3.45 g/m*3 2 C 0 km/h
222 20-02-2010 19:50:01 1.5 C 3.44 g/m*3 1.5 C 0 km/h
223 20-02-2010 20:02:01 1.3 C 3.44 g/m*3 1.3 C 0 km/h
224 20-02-2010 20:14:01 0.9 C 3.45 g/m*3 0.9 C 0 km/h
225 20-02-2010 20:26:01 0.8 C 3.48 g/m*3 0.8 C 0 km/h
Sensor: Nr:Datum:Temp:Abs-Feuchte:Windchill:Wind:
Aussen-T/F 226 20-02-2010 20:38:02 0.6 C 3.43 g/m*3 0.6 C 0 km/h
227 20-02-2010 20:50:01 0.7 C 3.41 g/m*3 0.7 C 0 km/h
228 20-02-2010 21:02:02 0.7 C 3.41 g/m*3 0.7 C 0 km/h
229 20-02-2010 21:14:02 0.8 C 3.33 g/m*3 0.8 C 0 km/h
230 20-02-2010 21:26:01 0.8 C 3.28 g/m*3 0.8 C 0 km/h
231 20-02-2010 21:38:02 0.7 C 3.3 g/m*3 0.7 C 0 km/h
232 20-02-2010 21:50:01 1 C 3.32 g/m*3 1 C 0 km/h
233 20-02-2010 22:02:02 1.1 C 3.34 g/m*3 1.1 C 0 km/h
234 20-02-2010 22:14:02 0.9 C 3.35 g/m*3 0.9 C 0 km/h
235 20-02-2010 22:26:01 0.7 C 3.36 g/m*3 0.7 C 0 km/h
236 20-02-2010 22:38:02 0.4 C 3.34 g/m*3 0.4 C 0 km/h
237 20-02-2010 22:50:01 0.4 C 3.39 g/m*3 0.4 C 0 km/h
238 20-02-2010 23:02:02 0.5 C 3.41 g/m*3 0.5 C 0 km/h
239 20-02-2010 23:14:02 0.6 C 3.48 g/m*3 0.6 C 0 km/h
240 20-02-2010 23:26:01 0.9 C 3.56 g/m*3 0.9 C 0 km/h
241 20-02-2010 23:38:01 1.4 C 3.63 g/m*3 1.4 C 0 km/h
242 20-02-2010 23:50:01 1.5 C 3.6 g/m*3 1.5 C 0 km/h
243 21-02-2010 00:02:01 1.6 C 3.62 g/m*3 1.6 C 0 km/h
244 21-02-2010 00:14:01 1.8 C 3.67 g/m*3 1.8 C 0 km/h
245 21-02-2010 00:26:01 2.1 C 3.64 g/m*3 2.1 C 0 km/h
246 21-02-2010 00:38:02 2.2 C 3.66 g/m*3 2.2 C 0 km/h
247 21-02-2010 00:50:01 2.1 C 3.64 g/m*3 2.1 C 0 km/h
248 21-02-2010 01:02:02 2.1 C 3.64 g/m*3 2.1 C 0 km/h
249 21-02-2010 01:14:02 2 C 3.61 g/m*3 2 C 0 km/h
250 21-02-2010 01:26:01 1.7 C 3.59 g/m*3 1.7 C 0 km/h
Sensor: Nr:Datum:Temp:Abs-Feuchte:Windchill:Wind:
Aussen-T/F 251 21-02-2010 01:38:02 1.7 C 3.59 g/m*3 1.7 C 0 km/h
252 21-02-2010 01:50:01 1.7 C 3.54 g/m*3 1.7 C 0 km/h
253 21-02-2010 02:02:02 1.6 C 3.57 g/m*3 1.6 C 0 km/h
254 21-02-2010 02:14:02 1.6 C 3.57 g/m*3 1.6 C 0 km/h
255 21-02-2010 02:26:01 1.7 C 3.59 g/m*3 1.7 C 0 km/h
256 21-02-2010 02:38:01 1.8 C 3.62 g/m*3 1.8 C 0 km/h
257 21-02-2010 02:50:01 1.7 C 3.7 g/m*3 1.7 C 0 km/h
258 21-02-2010 03:02:01 1.5 C 3.81 g/m*3 1.5 C 0 km/h
259 21-02-2010 03:14:02 1.3 C 3.87 g/m*3 1.3 C 0 km/h
260 21-02-2010 03:26:02 1 C 3.89 g/m*3 1 C 0 km/h
261 21-02-2010 03:38:01 0.6 C 3.89 g/m*3 0.6 C 0 km/h
262 21-02-2010 03:50:01 0.4 C 3.93 g/m*3 0.4 C 0 km/h
263 21-02-2010 04:02:02 0.4 C 3.98 g/m*3 0.4 C 0 km/h
264 21-02-2010 04:14:02 0.4 C 4.08 g/m*3 0.4 C 0 km/h
265 21-02-2010 04:26:01 0.3 C 4.11 g/m*3 0.3 C 0 km/h
266 21-02-2010 04:38:01 0.4 C 4.18 g/m*3 0.4 C 0 km/h
267 21-02-2010 04:50:01 0.4 C 4.23 g/m*3 0.4 C 0 km/h
268 21-02-2010 05:02:01 0.5 C 4.31 g/m*3 0.5 C 0 km/h
269 21-02-2010 05:14:01 0.4 C 4.33 g/m*3 0.4 C 0 km/h
270 21-02-2010 05:26:01 0.5 C 4.36 g/m*3 0.5 C 0 km/h
271 21-02-2010 05:38:01 0.5 C 4.41 g/m*3 0.5 C 0 km/h
272 21-02-2010 05:50:01 0.6 C 4.44 g/m*3 0.6 C 0 km/h
273 21-02-2010 06:02:01 0.6 C 4.49 g/m*3 0.6 C 0 km/h
274 21-02-2010 06:14:01 0.7 C 4.53 g/m*3 0.7 C 0 km/h
275 21-02-2010 06:26:02 0.7 C 4.53 g/m*3 0.7 C 0 km/h
Sensor: Nr:Datum:Temp:Abs-Feuchte:Windchill:Wind:
Aussen-T/F 276 21-02-2010 06:38:01 0.8 C 4.56 g/m*3 0.8 C 0 km/h
277 21-02-2010 06:50:02 0.8 C 4.56 g/m*3 0.8 C 0 km/h
278 21-02-2010 07:02:01 0.9 C 4.54 g/m*3 0.9 C 0 km/h
279 21-02-2010 07:14:01 0.9 C 4.48 g/m*3 0.9 C 0 km/h
280 21-02-2010 07:26:02 0.8 C 4.45 g/m*3 0.8 C 0 km/h
281 21-02-2010 07:38:01 0.8 C 4.4 g/m*3 0.8 C 0 km/h
282 21-02-2010 07:50:01 0.8 C 4.35 g/m*3 0.8 C 0 km/h
283 21-02-2010 08:02:02 1.3 C 4.45 g/m*3 1.3 C 0 km/h
284 21-02-2010 08:14:02 1.2 C 4.42 g/m*3 1.2 C 0 km/h
285 21-02-2010 08:26:01 1.4 C 4.37 g/m*3 1.4 C 0 km/h
286 21-02-2010 08:38:01 1.6 C 4.38 g/m*3 1.6 C 0 km/h
287 21-02-2010 08:50:01 1.5 C 4.4 g/m*3 1.5 C 0 km/h
288 21-02-2010 09:02:01 1.6 C 4.43 g/m*3 1.6 C 0 km/h
289 21-02-2010 09:14:02 1.7 C 4.46 g/m*3 1.7 C 0 km/h
290 21-02-2010 09:26:01 2 C 4.5 g/m*3 2 C 0 km/h
291 21-02-2010 09:38:01 2.1 C 4.48 g/m*3 2.1 C 0 km/h
292 21-02-2010 09:50:01 2.3 C 4.48 g/m*3 2.3 C 0 km/h
293 21-02-2010 10:02:02 2.5 C 4.48 g/m*3 2.5 C 0 km/h
294 21-02-2010 10:14:02 2.8 C 4.52 g/m*3 2.8 C 0 km/h
295 21-02-2010 10:26:01 2.9 C 4.49 g/m*3 2.9 C 0 km/h
296 21-02-2010 10:38:02 3 C 4.34 g/m*3 3 C 0 km/h
297 21-02-2010 10:50:02 3.1 C 4.37 g/m*3 3.1 C 0 km/h
298 21-02-2010 11:02:01 3.2 C 4.4 g/m*3 3.2 C 0 km/h
299 21-02-2010 11:14:01 3.7 C 4.42 g/m*3 3.7 C 0 km/h
300 21-02-2010 11:26:01 3.8 C 4.33 g/m*3 3.8 C 0 km/h
Sensor: Nr:Datum:Temp:Abs-Feuchte:Windchill:Wind:
Aussen-T/F 301 21-02-2010 11:38:02 4 C 4.26 g/m*3 4 C 0 km/h
302 21-02-2010 11:50:01 4.2 C 4.25 g/m*3 4.2 C 0 km/h
303 21-02-2010 12:02:01 4.4 C 4.05 g/m*3 4.4 C 0 km/h
304 21-02-2010 12:14:01 4.5 C 3.81 g/m*3 4.5 C 0 km/h
305 21-02-2010 12:26:02 4.8 C 3.82 g/m*3 4.8 C 0 km/h
306 21-02-2010 12:38:01 5 C 3.94 g/m*3 5 C 0 km/h
307 21-02-2010 12:50:01 5.1 C 3.9 g/m*3 5.1 C 0 km/h
308 21-02-2010 13:02:01 4.9 C 3.78 g/m*3 4.9 C 0 km/h
309 21-02-2010 13:14:01 4.7 C 3.86 g/m*3 4.7 C 0 km/h
310 21-02-2010 13:26:01 4.7 C 3.93 g/m*3 4.7 C 0 km/h
311 21-02-2010 13:38:01 4.7 C 4.06 g/m*3 4.7 C 0 km/h
312 21-02-2010 13:50:01 5.2 C 4.06 g/m*3 5.2 C 0 km/h
313 21-02-2010 14:02:02 5.7 C 4.06 g/m*3 5.7 C 0 km/h
314 21-02-2010 14:14:02 5.3 C 3.95 g/m*3 5.3 C 0 km/h
315 21-02-2010 14:26:01 5.3 C 3.95 g/m*3 5.3 C 0 km/h
316 21-02-2010 14:38:01 5.2 C 4.06 g/m*3 5.2 C 0 km/h
317 21-02-2010 14:50:01 5.2 C 4.06 g/m*3 5.2 C 0 km/h
318 21-02-2010 15:02:01 5.4 C 4.12 g/m*3 5.4 C 0 km/h
319 21-02-2010 15:14:01 6.1 C 4.09 g/m*3 6.1 C 0 km/h
320 21-02-2010 15:26:01 6.3 C 4.07 g/m*3 6.3 C 0 km/h
321 21-02-2010 15:38:01 6.4 C 4.1 g/m*3 6.4 C 0 km/h
322 21-02-2010 15:50:02 6.3 C 4.15 g/m*3 6.3 C 0 km/h
323 21-02-2010 16:02:01 6.4 C 4.17 g/m*3 6.4 C 0 km/h
324 21-02-2010 16:14:01 6.5 C 4.12 g/m*3 6.5 C 0 km/h
325 21-02-2010 16:26:02 6.5 C 4.2 g/m*3 6.5 C 0 km/h
Sensor: Nr:Datum:Temp:Abs-Feuchte:Windchill:Wind:
Aussen-T/F 326 21-02-2010 16:38:01 6.2 C 4.04 g/m*3 6.2 C 0 km/h
327 21-02-2010 16:50:01 7.2 C 4.24 g/m*3 7.2 C 0 km/h
328 21-02-2010 17:02:02 6.5 C 3.97 g/m*3 6.5 C 0 km/h
329 21-02-2010 17:14:02 5.9 C 4.11 g/m*3 5.9 C 0 km/h
330 21-02-2010 17:26:01 5.6 C 4.1 g/m*3 5.6 C 0 km/h
331 21-02-2010 17:38:02 5.3 C 4.16 g/m*3 5.3 C 0 km/h
332 21-02-2010 17:50:01 5.1 C 4.17 g/m*3 5.1 C 0 km/h
333 21-02-2010 18:02:02 4.8 C 4.29 g/m*3 4.8 C 0 km/h
334 21-02-2010 18:14:02 4.6 C 4.3 g/m*3 4.6 C 0 km/h
335 21-02-2010 18:26:01 4.4 C 4.31 g/m*3 4.4 C 0 km/h
336 21-02-2010 18:38:01 3.8 C 4.27 g/m*3 3.8 C 0 km/h
337 21-02-2010 18:50:01 3.4 C 4.28 g/m*3 3.4 C 0 km/h
338 21-02-2010 19:02:02 3 C 4.22 g/m*3 3 C 0 km/h
339 21-02-2010 19:14:02 2.9 C 4.37 g/m*3 2.9 C 0 km/h
340 21-02-2010 19:26:01 2.8 C 4.4 g/m*3 2.8 C 0 km/h
341 21-02-2010 19:38:01 2.8 C 4.46 g/m*3 2.8 C 0 km/h
342 21-02-2010 19:50:01 2.7 C 4.49 g/m*3 2.7 C 0 km/h
343 21-02-2010 20:02:01 2.5 C 4.43 g/m*3 2.5 C 0 km/h
344 21-02-2010 20:14:01 2.4 C 4.4 g/m*3 2.4 C 0 km/h
345 21-02-2010 20:26:01 2.7 C 4.6 g/m*3 2.7 C 0 km/h
346 21-02-2010 20:38:01 2.8 C 4.63 g/m*3 2.8 C 0 km/h
347 21-02-2010 20:50:01 3 C 4.58 g/m*3 3 C 0 km/h
348 21-02-2010 21:02:01 3 C 4.58 g/m*3 3 C 0 km/h
349 21-02-2010 21:14:01 3 C 4.58 g/m*3 3 C 0 km/h
350 21-02-2010 21:26:02 2.9 C 4.61 g/m*3 2.9 C 0 km/h
Sensor: Nr:Datum:Temp:Abs-Feuchte:Windchill:Wind:
Aussen-T/F 351 21-02-2010 21:38:01 2.8 C 4.58 g/m*3 2.8 C 0 km/h
352 21-02-2010 21:50:02 2.7 C 4.6 g/m*3 2.7 C 0 km/h
353 21-02-2010 22:02:01 2.6 C 4.57 g/m*3 2.6 C 0 km/h
354 21-02-2010 22:14:01 2.4 C 4.51 g/m*3 2.4 C 0 km/h
355 21-02-2010 22:26:02 2.3 C 4.54 g/m*3 2.3 C 0 km/h
356 21-02-2010 22:38:01 2.1 C 4.53 g/m*3 2.1 C 0 km/h
357 21-02-2010 22:50:02 2.1 C 4.53 g/m*3 2.1 C 0 km/h
358 21-02-2010 23:02:01 2.2 C 4.62 g/m*3 2.2 C 0 km/h
359 21-02-2010 23:14:01 2.1 C 4.59 g/m*3 2.1 C 0 km/h
360 21-02-2010 23:26:02 2 C 4.56 g/m*3 2 C 0 km/h
361 21-02-2010 23:38:01 2 C 4.56 g/m*3 2 C 0 km/h
362 21-02-2010 23:50:02 1.9 C 4.58 g/m*3 1.9 C 0 km/h
363 22-02-2010 00:02:01 1.9 C 4.58 g/m*3 1.9 C 0 km/h
364 22-02-2010 00:14:01 1.8 C 4.55 g/m*3 1.8 C 0 km/h
365 22-02-2010 00:26:01 1.7 C 4.57 g/m*3 1.7 C 0 km/h
366 22-02-2010 00:38:02 1.7 C 4.57 g/m*3 1.7 C 0 km/h
367 22-02-2010 00:50:01 1.6 C 4.54 g/m*3 1.6 C 0 km/h
368 22-02-2010 01:02:02 1.6 C 4.54 g/m*3 1.6 C 0 km/h
369 22-02-2010 01:14:02 1.5 C 4.51 g/m*3 1.5 C 0 km/h
370 22-02-2010 01:26:01 1.3 C 4.45 g/m*3 1.3 C 0 km/h
371 22-02-2010 01:38:02 1.3 C 4.45 g/m*3 1.3 C 0 km/h
372 22-02-2010 01:50:01 1.3 C 4.45 g/m*3 1.3 C 0 km/h
373 22-02-2010 02:02:02 1.3 C 4.45 g/m*3 1.3 C 0 km/h
374 22-02-2010 02:14:02 1.3 C 4.45 g/m*3 1.3 C 0 km/h
375 22-02-2010 02:26:01 1 C 4.36 g/m*3 1 C 0 km/h
Sensor: Nr:Datum:Temp:Abs-Feuchte:Windchill:Wind:
Aussen-T/F 376 22-02-2010 02:38:01 1 C 4.36 g/m*3 1 C 0 km/h
377 22-02-2010 02:50:01 1 C 4.41 g/m*3 1 C 0 km/h
378 22-02-2010 03:02:01 1.1 C 4.44 g/m*3 1.1 C 0 km/h
379 22-02-2010 03:14:02 1.1 C 4.44 g/m*3 1.1 C 0 km/h
380 22-02-2010 03:26:02 1 C 4.41 g/m*3 1 C 0 km/h
381 22-02-2010 03:38:01 1.1 C 4.44 g/m*3 1.1 C 0 km/h
382 22-02-2010 03:50:01 1.1 C 4.49 g/m*3 1.1 C 0 km/h
383 22-02-2010 04:02:02 1.4 C 4.59 g/m*3 1.4 C 0 km/h
384 22-02-2010 04:14:02 1.1 C 4.44 g/m*3 1.1 C 0 km/h
385 22-02-2010 04:26:01 1 C 4.41 g/m*3 1 C 0 km/h
386 22-02-2010 04:38:02 1.1 C 4.49 g/m*3 1.1 C 0 km/h
387 22-02-2010 04:50:01 1.1 C 4.49 g/m*3 1.1 C 0 km/h
388 22-02-2010 05:02:02 1.1 C 4.49 g/m*3 1.1 C 0 km/h
389 22-02-2010 05:14:02 1.2 C 4.53 g/m*3 1.2 C 0 km/h
390 22-02-2010 05:26:01 1.4 C 4.59 g/m*3 1.4 C 0 km/h
391 22-02-2010 05:38:01 1.4 C 4.59 g/m*3 1.4 C 0 km/h
392 22-02-2010 05:50:01 1.5 C 4.62 g/m*3 1.5 C 0 km/h
393 22-02-2010 06:02:01 1.5 C 4.62 g/m*3 1.5 C 0 km/h
394 22-02-2010 06:14:02 1.5 C 4.62 g/m*3 1.5 C 0 km/h
395 22-02-2010 06:26:01 1.5 C 4.62 g/m*3 1.5 C 0 km/h
396 22-02-2010 06:38:01 1.6 C 4.65 g/m*3 1.6 C 0 km/h
397 22-02-2010 06:50:01 1.6 C 4.65 g/m*3 1.6 C 0 km/h
398 22-02-2010 07:02:01 1.6 C 4.65 g/m*3 1.6 C 0 km/h
399 22-02-2010 07:14:01 1.8 C 4.77 g/m*3 1.8 C 0 km/h
400 22-02-2010 07:26:02 2.2 C 4.9 g/m*3 2.2 C 0 km/h
Sensor: Nr:Datum:Temp:Abs-Feuchte:Windchill:Wind:
Aussen-T/F 401 22-02-2010 07:38:01 2.3 C 4.93 g/m*3 2.3 C 0 km/h
402 22-02-2010 07:50:02 2.5 C 5 g/m*3 2.5 C 0 km/h
403 22-02-2010 08:02:01 2.7 C 5.07 g/m*3 2.7 C 0 km/h
404 22-02-2010 08:14:01 3 C 5.11 g/m*3 3 C 0 km/h
405 22-02-2010 08:26:02 3.2 C 5.12 g/m*3 3.2 C 0 km/h
406 22-02-2010 08:38:01 3.5 C 5.16 g/m*3 3.5 C 0 km/h
407 22-02-2010 08:50:02 3.8 C 5.21 g/m*3 3.8 C 0 km/h
408 22-02-2010 09:02:01 4.2 C 5.22 g/m*3 4.2 C 0 km/h
409 22-02-2010 09:14:01 4.5 C 5.32 g/m*3 4.5 C 0 km/h
410 22-02-2010 09:26:01 4.8 C 5.3 g/m*3 4.8 C 0 km/h
411 22-02-2010 09:38:01 5.1 C 5.27 g/m*3 5.1 C 0 km/h
412 22-02-2010 09:50:02 5.3 C 5.2 g/m*3 5.3 C 0 km/h
413 22-02-2010 10:02:01 5.7 C 5.19 g/m*3 5.7 C 0 km/h
414 22-02-2010 10:14:01 6.3 C 5.18 g/m*3 6.3 C 0 km/h
415 22-02-2010 10:26:01 6.9 C 5.08 g/m*3 6.9 C 0 km/h
416 22-02-2010 10:38:02 7.2 C 5.02 g/m*3 7.2 C 0 km/h
417 22-02-2010 10:50:01 7.6 C 5.08 g/m*3 7.6 C 0 km/h
418 22-02-2010 11:02:01 7.7 C 5.19 g/m*3 7.7 C 0 km/h
419 22-02-2010 11:14:01 8 C 5.21 g/m*3 8 C 0 km/h
420 22-02-2010 11:26:02 8.5 C 5.21 g/m*3 8.5 C 0 km/h
421 22-02-2010 11:38:01 8.9 C 5.26 g/m*3 8.9 C 0 km/h
422 22-02-2010 11:50:02 8.7 C 5.19 g/m*3 8.7 C 0 km/h
423 22-02-2010 12:02:01 8.6 C 5.33 g/m*3 8.6 C 0 km/h
424 22-02-2010 12:14:01 8.4 C 5.51 g/m*3 8.4 C 0 km/h
425 22-02-2010 12:26:02 8.8 C 5.74 g/m*3 8.8 C 0 km/h
Sensor: Nr:Datum:Temp:Abs-Feuchte:Windchill:Wind:
Aussen-T/F 426 22-02-2010 12:38:01 9.7 C 5.81 g/m*3 9.7 C 0 km/h
427 22-02-2010 12:50:02 10.3 C 5.55 g/m*3 10.3 C 0 km/h
428 22-02-2010 13:02:01 10.6 C 5.37 g/m*3 10.6 C 0 km/h
429 22-02-2010 13:14:01 11.2 C 5.27 g/m*3 11.2 C 0 km/h
430 22-02-2010 13:26:01 11.7 C 5.12 g/m*3 11.7 C 0 km/h
431 22-02-2010 13:38:02 11.4 C 5.13 g/m*3 11.4 C 0 km/h
432 22-02-2010 13:50:01 11.8 C 5.26 g/m*3 11.8 C 0 km/h
433 22-02-2010 14:02:02 11.9 C 5.08 g/m*3 11.9 C 0 km/h
434 22-02-2010 14:14:02 12.7 C 5.01 g/m*3 12.7 C 0 km/h
435 22-02-2010 14:26:01 12.2 C 5.07 g/m*3 12.2 C 0 km/h
436 22-02-2010 14:38:02 12.5 C 5.06 g/m*3 12.5 C 0 km/h
437 22-02-2010 14:50:01 12.2 C 5.07 g/m*3 12.2 C 0 km/h
438 22-02-2010 15:02:02 12.3 C 5.1 g/m*3 12.3 C 0 km/h
439 22-02-2010 15:14:02 12.7 C 5.12 g/m*3 12.7 C 0 km/h
440 22-02-2010 15:26:01 13.3 C 5.2 g/m*3 13.3 C 0 km/h
441 22-02-2010 15:38:02 13.4 C 5 g/m*3 13.4 C 0 km/h
442 22-02-2010 15:50:01 12.7 C 5.23 g/m*3 12.7 C 0 km/h
443 22-02-2010 16:02:02 12.4 C 5.14 g/m*3 12.4 C 0 km/h
444 22-02-2010 16:14:02 11.9 C 5.3 g/m*3 11.9 C 0 km/h
445 22-02-2010 16:26:01 11.5 C 5.37 g/m*3 11.5 C 0 km/h
446 22-02-2010 16:38:01 11.4 C 5.44 g/m*3 11.4 C 0 km/h
447 22-02-2010 16:50:01 11.8 C 5.58 g/m*3 11.8 C 0 km/h
448 22-02-2010 17:02:01 12.1 C 5.47 g/m*3 12.1 C 0 km/h
449 22-02-2010 17:14:01 11.8 C 5.47 g/m*3 11.8 C 0 km/h
450 22-02-2010 17:26:01 11.3 C 5.51 g/m*3 11.3 C 0 km/h
Sensor: Nr:Datum:Temp:Abs-Feuchte:Windchill:Wind:
Aussen-T/F 451 22-02-2010 17:38:01 10.7 C 5.6 g/m*3 10.7 C 0 km/h
452 22-02-2010 17:50:01 10.4 C 5.69 g/m*3 10.4 C 0 km/h
453 22-02-2010 18:02:01 10.1 C 5.67 g/m*3 10.1 C 0 km/h
454 22-02-2010 18:14:01 9.9 C 5.79 g/m*3 9.9 C 0 km/h
455 22-02-2010 18:26:02 9.7 C 5.72 g/m*3 9.7 C 0 km/h
456 22-02-2010 18:38:01 9.4 C 5.7 g/m*3 9.4 C 0 km/h
457 22-02-2010 18:50:02 9.2 C 5.8 g/m*3 9.2 C 0 km/h
458 22-02-2010 19:02:01 9 C 5.73 g/m*3 9 C 0 km/h
459 22-02-2010 19:14:01 8.9 C 5.87 g/m*3 8.9 C 0 km/h
460 22-02-2010 19:26:02 8.9 C 5.87 g/m*3 8.9 C 0 km/h
461 22-02-2010 19:38:01 9 C 5.82 g/m*3 9 C 0 km/h
462 22-02-2010 19:50:02 9.1 C 5.77 g/m*3 9.1 C 0 km/h
463 22-02-2010 20:02:02 9.1 C 5.68 g/m*3 9.1 C 0 km/h
464 22-02-2010 20:14:02 9.2 C 5.63 g/m*3 9.2 C 0 km/h
465 22-02-2010 20:26:01 9.5 C 5.64 g/m*3 9.5 C 0 km/h
466 22-02-2010 20:38:02 9.4 C 5.52 g/m*3 9.4 C 0 km/h
467 22-02-2010 20:50:02 9 C 5.47 g/m*3 9 C 0 km/h
468 22-02-2010 21:02:01 8.7 C 5.53 g/m*3 8.7 C 0 km/h
469 22-02-2010 21:14:01 8.9 C 5.52 g/m*3 8.9 C 0 km/h
470 22-02-2010 21:26:01 8.8 C 5.48 g/m*3 8.8 C 0 km/h
471 22-02-2010 21:38:02 8.9 C 5.52 g/m*3 8.9 C 0 km/h
472 22-02-2010 21:50:01 8.9 C 5.52 g/m*3 8.9 C 0 km/h
473 22-02-2010 22:02:02 9.1 C 5.5 g/m*3 9.1 C 0 km/h
474 22-02-2010 22:14:02 9.5 C 5.55 g/m*3 9.5 C 0 km/h
475 22-02-2010 22:28:08 10.1 C 5.67 g/m*3 10.1 C 0 km/h
Sensor: Nr:Datum:Temp:Abs-Feuchte:Windchill:Wind:
Aussen-T/F 476 22-02-2010 22:40:08 11.1 C 5.54 g/m*3 11.1 C 0 km/h
477 22-02-2010 22:52:08 11.5 C 5.47 g/m*3 11.5 C 0 km/h
478 22-02-2010 23:04:08 12 C 5.33 g/m*3 12 C 0 km/h
479 22-02-2010 23:16:08 12.1 C 5.36 g/m*3 12.1 C 0 km/h
480 22-02-2010 23:28:08 12.1 C 5.47 g/m*3 12.1 C 0 km/h
481 22-02-2010 23:40:08 12 C 5.44 g/m*3 12 C 0 km/h
482 22-02-2010 23:52:08 12.2 C 5.5 g/m*3 12.2 C 0 km/h
483 23-02-2010 00:04:08 12.1 C 5.47 g/m*3 12.1 C 0 km/h
484 23-02-2010 00:16:08 12.1 C 5.47 g/m*3 12.1 C 0 km/h
485 23-02-2010 00:28:08 12.2 C 5.5 g/m*3 12.2 C 0 km/h
486 23-02-2010 00:40:08 12.2 C 5.4 g/m*3 12.2 C 0 km/h
487 23-02-2010 00:52:08 12.1 C 5.36 g/m*3 12.1 C 0 km/h
488 23-02-2010 01:04:08 11.8 C 5.47 g/m*3 11.8 C 0 km/h
489 23-02-2010 01:16:08 11.5 C 5.58 g/m*3 11.5 C 0 km/h
490 23-02-2010 01:28:08 11.4 C 5.75 g/m*3 11.4 C 0 km/h
491 23-02-2010 01:40:08 11.4 C 5.75 g/m*3 11.4 C 0 km/h
492 23-02-2010 01:52:08 11.4 C 5.85 g/m*3 11.4 C 0 km/h
493 23-02-2010 02:04:08 11.2 C 5.78 g/m*3 11.2 C 0 km/h
494 23-02-2010 02:16:08 11.2 C 5.88 g/m*3 11.2 C 0 km/h
495 23-02-2010 02:28:08 10.6 C 6.25 g/m*3 10.6 C 0 km/h
496 23-02-2010 02:40:08 10.4 C 6.46 g/m*3 10.4 C 0 km/h
497 23-02-2010 02:52:08 9.6 C 6.78 g/m*3 9.6 C 0 km/h
498 23-02-2010 03:04:09 9.3 C 6.83 g/m*3 9.3 C 0 km/h
499 23-02-2010 03:16:09 9.2 C 6.97 g/m*3 9.2 C 0 km/h
500 23-02-2010 03:28:09 9.1 C 6.92 g/m*3 9.1 C 0 km/h
Sensor: Nr:Datum:Temp:Abs-Feuchte:Windchill:Wind:
Aussen-T/F 501 23-02-2010 03:40:09 9.1 C 7.01 g/m*3 9.1 C 0 km/h
502 23-02-2010 03:52:09 8.9 C 7.1 g/m*3 8.9 C 0 km/h
503 23-02-2010 04:04:09 8.6 C 7.13 g/m*3 8.6 C 0 km/h
504 23-02-2010 04:16:09 8.6 C 7.22 g/m*3 8.6 C 0 km/h
505 23-02-2010 04:28:09 8.5 C 7.17 g/m*3 8.5 C 0 km/h
506 23-02-2010 04:40:09 8.6 C 7.22 g/m*3 8.6 C 0 km/h
507 23-02-2010 04:52:09 8.5 C 7.17 g/m*3 8.5 C 0 km/h
508 23-02-2010 05:04:09 8.4 C 7.04 g/m*3 8.4 C 0 km/h
509 23-02-2010 05:16:09 8.5 C 7.17 g/m*3 8.5 C 0 km/h
510 23-02-2010 05:28:09 8.3 C 7.08 g/m*3 8.3 C 0 km/h
511 23-02-2010 05:40:09 8.5 C 7.17 g/m*3 8.5 C 0 km/h
512 23-02-2010 05:52:09 8.5 C 7.09 g/m*3 8.5 C 0 km/h
513 23-02-2010 06:04:09 8.5 C 7.09 g/m*3 8.5 C 0 km/h
514 23-02-2010 06:16:09 8.5 C 7.09 g/m*3 8.5 C 0 km/h
515 23-02-2010 06:28:09 8.5 C 7.09 g/m*3 8.5 C 0 km/h
516 23-02-2010 06:40:09 8.5 C 7.09 g/m*3 8.5 C 0 km/h
517 23-02-2010 06:52:09 8.5 C 7.09 g/m*3 8.5 C 0 km/h
518 23-02-2010 07:04:09 8.4 C 7.04 g/m*3 8.4 C 0 km/h
519 23-02-2010 07:16:08 8.2 C 6.95 g/m*3 8.2 C 0 km/h
520 23-02-2010 07:28:08 8.1 C 6.99 g/m*3 8.1 C 0 km/h
521 23-02-2010 07:40:08 8.2 C 7.03 g/m*3 8.2 C 0 km/h
522 23-02-2010 07:52:01 8.2 C 7.03 g/m*3 8.2 C 0 km/h
523 23-02-2010 08:04:02 8.3 C 7.16 g/m*3 8.3 C 0 km/h
524 23-02-2010 08:16:01 8.5 C 7.26 g/m*3 8.5 C 0 km/h
525 23-02-2010 08:28:01 8.6 C 7.22 g/m*3 8.6 C 0 km/h
Sensor: Nr:Datum:Temp:Abs-Feuchte:Windchill:Wind:
Aussen-T/F 526 23-02-2010 08:40:02 8.8 C 7.31 g/m*3 8.8 C 0 km/h
527 23-02-2010 08:52:02 8.9 C 7.27 g/m*3 8.9 C 0 km/h
528 23-02-2010 09:04:02 9 C 7.23 g/m*3 9 C 0 km/h
529 23-02-2010 09:16:01 9.1 C 7.28 g/m*3 9.1 C 0 km/h
530 23-02-2010 09:28:01 9.1 C 7.1 g/m*3 9.1 C 0 km/h
531 23-02-2010 09:40:02 9.1 C 7.01 g/m*3 9.1 C 0 km/h
532 23-02-2010 09:52:02 9.3 C 7.19 g/m*3 9.3 C 0 km/h
533 23-02-2010 10:04:02 9.7 C 7.19 g/m*3 9.7 C 0 km/h
534 23-02-2010 10:16:01 10.4 C 7.04 g/m*3 10.4 C 0 km/h
535 23-02-2010 10:28:01 10.7 C 6.88 g/m*3 10.7 C 0 km/h
536 23-02-2010 10:40:02 10.6 C 6.83 g/m*3 10.6 C 0 km/h
537 23-02-2010 10:52:01 10.6 C 6.73 g/m*3 10.6 C 0 km/h
538 23-02-2010 11:04:02 10.8 C 6.92 g/m*3 10.8 C 0 km/h
539 23-02-2010 11:16:02 11 C 6.81 g/m*3 11 C 0 km/h
540 23-02-2010 11:28:02 11.2 C 6.69 g/m*3 11.2 C 0 km/h
541 23-02-2010 11:40:02 11.4 C 6.57 g/m*3 11.4 C 0 km/h
542 23-02-2010 11:52:01 11.6 C 6.55 g/m*3 11.6 C 0 km/h
543 23-02-2010 12:04:02 11.2 C 6.49 g/m*3 11.2 C 0 km/h
544 23-02-2010 12:16:02 10.9 C 6.66 g/m*3 10.9 C 0 km/h
545 23-02-2010 12:28:02 10.3 C 6.9 g/m*3 10.3 C 0 km/h
546 23-02-2010 12:40:01 10.5 C 7.27 g/m*3 10.5 C 0 km/h
547 23-02-2010 12:52:02 10.4 C 7.13 g/m*3 10.4 C 0 km/h
548 23-02-2010 13:04:01 10.3 C 7.18 g/m*3 10.3 C 0 km/h
549 23-02-2010 13:16:02 10.4 C 7.32 g/m*3 10.4 C 0 km/h
550 23-02-2010 13:28:02 10.5 C 7.37 g/m*3 10.5 C 0 km/h
Sensor: Nr:Datum:Temp:Abs-Feuchte:Windchill:Wind:
Aussen-T/F 551 23-02-2010 13:40:01 10.3 C 7.47 g/m*3 10.3 C 0 km/h
552 23-02-2010 13:52:02 10.6 C 7.71 g/m*3 10.6 C 0 km/h
553 23-02-2010 14:04:02 10.9 C 7.76 g/m*3 10.9 C 0 km/h
554 23-02-2010 14:16:02 11 C 7.81 g/m*3 11 C 0 km/h
555 23-02-2010 14:28:02 10.8 C 7.71 g/m*3 10.8 C 0 km/h
556 23-02-2010 14:40:03 10.9 C 7.76 g/m*3 10.9 C 0 km/h
557 23-02-2010 14:52:02 11 C 7.61 g/m*3 11 C 0 km/h
558 23-02-2010 15:04:01 11 C 7.71 g/m*3 11 C 0 km/h
559 23-02-2010 15:16:02 11 C 7.71 g/m*3 11 C 0 km/h
560 23-02-2010 15:28:02 11 C 7.81 g/m*3 11 C 0 km/h
561 23-02-2010 15:40:02 11.1 C 7.66 g/m*3 11.1 C 0 km/h
562 23-02-2010 15:52:02 11 C 7.51 g/m*3 11 C 0 km/h
563 23-02-2010 16:04:03 10.7 C 7.46 g/m*3 10.7 C 0 km/h
564 23-02-2010 16:16:02 10.5 C 7.47 g/m*3 10.5 C 0 km/h
565 23-02-2010 16:28:02 10.6 C 7.52 g/m*3 10.6 C 0 km/h
566 23-02-2010 16:40:02 10.6 C 7.52 g/m*3 10.6 C 0 km/h
567 23-02-2010 16:52:01 10.4 C 7.32 g/m*3 10.4 C 0 km/h
568 23-02-2010 17:04:02 10.4 C 7.32 g/m*3 10.4 C 0 km/h
569 23-02-2010 17:16:01 10.2 C 7.23 g/m*3 10.2 C 0 km/h
570 23-02-2010 17:28:01 10.1 C 7.09 g/m*3 10.1 C 0 km/h
571 23-02-2010 17:40:02 10.1 C 7.19 g/m*3 10.1 C 0 km/h
572 23-02-2010 17:52:01 10 C 7.14 g/m*3 10 C 0 km/h
573 23-02-2010 18:04:02 9.8 C 7.24 g/m*3 9.8 C 0 km/h
574 23-02-2010 18:16:01 9.6 C 7.33 g/m*3 9.6 C 0 km/h
575 23-02-2010 18:28:01 9.6 C 7.33 g/m*3 9.6 C 0 km/h
Sensor: Nr:Datum:Temp:Abs-Feuchte:Windchill:Wind:
Aussen-T/F 576 23-02-2010 18:40:02 9.5 C 7.37 g/m*3 9.5 C 0 km/h
577 23-02-2010 18:52:01 9.5 C 7.46 g/m*3 9.5 C 0 km/h
578 23-02-2010 19:04:02 9.2 C 7.41 g/m*3 9.2 C 0 km/h
579 23-02-2010 19:16:02 9.1 C 7.45 g/m*3 9.1 C 0 km/h
580 23-02-2010 19:28:02 9.2 C 7.59 g/m*3 9.2 C 0 km/h
581 23-02-2010 19:40:02 9.2 C 7.68 g/m*3 9.2 C 0 km/h
582 23-02-2010 19:52:02 9.2 C 7.68 g/m*3 9.2 C 0 km/h
583 23-02-2010 20:04:02 9 C 7.67 g/m*3 9 C 0 km/h
584 23-02-2010 20:16:02 9.1 C 7.81 g/m*3 9.1 C 0 km/h
585 23-02-2010 20:28:02 9 C 7.76 g/m*3 9 C 0 km/h
586 23-02-2010 20:40:02 9 C 7.76 g/m*3 9 C 0 km/h
587 23-02-2010 20:52:01 9.2 C 7.86 g/m*3 9.2 C 0 km/h
588 23-02-2010 21:04:02 9.3 C 7.91 g/m*3 9.3 C 0 km/h
589 23-02-2010 21:16:01 9.4 C 7.78 g/m*3 9.4 C 0 km/h
590 23-02-2010 21:28:01 9.6 C 7.6 g/m*3 9.6 C 0 km/h
591 23-02-2010 21:40:02 9.6 C 7.33 g/m*3 9.6 C 0 km/h
592 23-02-2010 21:52:02 9.5 C 7.1 g/m*3 9.5 C 0 km/h
593 23-02-2010 22:04:02 9.3 C 6.92 g/m*3 9.3 C 0 km/h
594 23-02-2010 22:16:02 9.3 C 6.92 g/m*3 9.3 C 0 km/h
595 23-02-2010 22:28:02 9.3 C 6.74 g/m*3 9.3 C 0 km/h
596 23-02-2010 22:40:02 8.9 C 6.75 g/m*3 8.9 C 0 km/h
597 23-02-2010 22:52:01 8.7 C 6.75 g/m*3 8.7 C 0 km/h
598 23-02-2010 23:04:02 8.5 C 6.66 g/m*3 8.5 C 0 km/h
599 23-02-2010 23:16:02 8.5 C 6.66 g/m*3 8.5 C 0 km/h
600 23-02-2010 23:28:02 8.2 C 6.62 g/m*3 8.2 C 0 km/h
Sensor: Nr:Datum:Temp:Abs-Feuchte:Windchill:Wind:
Aussen-T/F 601 23-02-2010 23:40:01 8.2 C 6.7 g/m*3 8.2 C 0 km/h
602 23-02-2010 23:52:02 8.2 C 6.7 g/m*3 8.2 C 0 km/h
603 24-02-2010 00:04:01 8.1 C 6.66 g/m*3 8.1 C 0 km/h
604 24-02-2010 00:16:02 7.9 C 6.74 g/m*3 7.9 C 0 km/h
605 24-02-2010 00:28:02 7.9 C 6.82 g/m*3 7.9 C 0 km/h
606 24-02-2010 00:40:01 7.8 C 6.77 g/m*3 7.8 C 0 km/h
607 24-02-2010 00:52:02 7.5 C 6.64 g/m*3 7.5 C 0 km/h
608 24-02-2010 01:04:01 7.3 C 6.64 g/m*3 7.3 C 0 km/h
609 24-02-2010 01:16:02 7.5 C 6.8 g/m*3 7.5 C 0 km/h
610 24-02-2010 01:28:02 8.1 C 6.99 g/m*3 8.1 C 0 km/h
611 24-02-2010 01:40:01 8.7 C 6.92 g/m*3 8.7 C 0 km/h
612 24-02-2010 01:52:02 8.6 C 6.7 g/m*3 8.6 C 0 km/h
613 24-02-2010 02:04:02 8.3 C 6.57 g/m*3 8.3 C 0 km/h
614 24-02-2010 02:16:02 8.1 C 6.57 g/m*3 8.1 C 0 km/h
615 24-02-2010 02:28:02 7.9 C 6.74 g/m*3 7.9 C 0 km/h
616 24-02-2010 02:40:02 7.9 C 6.82 g/m*3 7.9 C 0 km/h
617 24-02-2010 02:52:01 7.8 C 6.77 g/m*3 7.8 C 0 km/h
618 24-02-2010 03:04:01 7.7 C 6.73 g/m*3 7.7 C 0 km/h
619 24-02-2010 03:16:01 7.9 C 6.9 g/m*3 7.9 C 0 km/h
620 24-02-2010 03:28:01 8 C 6.86 g/m*3 8 C 0 km/h
621 24-02-2010 03:40:02 8 C 6.78 g/m*3 8 C 0 km/h
622 24-02-2010 03:52:02 8 C 6.78 g/m*3 8 C 0 km/h
623 24-02-2010 04:04:01 8 C 6.78 g/m*3 8 C 0 km/h
624 24-02-2010 04:16:02 8 C 6.86 g/m*3 8 C 0 km/h
625 24-02-2010 04:28:02 8 C 6.86 g/m*3 8 C 0 km/h
Sensor: Nr:Datum:Temp:Abs-Feuchte:Windchill:Wind:
Aussen-T/F 626 24-02-2010 04:40:01 8 C 6.86 g/m*3 8 C 0 km/h
627 24-02-2010 04:52:02 8.1 C 6.91 g/m*3 8.1 C 0 km/h
628 24-02-2010 05:04:01 8.3 C 7 g/m*3 8.3 C 0 km/h
629 24-02-2010 05:16:01 8.4 C 6.96 g/m*3 8.4 C 0 km/h
630 24-02-2010 05:28:01 8.2 C 6.78 g/m*3 8.2 C 0 km/h
631 24-02-2010 05:40:01 8.3 C 6.83 g/m*3 8.3 C 0 km/h
632 24-02-2010 05:52:02 8.4 C 6.79 g/m*3 8.4 C 0 km/h
633 24-02-2010 06:04:01 8.2 C 6.62 g/m*3 8.2 C 0 km/h
634 24-02-2010 06:16:01 7.9 C 6.65 g/m*3 7.9 C 0 km/h
635 24-02-2010 06:28:01 7.8 C 6.61 g/m*3 7.8 C 0 km/h
636 24-02-2010 06:40:02 7.6 C 6.53 g/m*3 7.6 C 0 km/h
637 24-02-2010 06:52:01 7.3 C 6.4 g/m*3 7.3 C 0 km/h
638 24-02-2010 07:04:01 7.3 C 6.56 g/m*3 7.3 C 0 km/h
639 24-02-2010 07:16:01 7.4 C 6.6 g/m*3 7.4 C 0 km/h
640 24-02-2010 07:28:01 7.5 C 6.64 g/m*3 7.5 C 0 km/h
641 24-02-2010 07:40:02 7.5 C 6.56 g/m*3 7.5 C 0 km/h
642 24-02-2010 07:52:01 7.4 C 6.6 g/m*3 7.4 C 0 km/h
643 24-02-2010 08:04:02 7.5 C 6.64 g/m*3 7.5 C 0 km/h
644 24-02-2010 08:16:01 7.5 C 6.56 g/m*3 7.5 C 0 km/h
645 24-02-2010 08:28:01 7.9 C 6.82 g/m*3 7.9 C 0 km/h
646 24-02-2010 08:40:02 8.1 C 6.74 g/m*3 8.1 C 0 km/h
647 24-02-2010 08:52:01 8.5 C 6.92 g/m*3 8.5 C 0 km/h
648 24-02-2010 09:04:02 8.6 C 6.79 g/m*3 8.6 C 0 km/h
649 24-02-2010 09:16:01 8.9 C 6.83 g/m*3 8.9 C 0 km/h
650 24-02-2010 09:28:01 9.1 C 6.65 g/m*3 9.1 C 0 km/h
Sensor: Nr:Datum:Temp:Abs-Feuchte:Windchill:Wind:
Aussen-T/F 651 24-02-2010 09:40:01 9.2 C 6.52 g/m*3 9.2 C 0 km/h
652 24-02-2010 09:52:01 9.4 C 6.51 g/m*3 9.4 C 0 km/h
653 24-02-2010 10:04:02 9.7 C 6.55 g/m*3 9.7 C 0 km/h
654 24-02-2010 10:16:01 10 C 6.39 g/m*3 10 C 0 km/h
655 24-02-2010 10:28:01 10.2 C 6.28 g/m*3 10.2 C 0 km/h
656 24-02-2010 10:40:01 10.4 C 6.26 g/m*3 10.4 C 0 km/h
657 24-02-2010 10:52:01 10.9 C 6.17 g/m*3 10.9 C 0 km/h
658 24-02-2010 11:04:01 10.9 C 5.97 g/m*3 10.9 C 0 km/h
659 24-02-2010 11:16:02 11.1 C 5.74 g/m*3 11.1 C 0 km/h
660 24-02-2010 11:28:02 11.2 C 5.68 g/m*3 11.2 C 0 km/h
661 24-02-2010 11:40:01 11.2 C 5.57 g/m*3 11.2 C 0 km/h
662 24-02-2010 11:52:01 11.3 C 5.61 g/m*3 11.3 C 0 km/h
663 24-02-2010 12:04:01 11.1 C 5.64 g/m*3 11.1 C 0 km/h
664 24-02-2010 12:16:02 11.2 C 5.57 g/m*3 11.2 C 0 km/h
665 24-02-2010 12:28:02 11.6 C 5.72 g/m*3 11.6 C 0 km/h
666 24-02-2010 12:40:01 11.8 C 5.58 g/m*3 11.8 C 0 km/h
667 24-02-2010 12:52:02 12 C 5.54 g/m*3 12 C 0 km/h
668 24-02-2010 13:04:01 12 C 5.54 g/m*3 12 C 0 km/h
669 24-02-2010 13:16:02 11.8 C 5.58 g/m*3 11.8 C 0 km/h
670 24-02-2010 13:28:02 12 C 5.44 g/m*3 12 C 0 km/h
671 24-02-2010 13:40:01 12.2 C 5.61 g/m*3 12.2 C 0 km/h
672 24-02-2010 13:52:02 12.4 C 5.35 g/m*3 12.4 C 0 km/h
673 24-02-2010 14:04:01 12.3 C 5.32 g/m*3 12.3 C 0 km/h
674 24-02-2010 14:16:01 12.6 C 5.53 g/m*3 12.6 C 0 km/h
675 24-02-2010 14:28:01 12.7 C 5.45 g/m*3 12.7 C 0 km/h
Sensor: Nr:Datum:Temp:Abs-Feuchte:Windchill:Wind:
Aussen-T/F 676 24-02-2010 14:40:01 12.8 C 5.38 g/m*3 12.8 C 0 km/h
677 24-02-2010 14:52:02 13.1 C 5.36 g/m*3 13.1 C 0 km/h
678 24-02-2010 15:04:01 13.2 C 5.4 g/m*3 13.2 C 0 km/h
679 24-02-2010 15:16:01 13.1 C 5.36 g/m*3 13.1 C 0 km/h
680 24-02-2010 15:28:01 13.2 C 5.4 g/m*3 13.2 C 0 km/h
681 24-02-2010 15:40:02 13.7 C 5.45 g/m*3 13.7 C 0 km/h
682 24-02-2010 15:52:01 14.1 C 5.46 g/m*3 14.1 C 0 km/h
683 24-02-2010 16:04:01 15.2 C 5.58 g/m*3 15.2 C 0 km/h
684 24-02-2010 16:16:01 14.4 C 5.19 g/m*3 14.4 C 0 km/h
685 24-02-2010 16:28:01 14 C 5.43 g/m*3 14 C 0 km/h
686 24-02-2010 16:40:02 14.4 C 5.32 g/m*3 14.4 C 0 km/h
687 24-02-2010 16:52:01 14.2 C 5.13 g/m*3 14.2 C 0 km/h
688 24-02-2010 17:04:02 13.6 C 5.3 g/m*3 13.6 C 0 km/h
689 24-02-2010 17:16:01 12.8 C 5.38 g/m*3 12.8 C 0 km/h
690 24-02-2010 17:28:01 11.8 C 5.68 g/m*3 11.8 C 0 km/h
691 24-02-2010 17:40:02 11.2 C 5.68 g/m*3 11.2 C 0 km/h
692 24-02-2010 17:52:01 10.7 C 5.8 g/m*3 10.7 C 0 km/h
693 24-02-2010 18:04:02 10.2 C 5.8 g/m*3 10.2 C 0 km/h
694 24-02-2010 18:16:01 9.8 C 5.85 g/m*3 9.8 C 0 km/h
695 24-02-2010 18:28:02 9.7 C 5.9 g/m*3 9.7 C 0 km/h
696 24-02-2010 18:40:01 9.6 C 5.95 g/m*3 9.6 C 0 km/h
697 24-02-2010 18:52:01 9.6 C 6.05 g/m*3 9.6 C 0 km/h
698 24-02-2010 19:04:01 9.7 C 6.18 g/m*3 9.7 C 0 km/h
699 24-02-2010 19:16:01 9.5 C 6.55 g/m*3 9.5 C 0 km/h
700 24-02-2010 19:28:01 8.8 C 6.7 g/m*3 8.8 C 0 km/h
Sensor: Nr:Datum:Temp:Abs-Feuchte:Windchill:Wind:
Aussen-T/F 701 24-02-2010 19:40:01 8.5 C 6.92 g/m*3 8.5 C 0 km/h
702 24-02-2010 19:52:01 8.5 C 7.09 g/m*3 8.5 C 0 km/h
703 24-02-2010 20:04:01 8.4 C 7.13 g/m*3 8.4 C 0 km/h
704 24-02-2010 20:16:02 8.3 C 7.16 g/m*3 8.3 C 0 km/h
705 24-02-2010 20:28:02 8.4 C 7.3 g/m*3 8.4 C 0 km/h
706 24-02-2010 20:40:01 8.3 C 7.33 g/m*3 8.3 C 0 km/h
707 24-02-2010 20:52:01 8.5 C 7.43 g/m*3 8.5 C 0 km/h
708 24-02-2010 21:04:01 8.5 C 7.51 g/m*3 8.5 C 0 km/h
709 24-02-2010 21:16:02 8.4 C 7.38 g/m*3 8.4 C 0 km/h
710 24-02-2010 21:28:02 7.9 C 7.23 g/m*3 7.9 C 0 km/h
711 24-02-2010 21:40:01 7.8 C 7.18 g/m*3 7.8 C 0 km/h
712 24-02-2010 21:52:02 7.6 C 7.09 g/m*3 7.6 C 0 km/h
713 24-02-2010 22:04:01 7.5 C 6.96 g/m*3 7.5 C 0 km/h
714 24-02-2010 22:16:02 7.6 C 7.01 g/m*3 7.6 C 0 km/h
715 24-02-2010 22:28:02 7.7 C 7.05 g/m*3 7.7 C 0 km/h
716 24-02-2010 22:40:01 8 C 7.03 g/m*3 8 C 0 km/h
717 24-02-2010 22:52:02 8.1 C 6.82 g/m*3 8.1 C 0 km/h
718 24-02-2010 23:04:01 8.2 C 6.7 g/m*3 8.2 C 0 km/h
719 24-02-2010 23:16:01 8.3 C 6.74 g/m*3 8.3 C 0 km/h
720 24-02-2010 23:28:01 8.4 C 6.62 g/m*3 8.4 C 0 km/h
721 24-02-2010 23:40:01 8.4 C 6.53 g/m*3 8.4 C 0 km/h
722 24-02-2010 23:52:02 8.4 C 6.45 g/m*3 8.4 C 0 km/h
723 25-02-2010 00:04:01 8.7 C 6.49 g/m*3 8.7 C 0 km/h
724 25-02-2010 00:16:02 8.7 C 6.4 g/m*3 8.7 C 0 km/h
725 25-02-2010 00:28:02 8.6 C 6.36 g/m*3 8.6 C 0 km/h
Sensor: Nr:Datum:Temp:Abs-Feuchte:Windchill:Wind:
Aussen-T/F 726 25-02-2010 00:40:01 8.4 C 6.28 g/m*3 8.4 C 0 km/h
727 25-02-2010 00:52:02 8.1 C 6.24 g/m*3 8.1 C 0 km/h
728 25-02-2010 01:04:01 8.1 C 6.41 g/m*3 8.1 C 0 km/h
729 25-02-2010 01:16:01 8.4 C 6.36 g/m*3 8.4 C 0 km/h
730 25-02-2010 01:28:01 8.5 C 6.23 g/m*3 8.5 C 0 km/h
731 25-02-2010 01:40:02 8.6 C 6.19 g/m*3 8.6 C 0 km/h
732 25-02-2010 01:52:01 8.6 C 6.19 g/m*3 8.6 C 0 km/h
733 25-02-2010 02:04:01 8.4 C 6.11 g/m*3 8.4 C 0 km/h
734 25-02-2010 02:16:01 8 C 6.12 g/m*3 8 C 0 km/h
735 25-02-2010 02:28:01 7.9 C 6.32 g/m*3 7.9 C 0 km/h
736 25-02-2010 02:40:02 7.9 C 6.41 g/m*3 7.9 C 0 km/h
737 25-02-2010 02:52:01 7.8 C 6.28 g/m*3 7.8 C 0 km/h
738 25-02-2010 03:04:01 7.7 C 6.32 g/m*3 7.7 C 0 km/h
739 25-02-2010 03:16:02 7.5 C 6.48 g/m*3 7.5 C 0 km/h
740 25-02-2010 03:28:02 7.4 C 6.6 g/m*3 7.4 C 0 km/h
741 25-02-2010 03:40:02 7.3 C 6.56 g/m*3 7.3 C 0 km/h
742 25-02-2010 03:52:02 7.3 C 6.56 g/m*3 7.3 C 0 km/h
743 25-02-2010 04:04:01 7.2 C 6.52 g/m*3 7.2 C 0 km/h
744 25-02-2010 04:16:01 7.2 C 6.52 g/m*3 7.2 C 0 km/h
745 25-02-2010 04:28:01 7.2 C 6.52 g/m*3 7.2 C 0 km/h
746 25-02-2010 04:40:02 7.1 C 6.47 g/m*3 7.1 C 0 km/h
747 25-02-2010 04:52:01 7.1 C 6.55 g/m*3 7.1 C 0 km/h
748 25-02-2010 05:04:02 7.3 C 6.56 g/m*3 7.3 C 0 km/h
749 25-02-2010 05:16:01 7.2 C 6.52 g/m*3 7.2 C 0 km/h
750 25-02-2010 05:28:01 7.4 C 6.6 g/m*3 7.4 C 0 km/h
Sensor: Nr:Datum:Temp:Abs-Feuchte:Windchill:Wind:
Aussen-T/F 751 25-02-2010 05:40:02 7.6 C 6.53 g/m*3 7.6 C 0 km/h
752 25-02-2010 05:52:01 7.9 C 6.32 g/m*3 7.9 C 0 km/h
753 25-02-2010 06:04:02 8.1 C 6.07 g/m*3 8.1 C 0 km/h
754 25-02-2010 06:16:01 8.3 C 5.98 g/m*3 8.3 C 0 km/h
755 25-02-2010 06:28:01 8.5 C 5.89 g/m*3 8.5 C 0 km/h
756 25-02-2010 06:40:02 8.6 C 5.84 g/m*3 8.6 C 0 km/h
757 25-02-2010 06:52:02 8.7 C 5.79 g/m*3 8.7 C 0 km/h
758 25-02-2010 07:04:01 8.7 C 5.79 g/m*3 8.7 C 0 km/h
759 25-02-2010 07:16:01 8.8 C 5.74 g/m*3 8.8 C 0 km/h
760 25-02-2010 07:28:01 8.8 C 5.83 g/m*3 8.8 C 0 km/h
761 25-02-2010 07:40:01 8.7 C 5.88 g/m*3 8.7 C 0 km/h
762 25-02-2010 07:52:02 8.6 C 5.93 g/m*3 8.6 C 0 km/h
763 25-02-2010 08:04:01 8.4 C 6.02 g/m*3 8.4 C 0 km/h
764 25-02-2010 08:16:01 8.6 C 5.93 g/m*3 8.6 C 0 km/h
765 25-02-2010 08:28:01 8.9 C 5.78 g/m*3 8.9 C 0 km/h
766 25-02-2010 08:40:02 9 C 5.64 g/m*3 9 C 0 km/h
767 25-02-2010 08:52:01 9.1 C 5.68 g/m*3 9.1 C 0 km/h
768 25-02-2010 09:04:02 9.3 C 5.66 g/m*3 9.3 C 0 km/h
769 25-02-2010 09:16:01 9.5 C 5.64 g/m*3 9.5 C 0 km/h
770 25-02-2010 09:28:01 9.6 C 5.5 g/m*3 9.6 C 0 km/h
771 25-02-2010 09:40:02 9.6 C 5.59 g/m*3 9.6 C 0 km/h
772 25-02-2010 09:52:01 9.9 C 5.6 g/m*3 9.9 C 0 km/h
773 25-02-2010 10:04:02 9.9 C 5.51 g/m*3 9.9 C 0 km/h
774 25-02-2010 10:16:01 9.9 C 5.6 g/m*3 9.9 C 0 km/h
775 25-02-2010 10:28:01 10.2 C 5.42 g/m*3 10.2 C 0 km/h
Sensor: Nr:Datum:Temp:Abs-Feuchte:Windchill:Wind:
Aussen-T/F 776 25-02-2010 10:40:02 10.6 C 5.37 g/m*3 10.6 C 0 km/h
777 25-02-2010 10:52:01 10.7 C 5.21 g/m*3 10.7 C 0 km/h
778 25-02-2010 11:04:01 10.6 C 5.17 g/m*3 10.6 C 0 km/h
779 25-02-2010 11:16:01 11.2 C 5.17 g/m*3 11.2 C 0 km/h
780 25-02-2010 11:28:01 10.9 C 5.17 g/m*3 10.9 C 0 km/h
781 25-02-2010 11:40:02 11.2 C 5.07 g/m*3 11.2 C 0 km/h
782 25-02-2010 11:52:01 11.3 C 5.1 g/m*3 11.3 C 0 km/h
783 25-02-2010 12:04:02 11.4 C 4.82 g/m*3 11.4 C 0 km/h
784 25-02-2010 12:16:01 11.4 C 4.82 g/m*3 11.4 C 0 km/h
785 25-02-2010 12:28:01 11.4 C 4.82 g/m*3 11.4 C 0 km/h
786 25-02-2010 12:40:02 11.1 C 4.73 g/m*3 11.1 C 0 km/h
787 25-02-2010 12:52:01 11.4 C 4.82 g/m*3 11.4 C 0 km/h
788 25-02-2010 13:04:02 11.7 C 4.81 g/m*3 11.7 C 0 km/h
789 25-02-2010 13:16:01 12.9 C 4.85 g/m*3 12.9 C 0 km/h
790 25-02-2010 13:28:01 13 C 4.54 g/m*3 13 C 0 km/h
791 25-02-2010 13:40:02 12.7 C 4.68 g/m*3 12.7 C 0 km/h
792 25-02-2010 13:52:01 11.9 C 4.77 g/m*3 11.9 C 0 km/h
793 25-02-2010 14:04:02 12.2 C 4.96 g/m*3 12.2 C 0 km/h
794 25-02-2010 14:16:01 13 C 4.88 g/m*3 13 C 0 km/h
795 25-02-2010 14:28:01 12.8 C 4.82 g/m*3 12.8 C 0 km/h
796 25-02-2010 14:40:01 12.4 C 4.7 g/m*3 12.4 C 0 km/h
797 25-02-2010 14:52:01 12.6 C 4.87 g/m*3 12.6 C 0 km/h
798 25-02-2010 15:04:02 12.7 C 4.68 g/m*3 12.7 C 0 km/h
799 25-02-2010 15:16:01 12.8 C 4.59 g/m*3 12.8 C 0 km/h
800 25-02-2010 15:28:01 12.5 C 4.4 g/m*3 12.5 C 0 km/h
Sensor: Nr:Datum:Temp:Abs-Feuchte:Windchill:Wind:
Aussen-T/F 801 25-02-2010 15:40:01 12.5 C 4.4 g/m*3 12.5 C 0 km/h
802 25-02-2010 15:52:01 12.3 C 4.34 g/m*3 12.3 C 0 km/h
803 25-02-2010 16:04:01 12.2 C 4.32 g/m*3 12.2 C 0 km/h
804 25-02-2010 16:16:02 12 C 4.26 g/m*3 12 C 0 km/h
805 25-02-2010 16:28:02 11.8 C 4.53 g/m*3 11.8 C 0 km/h
806 25-02-2010 16:40:01 11.6 C 4.68 g/m*3 11.6 C 0 km/h
807 25-02-2010 16:52:01 11.5 C 4.75 g/m*3 11.5 C 0 km/h
808 25-02-2010 17:04:01 11.2 C 5.07 g/m*3 11.2 C 0 km/h
809 25-02-2010 17:16:01 11.2 C 4.97 g/m*3 11.2 C 0 km/h
810 25-02-2010 17:28:01 11 C 4.8 g/m*3 11 C 0 km/h
811 25-02-2010 17:40:01 11 C 4.8 g/m*3 11 C 0 km/h
812 25-02-2010 17:52:01 10.9 C 4.87 g/m*3 10.9 C 0 km/h
813 25-02-2010 18:04:02 10.5 C 5.14 g/m*3 10.5 C 0 km/h
814 25-02-2010 18:16:01 9.7 C 5.35 g/m*3 9.7 C 0 km/h
815 25-02-2010 18:28:01 9.3 C 5.93 g/m*3 9.3 C 0 km/h
816 25-02-2010 18:40:02 8.9 C 6.22 g/m*3 8.9 C 0 km/h
817 25-02-2010 18:52:02 8.8 C 6.53 g/m*3 8.8 C 0 km/h
818 25-02-2010 19:04:01 8.5 C 6.57 g/m*3 8.5 C 0 km/h
819 25-02-2010 19:16:01 8.6 C 6.79 g/m*3 8.6 C 0 km/h
820 25-02-2010 19:28:01 8.5 C 6.83 g/m*3 8.5 C 0 km/h
821 25-02-2010 19:40:02 8.4 C 6.87 g/m*3 8.4 C 0 km/h
822 25-02-2010 19:52:01 8.5 C 6.83 g/m*3 8.5 C 0 km/h
823 25-02-2010 20:04:02 8.6 C 6.79 g/m*3 8.6 C 0 km/h
824 25-02-2010 20:16:01 8.6 C 6.7 g/m*3 8.6 C 0 km/h
825 25-02-2010 20:28:01 8.6 C 6.7 g/m*3 8.6 C 0 km/h
Sensor: Nr:Datum:Temp:Abs-Feuchte:Windchill:Wind:
Aussen-T/F 826 25-02-2010 20:40:02 8.7 C 6.66 g/m*3 8.7 C 0 km/h
827 25-02-2010 20:52:01 8.8 C 6.61 g/m*3 8.8 C 0 km/h
828 25-02-2010 21:04:02 8.9 C 6.66 g/m*3 8.9 C 0 km/h
829 25-02-2010 21:16:01 9 C 6.52 g/m*3 9 C 0 km/h
830 25-02-2010 21:28:01 9.2 C 6.61 g/m*3 9.2 C 0 km/h
831 25-02-2010 21:40:02 9.2 C 6.52 g/m*3 9.2 C 0 km/h
832 25-02-2010 21:52:01 9.2 C 6.52 g/m*3 9.2 C 0 km/h
833 25-02-2010 22:04:01 9.1 C 6.57 g/m*3 9.1 C 0 km/h
834 25-02-2010 22:16:01 9.1 C 6.65 g/m*3 9.1 C 0 km/h
835 25-02-2010 22:28:01 9.2 C 6.61 g/m*3 9.2 C 0 km/h
836 25-02-2010 22:40:01 9.3 C 6.65 g/m*3 9.3 C 0 km/h
837 25-02-2010 22:52:02 9.2 C 6.61 g/m*3 9.2 C 0 km/h
838 25-02-2010 23:04:01 9.2 C 6.7 g/m*3 9.2 C 0 km/h
839 25-02-2010 23:16:01 9.5 C 6.83 g/m*3 9.5 C 0 km/h
840 25-02-2010 23:28:01 9.4 C 6.78 g/m*3 9.4 C 0 km/h
841 25-02-2010 23:40:02 9.3 C 6.74 g/m*3 9.3 C 0 km/h
842 25-02-2010 23:52:01 9.4 C 6.78 g/m*3 9.4 C 0 km/h
843 26-02-2010 00:04:02 9.3 C 6.83 g/m*3 9.3 C 0 km/h
844 26-02-2010 00:16:01 9.4 C 6.87 g/m*3 9.4 C 0 km/h
845 26-02-2010 00:28:01 9.4 C 6.87 g/m*3 9.4 C 0 km/h
846 26-02-2010 00:40:02 9.3 C 6.83 g/m*3 9.3 C 0 km/h
847 26-02-2010 00:52:01 9.3 C 6.92 g/m*3 9.3 C 0 km/h
848 26-02-2010 01:04:02 9.4 C 6.96 g/m*3 9.4 C 0 km/h
849 26-02-2010 01:16:01 9.5 C 7.01 g/m*3 9.5 C 0 km/h
850 26-02-2010 01:28:01 9.4 C 6.96 g/m*3 9.4 C 0 km/h
Sensor: Nr:Datum:Temp:Abs-Feuchte:Windchill:Wind:
Aussen-T/F 851 26-02-2010 01:40:01 9.6 C 7.05 g/m*3 9.6 C 0 km/h
852 26-02-2010 01:52:01 9.6 C 6.96 g/m*3 9.6 C 0 km/h
853 26-02-2010 02:04:01 9.8 C 7.05 g/m*3 9.8 C 0 km/h
854 26-02-2010 02:16:01 9.8 C 7.05 g/m*3 9.8 C 0 km/h
855 26-02-2010 02:28:01 9.7 C 7.01 g/m*3 9.7 C 0 km/h
856 26-02-2010 02:40:01 9.8 C 7.05 g/m*3 9.8 C 0 km/h
857 26-02-2010 02:53:06 9.8 C 7.05 g/m*3 9.8 C 0 km/h
858 26-02-2010 03:05:06 9.8 C 7.05 g/m*3 9.8 C 0 km/h
859 26-02-2010 03:17:06 10 C 6.95 g/m*3 10 C 0 km/h
860 26-02-2010 03:29:06 9.9 C 7 g/m*3 9.9 C 0 km/h
861 26-02-2010 03:41:02 9.9 C 6.91 g/m*3 9.9 C 0 km/h
862 26-02-2010 03:53:02 9.7 C 6.82 g/m*3 9.7 C 0 km/h
863 26-02-2010 04:05:03 9.5 C 6.83 g/m*3 9.5 C 0 km/h
864 26-02-2010 04:17:02 9.5 C 6.83 g/m*3 9.5 C 0 km/h
865 26-02-2010 04:29:02 9.5 C 6.83 g/m*3 9.5 C 0 km/h
866 26-02-2010 04:41:02 9.7 C 6.73 g/m*3 9.7 C 0 km/h
867 26-02-2010 04:53:01 9.5 C 6.64 g/m*3 9.5 C 0 km/h
868 26-02-2010 05:05:02 9.4 C 6.51 g/m*3 9.4 C 0 km/h
869 26-02-2010 05:17:01 9.4 C 6.42 g/m*3 9.4 C 0 km/h
870 26-02-2010 05:29:01 9.6 C 6.32 g/m*3 9.6 C 0 km/h
871 26-02-2010 05:41:02 9.2 C 6.34 g/m*3 9.2 C 0 km/h
872 26-02-2010 05:53:01 9.1 C 6.3 g/m*3 9.1 C 0 km/h
873 26-02-2010 06:05:02 8.8 C 6.27 g/m*3 8.8 C 0 km/h
874 26-02-2010 06:17:01 9 C 6.26 g/m*3 9 C 0 km/h
875 26-02-2010 06:29:01 9.1 C 6.21 g/m*3 9.1 C 0 km/h
Sensor: Nr:Datum:Temp:Abs-Feuchte:Windchill:Wind:
Aussen-T/F 876 26-02-2010 06:41:02 9.2 C 6.07 g/m*3 9.2 C 0 km/h
877 26-02-2010 06:53:01 9.4 C 6.15 g/m*3 9.4 C 0 km/h
878 26-02-2010 07:05:02 9.1 C 6.03 g/m*3 9.1 C 0 km/h
879 26-02-2010 07:17:02 8.9 C 6.31 g/m*3 8.9 C 0 km/h
880 26-02-2010 07:29:02 9 C 6.26 g/m*3 9 C 0 km/h
881 26-02-2010 07:41:02 9.2 C 6.07 g/m*3 9.2 C 0 km/h
882 26-02-2010 07:53:02 9.5 C 5.92 g/m*3 9.5 C 0 km/h
883 26-02-2010 08:05:02 9.6 C 5.77 g/m*3 9.6 C 0 km/h
884 26-02-2010 08:17:02 9.6 C 5.68 g/m*3 9.6 C 0 km/h
885 26-02-2010 08:29:02 9.8 C 5.57 g/m*3 9.8 C 0 km/h
886 26-02-2010 08:41:02 9.7 C 5.72 g/m*3 9.7 C 0 km/h
887 26-02-2010 08:53:02 9.8 C 5.66 g/m*3 9.8 C 0 km/h
888 26-02-2010 09:05:02 10.2 C 5.52 g/m*3 10.2 C 0 km/h
889 26-02-2010 09:17:02 10.2 C 5.42 g/m*3 10.2 C 0 km/h
890 26-02-2010 09:29:02 10.1 C 5.58 g/m*3 10.1 C 0 km/h
891 26-02-2010 09:41:02 10.1 C 5.39 g/m*3 10.1 C 0 km/h
892 26-02-2010 09:53:02 10.5 C 5.33 g/m*3 10.5 C 0 km/h
893 26-02-2010 10:05:02 9.8 C 5.66 g/m*3 9.8 C 0 km/h
894 26-02-2010 10:17:02 9.5 C 5.92 g/m*3 9.5 C 0 km/h
895 26-02-2010 10:29:02 9.9 C 5.88 g/m*3 9.9 C 0 km/h
896 26-02-2010 10:41:02 10.1 C 5.48 g/m*3 10.1 C 0 km/h
897 26-02-2010 10:53:02 10.3 C 5.36 g/m*3 10.3 C 0 km/h
898 26-02-2010 11:05:02 10.6 C 5.47 g/m*3 10.6 C 0 km/h
899 26-02-2010 11:17:03 10.8 C 5.34 g/m*3 10.8 C 0 km/h
900 26-02-2010 11:29:03 11 C 5.2 g/m*3 11 C 0 km/h
Sensor: Nr:Datum:Temp:Abs-Feuchte:Windchill:Wind:
Aussen-T/F 901 26-02-2010 11:41:02 11.2 C 5.17 g/m*3 11.2 C 0 km/h
902 26-02-2010 11:53:02 10.2 C 5.52 g/m*3 10.2 C 0 km/h
903 26-02-2010 12:05:02 9.7 C 5.72 g/m*3 9.7 C 0 km/h
904 26-02-2010 12:17:02 10 C 5.64 g/m*3 10 C 0 km/h
905 26-02-2010 12:29:02 10.8 C 5.73 g/m*3 10.8 C 0 km/h
906 26-02-2010 12:41:02 10.8 C 5.44 g/m*3 10.8 C 0 km/h
907 26-02-2010 12:53:02 10.3 C 5.84 g/m*3 10.3 C 0 km/h
908 26-02-2010 13:05:02 10.4 C 5.78 g/m*3 10.4 C 0 km/h
909 26-02-2010 13:17:03 10.7 C 5.6 g/m*3 10.7 C 0 km/h
910 26-02-2010 13:29:03 11.4 C 5.44 g/m*3 11.4 C 0 km/h
911 26-02-2010 13:41:02 11.1 C 5.24 g/m*3 11.1 C 0 km/h
912 26-02-2010 13:53:01 10.9 C 5.07 g/m*3 10.9 C 0 km/h
913 26-02-2010 14:05:01 11.1 C 5.34 g/m*3 11.1 C 0 km/h
914 26-02-2010 14:17:02 10.8 C 5.14 g/m*3 10.8 C 0 km/h
915 26-02-2010 14:29:02 10.6 C 5.17 g/m*3 10.6 C 0 km/h
916 26-02-2010 14:41:02 10.1 C 5.01 g/m*3 10.1 C 0 km/h
917 26-02-2010 14:53:03 9.4 C 5.25 g/m*3 9.4 C 0 km/h
918 26-02-2010 15:05:03 9.2 C 5.36 g/m*3 9.2 C 0 km/h
919 26-02-2010 15:17:02 8.9 C 5.26 g/m*3 8.9 C 0 km/h
920 26-02-2010 15:29:03 8.7 C 5.28 g/m*3 8.7 C 0 km/h
921 26-02-2010 15:41:02 8.4 C 5.34 g/m*3 8.4 C 0 km/h
922 26-02-2010 15:53:02 8.3 C 4.89 g/m*3 8.3 C 0 km/h
923 26-02-2010 16:05:02 8.2 C 4.69 g/m*3 8.2 C 0 km/h
924 26-02-2010 16:17:02 8 C 4.3 g/m*3 8 C 0 km/h
925 26-02-2010 16:29:02 7.9 C 4.19 g/m*3 7.9 C 0 km/h
Sensor: Nr:Datum:Temp:Abs-Feuchte:Windchill:Wind:
Aussen-T/F 926 26-02-2010 16:41:04 7.9 C 4.02 g/m*3 7.9 C 0 km/h
927 26-02-2010 16:53:02 7.9 C 4.11 g/m*3 7.9 C 0 km/h
928 26-02-2010 17:05:01 8.1 C 4.08 g/m*3 8.1 C 0 km/h
929 26-02-2010 17:17:02 8 C 4.05 g/m*3 8 C 0 km/h
930 26-02-2010 17:29:02 7.9 C 4.11 g/m*3 7.9 C 0 km/h
931 26-02-2010 17:41:02 7.8 C 4.16 g/m*3 7.8 C 0 km/h
932 26-02-2010 17:53:02 7.7 C 4.22 g/m*3 7.7 C 0 km/h
933 26-02-2010 18:05:02 7.6 C 4.27 g/m*3 7.6 C 0 km/h
934 26-02-2010 18:17:01 7.3 C 4.42 g/m*3 7.3 C 0 km/h
935 26-02-2010 18:29:01 6.6 C 4.76 g/m*3 6.6 C 0 km/h
936 26-02-2010 18:41:02 6.3 C 4.44 g/m*3 6.3 C 0 km/h
937 26-02-2010 18:53:02 6.3 C 4.22 g/m*3 6.3 C 0 km/h
938 26-02-2010 19:05:02 6.5 C 4.2 g/m*3 6.5 C 0 km/h
939 26-02-2010 19:17:02 6.3 C 4.29 g/m*3 6.3 C 0 km/h
940 26-02-2010 19:29:02 5.8 C 4.3 g/m*3 5.8 C 0 km/h
941 26-02-2010 19:41:04 5.8 C 4.01 g/m*3 5.8 C 0 km/h
942 26-02-2010 19:53:04 5.8 C 3.94 g/m*3 5.8 C 0 km/h
943 26-02-2010 20:05:02 5.9 C 4.04 g/m*3 5.9 C 0 km/h
944 26-02-2010 20:17:02 6 C 4.14 g/m*3 6 C 0 km/h
945 26-02-2010 20:29:02 5.9 C 4.18 g/m*3 5.9 C 0 km/h
946 26-02-2010 20:41:03 6 C 3.92 g/m*3 6 C 0 km/h
947 26-02-2010 20:53:02 5.9 C 3.89 g/m*3 5.9 C 0 km/h
948 26-02-2010 21:05:02 5.8 C 3.94 g/m*3 5.8 C 0 km/h
949 26-02-2010 21:17:03 5.6 C 4.03 g/m*3 5.6 C 0 km/h
950 26-02-2010 21:29:03 5.5 C 4 g/m*3 5.5 C 0 km/h
Sensor: Nr:Datum:Temp:Abs-Feuchte:Windchill:Wind:
Aussen-T/F 951 26-02-2010 21:41:02 5.6 C 3.89 g/m*3 5.6 C 0 km/h
952 26-02-2010 21:53:03 5.7 C 3.91 g/m*3 5.7 C 0 km/h
953 26-02-2010 22:05:02 5.5 C 3.86 g/m*3 5.5 C 0 km/h
954 26-02-2010 22:17:03 5.4 C 3.84 g/m*3 5.4 C 0 km/h
955 26-02-2010 22:29:03 5.3 C 3.81 g/m*3 5.3 C 0 km/h
956 26-02-2010 22:42:04 5.2 C 3.65 g/m*3 5.2 C 0 km/h
957 26-02-2010 22:54:04 5.1 C 3.69 g/m*3 5.1 C 0 km/h
958 26-02-2010 23:06:04 5.1 C 3.63 g/m*3 5.1 C 0 km/h
959 26-02-2010 23:18:04 5.1 C 3.63 g/m*3 5.1 C 0 km/h
960 26-02-2010 23:30:04 4.9 C 3.71 g/m*3 4.9 C 0 km/h
961 26-02-2010 23:42:04 4.7 C 3.66 g/m*3 4.7 C 0 km/h
962 26-02-2010 23:54:05 4.7 C 3.6 g/m*3 4.7 C 0 km/h
963 27-02-2010 00:06:05 4.5 C 3.62 g/m*3 4.5 C 0 km/h
964 27-02-2010 00:18:05 4.4 C 3.59 g/m*3 4.4 C 0 km/h
965 27-02-2010 00:30:05 4.4 C 3.59 g/m*3 4.4 C 0 km/h
966 27-02-2010 00:42:05 4.3 C 3.57 g/m*3 4.3 C 0 km/h
967 27-02-2010 00:54:05 4.1 C 3.58 g/m*3 4.1 C 0 km/h
968 27-02-2010 01:06:05 3.8 C 3.64 g/m*3 3.8 C 0 km/h
969 27-02-2010 01:18:05 3.9 C 3.73 g/m*3 3.9 C 0 km/h
970 27-02-2010 01:30:05 4 C 3.62 g/m*3 4 C 0 km/h
971 27-02-2010 01:42:05 4.1 C 3.58 g/m*3 4.1 C 0 km/h
972 27-02-2010 01:54:05 3.7 C 3.68 g/m*3 3.7 C 0 km/h
973 27-02-2010 02:06:05 3.2 C 3.74 g/m*3 3.2 C 0 km/h
974 27-02-2010 02:18:05 2.8 C 3.75 g/m*3 2.8 C 0 km/h
975 27-02-2010 02:30:05 3.1 C 3.77 g/m*3 3.1 C 0 km/h
Sensor: Nr:Datum:Temp:Abs-Feuchte:Windchill:Wind:
Aussen-T/F 976 27-02-2010 02:42:05 3.1 C 3.77 g/m*3 3.1 C 0 km/h
977 27-02-2010 02:54:05 3.2 C 3.74 g/m*3 3.2 C 0 km/h
978 27-02-2010 03:06:05 3.3 C 3.76 g/m*3 3.3 C 0 km/h
979 27-02-2010 03:18:05 3.5 C 3.69 g/m*3 3.5 C 0 km/h
980 27-02-2010 03:30:05 3.7 C 3.74 g/m*3 3.7 C 0 km/h
981 27-02-2010 03:42:05 3.6 C 3.78 g/m*3 3.6 C 0 km/h
982 27-02-2010 03:54:05 3.5 C 3.81 g/m*3 3.5 C 0 km/h
983 27-02-2010 04:06:06 3.4 C 3.79 g/m*3 3.4 C 0 km/h
984 27-02-2010 04:18:06 3.3 C 3.88 g/m*3 3.3 C 0 km/h
985 27-02-2010 04:30:06 3.4 C 3.97 g/m*3 3.4 C 0 km/h
986 27-02-2010 04:42:06 3.6 C 4.09 g/m*3 3.6 C 0 km/h
987 27-02-2010 04:54:06 4.1 C 4.16 g/m*3 4.1 C 0 km/h
988 27-02-2010 05:06:06 4 C 4.07 g/m*3 4 C 0 km/h
989 27-02-2010 05:18:06 3.9 C 4.17 g/m*3 3.9 C 0 km/h
990 27-02-2010 05:30:06 3.9 C 4.23 g/m*3 3.9 C 0 km/h
991 27-02-2010 05:42:06 3.8 C 4.2 g/m*3 3.8 C 0 km/h
992 27-02-2010 05:54:06 3.6 C 4.21 g/m*3 3.6 C 0 km/h
993 27-02-2010 06:06:06 4 C 4.26 g/m*3 4 C 0 km/h
994 27-02-2010 06:18:06 4.3 C 4.28 g/m*3 4.3 C 0 km/h
995 27-02-2010 06:30:06 4.3 C 4.22 g/m*3 4.3 C 0 km/h
996 27-02-2010 06:42:06 4.4 C 4.31 g/m*3 4.4 C 0 km/h
997 27-02-2010 06:54:06 4.6 C 4.37 g/m*3 4.6 C 0 km/h
998 27-02-2010 07:06:06 4.4 C 4.31 g/m*3 4.4 C 0 km/h
999 27-02-2010 07:18:06 4.7 C 4.46 g/m*3 4.7 C 0 km/h
1000 27-02-2010 07:30:06 4.8 C 4.49 g/m*3 4.8 C 0 km/h
Sensor: Nr:Datum:Temp:Abs-Feuchte:Windchill:Wind:
Aussen-T/F 1001 27-02-2010 07:42:06 5.2 C 4.54 g/m*3 5.2 C 0 km/h
1002 27-02-2010 07:54:06 5.3 C 4.57 g/m*3 5.3 C 0 km/h
1003 27-02-2010 08:06:07 5.4 C 4.6 g/m*3 5.4 C 0 km/h
1004 27-02-2010 08:18:07 5.6 C 4.67 g/m*3 5.6 C 0 km/h
1005 27-02-2010 08:30:07 5.8 C 4.66 g/m*3 5.8 C 0 km/h
1006 27-02-2010 08:42:03 6.4 C 4.62 g/m*3 6.4 C 0 km/h
1007 27-02-2010 08:54:01 6.5 C 4.57 g/m*3 6.5 C 0 km/h
1008 27-02-2010 09:06:02 6.6 C 4.6 g/m*3 6.6 C 0 km/h
1009 27-02-2010 09:18:02 6.8 C 4.59 g/m*3 6.8 C 0 km/h
1010 27-02-2010 09:30:02 7 C 4.49 g/m*3 7 C 0 km/h
1011 27-02-2010 09:42:01 7.1 C 4.45 g/m*3 7.1 C 0 km/h
1012 27-02-2010 09:54:02 7.3 C 4.5 g/m*3 7.3 C 0 km/h
1013 27-02-2010 10:06:01 7.5 C 4.48 g/m*3 7.5 C 0 km/h
1014 27-02-2010 10:18:02 7.6 C 4.43 g/m*3 7.6 C 0 km/h
1015 27-02-2010 10:30:02 8.1 C 4.49 g/m*3 8.1 C 0 km/h
1016 27-02-2010 10:42:01 8.7 C 4.58 g/m*3 8.7 C 0 km/h
1017 27-02-2010 10:54:03 8.6 C 4.55 g/m*3 8.6 C 0 km/h
1018 27-02-2010 11:06:02 8.7 C 4.5 g/m*3 8.7 C 0 km/h
1019 27-02-2010 11:18:02 9.1 C 4.53 g/m*3 9.1 C 0 km/h
1020 27-02-2010 11:30:03 9.3 C 4.49 g/m*3 9.3 C 0 km/h
1021 27-02-2010 11:42:02 9.3 C 4.31 g/m*3 9.3 C 0 km/h
1022 27-02-2010 11:54:02 9.3 C 4.31 g/m*3 9.3 C 0 km/h
1023 27-02-2010 12:06:02 9.4 C 4.34 g/m*3 9.4 C 0 km/h
1024 27-02-2010 12:18:02 9.8 C 4.36 g/m*3 9.8 C 0 km/h
1025 27-02-2010 12:30:02 10.1 C 4.35 g/m*3 10.1 C 0 km/h
Sensor: Nr:Datum:Temp:Abs-Feuchte:Windchill:Wind:
Aussen-T/F 1026 27-02-2010 12:42:02 10.8 C 4.35 g/m*3 10.8 C 0 km/h
1027 27-02-2010 12:54:02 11.2 C 4.16 g/m*3 11.2 C 0 km/h
1028 27-02-2010 13:06:01 11.8 C 4.1 g/m*3 11.8 C 0 km/h
1029 27-02-2010 13:18:01 11.8 C 3.68 g/m*3 11.8 C 0 km/h
1030 27-02-2010 13:30:01 12.3 C 3.58 g/m*3 12.3 C 0 km/h
1031 27-02-2010 13:42:02 12.9 C 3.49 g/m*3 12.9 C 0 km/h
1032 27-02-2010 13:54:02 12.9 C 3.38 g/m*3 12.9 C 0 km/h
1033 27-02-2010 14:06:02 13.4 C 3.49 g/m*3 13.4 C 0 km/h
1034 27-02-2010 14:18:02 14.2 C 3.42 g/m*3 14.2 C 0 km/h
1035 27-02-2010 14:30:02 14.5 C 3.23 g/m*3 14.5 C 0 km/h
1036 27-02-2010 14:42:02 14.8 C 3.17 g/m*3 14.8 C 0 km/h
1037 27-02-2010 14:54:01 14.9 C 2.8 g/m*3 14.9 C 0 km/h
1038 27-02-2010 15:06:02 14.8 C 2.79 g/m*3 14.8 C 0 km/h
1039 27-02-2010 15:18:01 15.5 C 2.78 g/m*3 15.5 C 0 km/h
1040 27-02-2010 15:30:01 15.9 C 2.84 g/m*3 15.9 C 0 km/h
1041 27-02-2010 15:42:02 15.6 C 2.93 g/m*3 15.6 C 0 km/h
1042 27-02-2010 15:54:02 15.7 C 3.08 g/m*3 15.7 C 0 km/h
1043 27-02-2010 16:06:02 15.7 C 2.81 g/m*3 15.7 C 0 km/h
1044 27-02-2010 16:18:01 14.8 C 2.66 g/m*3 14.8 C 0 km/h
1045 27-02-2010 16:30:01 15 C 2.56 g/m*3 15 C 0 km/h
1046 27-02-2010 16:42:02 14.3 C 2.46 g/m*3 14.3 C 0 km/h
1047 27-02-2010 16:54:02 14.6 C 2.5 g/m*3 14.6 C 0 km/h
1048 27-02-2010 17:06:02 15.7 C 2.68 g/m*3 15.7 C 0 km/h
1049 27-02-2010 17:18:02 14.4 C 2.47 g/m*3 14.4 C 0 km/h
1050 27-02-2010 17:30:02 13.5 C 2.57 g/m*3 13.5 C 0 km/h
Sensor: Nr:Datum:Temp:Abs-Feuchte:Windchill:Wind:
Aussen-T/F 1051 27-02-2010 17:42:02 12.9 C 3.38 g/m*3 12.9 C 0 km/h
1052 27-02-2010 17:54:02 11.7 C 3.66 g/m*3 11.7 C 0 km/h
1053 27-02-2010 18:06:02 11 C 3.7 g/m*3 11 C 0 km/h
1054 27-02-2010 18:18:03 10.5 C 3.88 g/m*3 10.5 C 0 km/h
1055 27-02-2010 18:30:03 10.2 C 3.81 g/m*3 10.2 C 0 km/h
1056 27-02-2010 18:42:02 10 C 3.95 g/m*3 10 C 0 km/h
1057 27-02-2010 18:54:02 9.9 C 4.2 g/m*3 9.9 C 0 km/h
1058 27-02-2010 19:06:02 9.8 C 4.27 g/m*3 9.8 C 0 km/h
1059 27-02-2010 19:18:02 10 C 4.23 g/m*3 10 C 0 km/h
1060 27-02-2010 19:30:02 10 C 4.23 g/m*3 10 C 0 km/h
1061 27-02-2010 19:42:02 9.8 C 4.18 g/m*3 9.8 C 0 km/h
1062 27-02-2010 19:54:02 9.8 C 4.18 g/m*3 9.8 C 0 km/h
1063 27-02-2010 20:06:02 10 C 4.13 g/m*3 10 C 0 km/h
1064 27-02-2010 20:18:02 9.9 C 4.2 g/m*3 9.9 C 0 km/h
1065 27-02-2010 20:30:02 9.7 C 4.15 g/m*3 9.7 C 0 km/h
1066 27-02-2010 20:42:02 9.9 C 4.01 g/m*3 9.9 C 0 km/h
1067 27-02-2010 20:54:02 9.8 C 4.18 g/m*3 9.8 C 0 km/h
1068 27-02-2010 21:06:01 9.6 C 3.94 g/m*3 9.6 C 0 km/h
1069 27-02-2010 21:18:02 9.6 C 3.94 g/m*3 9.6 C 0 km/h
1070 27-02-2010 21:30:02 9.6 C 3.94 g/m*3 9.6 C 0 km/h
1071 27-02-2010 21:42:01 9.7 C 3.69 g/m*3 9.7 C 0 km/h
1072 27-02-2010 21:54:03 9.6 C 3.66 g/m*3 9.6 C 0 km/h
1073 27-02-2010 22:06:03 9.7 C 3.78 g/m*3 9.7 C 0 km/h
1074 27-02-2010 22:18:02 9.8 C 3.71 g/m*3 9.8 C 0 km/h
1075 27-02-2010 22:30:02 9.8 C 3.71 g/m*3 9.8 C 0 km/h
Sensor: Nr:Datum:Temp:Abs-Feuchte:Windchill:Wind:
Aussen-T/F 1076 27-02-2010 22:43:02 9.9 C 3.64 g/m*3 9.9 C 0 km/h
1077 27-02-2010 22:55:02 9.8 C 3.71 g/m*3 9.8 C 0 km/h
1078 27-02-2010 23:07:02 9.8 C 3.71 g/m*3 9.8 C 0 km/h
1079 27-02-2010 23:19:02 9.7 C 3.69 g/m*3 9.7 C 0 km/h
1080 27-02-2010 23:31:02 9.6 C 3.66 g/m*3 9.6 C 0 km/h
1081 27-02-2010 23:43:03 9.6 C 3.76 g/m*3 9.6 C 0 km/h
1082 27-02-2010 23:55:03 9.4 C 3.8 g/m*3 9.4 C 0 km/h
1083 28-02-2010 00:07:03 9.3 C 3.77 g/m*3 9.3 C 0 km/h
1084 28-02-2010 00:19:03 8.9 C 4.2 g/m*3 8.9 C 0 km/h
1085 28-02-2010 00:31:03 8.6 C 4.04 g/m*3 8.6 C 0 km/h
1086 28-02-2010 00:43:03 8.5 C 4.44 g/m*3 8.5 C 0 km/h
1087 28-02-2010 00:55:03 7.3 C 4.98 g/m*3 7.3 C 0 km/h
1088 28-02-2010 01:07:03 6.9 C 5.54 g/m*3 6.9 C 0 km/h
1089 28-02-2010 01:19:03 6.6 C 5.59 g/m*3 6.6 C 0 km/h
1090 28-02-2010 01:31:03 6.4 C 5.74 g/m*3 6.4 C 0 km/h
1091 28-02-2010 01:43:03 6.4 C 5.89 g/m*3 6.4 C 0 km/h
1092 28-02-2010 01:55:03 6.2 C 5.88 g/m*3 6.2 C 0 km/h
1093 28-02-2010 02:07:03 6.2 C 6.03 g/m*3 6.2 C 0 km/h
1094 28-02-2010 02:19:03 6.2 C 6.1 g/m*3 6.2 C 0 km/h
1095 28-02-2010 02:31:03 5.9 C 6.06 g/m*3 5.9 C 0 km/h
1096 28-02-2010 02:43:03 5.9 C 6.13 g/m*3 5.9 C 0 km/h
1097 28-02-2010 02:55:03 5.8 C 6.09 g/m*3 5.8 C 0 km/h
1098 28-02-2010 03:07:03 5.8 C 6.16 g/m*3 5.8 C 0 km/h
1099 28-02-2010 03:19:03 5.7 C 6.12 g/m*3 5.7 C 0 km/h
1100 28-02-2010 03:31:03 5.7 C 6.12 g/m*3 5.7 C 0 km/h
Sensor: Nr:Datum:Temp:Abs-Feuchte:Windchill:Wind:
Aussen-T/F 1101 28-02-2010 03:43:03 5.7 C 6.12 g/m*3 5.7 C 0 km/h
1102 28-02-2010 03:55:04 5.8 C 6.09 g/m*3 5.8 C 0 km/h
1103 28-02-2010 04:07:04 5.9 C 6.13 g/m*3 5.9 C 0 km/h
1104 28-02-2010 04:19:04 6 C 6.17 g/m*3 6 C 0 km/h
1105 28-02-2010 04:31:04 6.3 C 6.29 g/m*3 6.3 C 0 km/h
1106 28-02-2010 04:43:04 6.3 C 6.37 g/m*3 6.3 C 0 km/h
1107 28-02-2010 04:55:04 6.1 C 6.28 g/m*3 6.1 C 0 km/h
1108 28-02-2010 05:07:04 6.1 C 6.36 g/m*3 6.1 C 0 km/h
1109 28-02-2010 05:19:04 6.3 C 6.44 g/m*3 6.3 C 0 km/h
1110 28-02-2010 05:31:04 6.3 C 6.44 g/m*3 6.3 C 0 km/h
1111 28-02-2010 05:43:04 6.3 C 6.44 g/m*3 6.3 C 0 km/h
1112 28-02-2010 05:55:04 6.3 C 6.44 g/m*3 6.3 C 0 km/h
1113 28-02-2010 06:07:04 6.1 C 6.43 g/m*3 6.1 C 0 km/h
1114 28-02-2010 06:19:04 6.3 C 6.51 g/m*3 6.3 C 0 km/h
1115 28-02-2010 06:31:04 6.2 C 6.47 g/m*3 6.2 C 0 km/h
1116 28-02-2010 06:43:04 6.1 C 6.5 g/m*3 6.1 C 0 km/h
1117 28-02-2010 06:55:04 6.1 C 6.5 g/m*3 6.1 C 0 km/h
1118 28-02-2010 07:07:04 6.3 C 6.66 g/m*3 6.3 C 0 km/h
1119 28-02-2010 07:19:04 6.3 C 6.66 g/m*3 6.3 C 0 km/h
1120 28-02-2010 07:31:04 6.2 C 6.69 g/m*3 6.2 C 0 km/h
1121 28-02-2010 07:43:04 6.3 C 6.74 g/m*3 6.3 C 0 km/h
1122 28-02-2010 07:55:04 6.4 C 6.85 g/m*3 6.4 C 0 km/h
1123 28-02-2010 08:07:01 6.5 C 6.9 g/m*3 6.5 C 0 km/h
1124 28-02-2010 08:19:02 6.7 C 7.07 g/m*3 6.7 C 0 km/h
1125 28-02-2010 08:31:02 6.9 C 7.16 g/m*3 6.9 C 0 km/h
Sensor: Nr:Datum:Temp:Abs-Feuchte:Windchill:Wind:
Aussen-T/F 1126 28-02-2010 08:43:02 7 C 7.13 g/m*3 7 C 0 km/h
1127 28-02-2010 08:55:01 7.3 C 7.35 g/m*3 7.3 C 0 km/h
1128 28-02-2010 09:07:02 7.9 C 7.47 g/m*3 7.9 C 0 km/h
1129 28-02-2010 09:19:02 8.2 C 7.2 g/m*3 8.2 C 0 km/h
1130 28-02-2010 09:31:01 8.5 C 7.09 g/m*3 8.5 C 0 km/h
1131 28-02-2010 09:43:01 8.8 C 6.96 g/m*3 8.8 C 0 km/h
1132 28-02-2010 09:55:01 8.8 C 6.88 g/m*3 8.8 C 0 km/h
1133 28-02-2010 10:07:02 8.9 C 6.75 g/m*3 8.9 C 0 km/h
1134 28-02-2010 10:19:02 9.3 C 6.65 g/m*3 9.3 C 0 km/h
1135 28-02-2010 10:31:01 9.6 C 6.69 g/m*3 9.6 C 0 km/h
1136 28-02-2010 10:43:01 9.8 C 6.87 g/m*3 9.8 C 0 km/h
1137 28-02-2010 10:55:01 10.2 C 6.66 g/m*3 10.2 C 0 km/h
1138 28-02-2010 11:07:02 10.7 C 6.78 g/m*3 10.7 C 0 km/h
1139 28-02-2010 11:19:02 12.3 C 5.97 g/m*3 12.3 C 0 km/h
1140 28-02-2010 11:31:01 13.2 C 5.28 g/m*3 13.2 C 0 km/h
1141 28-02-2010 11:43:01 13 C 5.22 g/m*3 13 C 0 km/h
1142 28-02-2010 11:55:01 13 C 4.65 g/m*3 13 C 0 km/h
1143 28-02-2010 12:07:01 13 C 4.65 g/m*3 13 C 0 km/h
1144 28-02-2010 12:19:02 12.7 C 4.56 g/m*3 12.7 C 0 km/h
1145 28-02-2010 12:31:01 13 C 4.31 g/m*3 13 C 0 km/h
1146 28-02-2010 12:43:01 12.6 C 4.54 g/m*3 12.6 C 0 km/h
1147 28-02-2010 12:55:02 12.5 C 4.29 g/m*3 12.5 C 0 km/h
1148 28-02-2010 13:07:01 12.5 C 4.18 g/m*3 12.5 C 0 km/h
1149 28-02-2010 13:19:02 12.2 C 4.1 g/m*3 12.2 C 0 km/h
1150 28-02-2010 13:31:01 11.9 C 3.92 g/m*3 11.9 C 0 km/h
Sensor: Nr:Datum:Temp:Abs-Feuchte:Windchill:Wind:
Aussen-T/F 1151 28-02-2010 13:43:01 11.8 C 3.89 g/m*3 11.8 C 0 km/h
1152 28-02-2010 13:55:02 11.8 C 3.79 g/m*3 11.8 C 0 km/h
1153 28-02-2010 14:07:42 11.6 C 3.64 g/m*3 11.6 C 0 km/h
1154 28-02-2010 14:19:02 11.4 C 3.59 g/m*3 11.4 C 0 km/h
1155 28-02-2010 14:31:02 11.1 C 3.63 g/m*3 11.1 C 0 km/h
1156 28-02-2010 14:43:02 10.7 C 3.83 g/m*3 10.7 C 0 km/h
1157 28-02-2010 14:55:02 10.5 C 3.88 g/m*3 10.5 C 0 km/h
1158 28-02-2010 15:07:01 10.6 C 3.9 g/m*3 10.6 C 0 km/h
1159 28-02-2010 15:19:02 10.5 C 3.88 g/m*3 10.5 C 0 km/h
1160 28-02-2010 15:31:01 9.7 C 4.52 g/m*3 9.7 C 0 km/h
1161 28-02-2010 15:43:01 10 C 4.51 g/m*3 10 C 0 km/h
1162 28-02-2010 15:55:03 10 C 4.32 g/m*3 10 C 0 km/h
1163 28-02-2010 16:07:02 10 C 4.42 g/m*3 10 C 0 km/h
1164 28-02-2010 16:19:02 9.8 C 4.45 g/m*3 9.8 C 0 km/h
1165 28-02-2010 16:31:02 9.6 C 4.49 g/m*3 9.6 C 0 km/h
1166 28-02-2010 16:43:02 9.5 C 4.64 g/m*3 9.5 C 0 km/h
1167 28-02-2010 16:55:02 9.2 C 4.64 g/m*3 9.2 C 0 km/h
1168 28-02-2010 17:07:02 9.2 C 4.64 g/m*3 9.2 C 0 km/h
1169 28-02-2010 17:19:02 9.2 C 4.64 g/m*3 9.2 C 0 km/h
1170 28-02-2010 17:31:02 9.1 C 4.53 g/m*3 9.1 C 0 km/h
1171 28-02-2010 17:43:02 8.9 C 4.56 g/m*3 8.9 C 0 km/h
1172 28-02-2010 17:55:02 8.7 C 4.76 g/m*3 8.7 C 0 km/h
1173 28-02-2010 18:07:01 8.2 C 5.02 g/m*3 8.2 C 0 km/h
1174 28-02-2010 18:19:02 8.1 C 4.99 g/m*3 8.1 C 0 km/h
1175 28-02-2010 18:31:01 8.2 C 5.02 g/m*3 8.2 C 0 km/h
Sensor: Nr:Datum:Temp:Abs-Feuchte:Windchill:Wind:
Aussen-T/F 1176 28-02-2010 18:43:01 8.2 C 4.94 g/m*3 8.2 C 0 km/h
1177 28-02-2010 18:55:03 8 C 5.13 g/m*3 8 C 0 km/h
1178 28-02-2010 19:07:02 7.9 C 5.09 g/m*3 7.9 C 0 km/h
1179 28-02-2010 19:19:03 8 C 4.88 g/m*3 8 C 0 km/h
1180 28-02-2010 19:31:03 8.1 C 4.74 g/m*3 8.1 C 0 km/h
1181 28-02-2010 19:43:03 8 C 4.71 g/m*3 8 C 0 km/h
1182 28-02-2010 19:55:02 8.1 C 4.74 g/m*3 8.1 C 0 km/h
1183 28-02-2010 20:07:03 8 C 4.71 g/m*3 8 C 0 km/h
1184 28-02-2010 20:19:02 7.8 C 4.9 g/m*3 7.8 C 0 km/h
1185 28-02-2010 20:31:01 7.8 C 4.98 g/m*3 7.8 C 0 km/h
1186 28-02-2010 20:43:01 7.7 C 4.95 g/m*3 7.7 C 0 km/h
1187 28-02-2010 20:55:01 7.8 C 4.73 g/m*3 7.8 C 0 km/h
1188 28-02-2010 21:07:02 7.8 C 4.57 g/m*3 7.8 C 0 km/h
1189 28-02-2010 21:19:02 7.6 C 4.51 g/m*3 7.6 C 0 km/h
1190 28-02-2010 21:31:02 7.5 C 4.56 g/m*3 7.5 C 0 km/h
1191 28-02-2010 21:43:02 7.6 C 4.51 g/m*3 7.6 C 0 km/h
1192 28-02-2010 21:55:02 7.7 C 4.54 g/m*3 7.7 C 0 km/h
1193 28-02-2010 22:08:03 7.6 C 4.51 g/m*3 7.6 C 0 km/h
1194 28-02-2010 22:20:03 7.5 C 4.48 g/m*3 7.5 C 0 km/h
1195 28-02-2010 22:32:03 7.4 C 4.53 g/m*3 7.4 C 0 km/h
1196 28-02-2010 22:44:03 7.1 C 4.68 g/m*3 7.1 C 0 km/h
1197 28-02-2010 22:56:03 7 C 4.65 g/m*3 7 C 0 km/h
1198 28-02-2010 23:08:03 7 C 4.8 g/m*3 7 C 0 km/h
1199 28-02-2010 23:20:03 7 C 4.8 g/m*3 7 C 0 km/h
1200 28-02-2010 23:32:03 6.9 C 4.93 g/m*3 6.9 C 0 km/h
Sensor: Nr:Datum:Temp:Abs-Feuchte:Windchill:Wind:
Aussen-T/F 1201 28-02-2010 23:44:03 6.7 C 4.94 g/m*3 6.7 C 0 km/h
1202 28-02-2010 23:56:03 6.6 C 4.98 g/m*3 6.6 C 0 km/h
1203 01-03-2010 00:08:03 6.3 C 4.89 g/m*3 6.3 C 0 km/h
1204 01-03-2010 00:20:04 6.1 C 4.89 g/m*3 6.1 C 0 km/h
1205 01-03-2010 00:32:04 6.2 C 4.85 g/m*3 6.2 C 0 km/h
1206 01-03-2010 00:44:04 6.1 C 4.75 g/m*3 6.1 C 0 km/h
1207 01-03-2010 00:56:04 6.1 C 4.6 g/m*3 6.1 C 0 km/h
1208 01-03-2010 01:08:04 5.9 C 4.76 g/m*3 5.9 C 0 km/h
1209 01-03-2010 01:20:04 5.7 C 4.7 g/m*3 5.7 C 0 km/h
1210 01-03-2010 01:32:04 5.8 C 4.37 g/m*3 5.8 C 0 km/h
1211 01-03-2010 01:44:04 5.7 C 4.34 g/m*3 5.7 C 0 km/h
1212 01-03-2010 01:56:04 5.8 C 4.23 g/m*3 5.8 C 0 km/h
1213 01-03-2010 02:08:04 5.8 C 4.23 g/m*3 5.8 C 0 km/h
1214 01-03-2010 02:20:04 5.7 C 3.99 g/m*3 5.7 C 0 km/h
1215 01-03-2010 02:32:04 5.6 C 3.96 g/m*3 5.6 C 0 km/h
1216 01-03-2010 02:44:05 5.5 C 3.93 g/m*3 5.5 C 0 km/h
1217 01-03-2010 02:56:05 5.4 C 4.05 g/m*3 5.4 C 0 km/h
1218 01-03-2010 03:08:05 5.3 C 4.09 g/m*3 5.3 C 0 km/h
1219 01-03-2010 03:20:05 5 C 4.14 g/m*3 5 C 0 km/h
1220 01-03-2010 03:32:05 5 C 4.14 g/m*3 5 C 0 km/h
1221 01-03-2010 03:44:05 4.9 C 4.12 g/m*3 4.9 C 0 km/h
1222 01-03-2010 03:56:05 4.8 C 4.09 g/m*3 4.8 C 0 km/h
1223 01-03-2010 04:08:05 4.7 C 4.13 g/m*3 4.7 C 0 km/h
1224 01-03-2010 04:20:05 4.6 C 4.17 g/m*3 4.6 C 0 km/h
1225 01-03-2010 04:32:05 4.6 C 4.23 g/m*3 4.6 C 0 km/h
Sensor: Nr:Datum:Temp:Abs-Feuchte:Windchill:Wind:
Aussen-T/F 1226 01-03-2010 04:44:05 4.7 C 4.33 g/m*3 4.7 C 0 km/h
1227 01-03-2010 04:56:05 4.8 C 4.36 g/m*3 4.8 C 0 km/h
1228 01-03-2010 05:08:05 4.4 C 4.7 g/m*3 4.4 C 0 km/h
1229 01-03-2010 05:20:05 4.1 C 4.99 g/m*3 4.1 C 0 km/h
1230 01-03-2010 05:32:05 3.8 C 5.08 g/m*3 3.8 C 0 km/h
1231 01-03-2010 05:44:05 3.5 C 5.04 g/m*3 3.5 C 0 km/h
1232 01-03-2010 05:56:05 3.5 C 5.04 g/m*3 3.5 C 0 km/h
1233 01-03-2010 06:08:05 3.4 C 5.01 g/m*3 3.4 C 0 km/h
1234 01-03-2010 06:20:05 3.4 C 5.01 g/m*3 3.4 C 0 km/h
1235 01-03-2010 06:32:05 3.6 C 4.89 g/m*3 3.6 C 0 km/h
1236 01-03-2010 06:44:05 3.8 C 4.77 g/m*3 3.8 C 0 km/h
1237 01-03-2010 06:56:05 4 C 4.64 g/m*3 4 C 0 km/h
1238 01-03-2010 07:08:05 4.1 C 4.48 g/m*3 4.1 C 0 km/h
1239 01-03-2010 07:20:03 4.2 C 4.38 g/m*3 4.2 C 0 km/h
1240 01-03-2010 07:32:03 4.2 C 4.12 g/m*3 4.2 C 0 km/h
1241 01-03-2010 07:44:03 4.4 C 3.92 g/m*3 4.4 C 0 km/h
1242 01-03-2010 07:56:02 4.6 C 3.77 g/m*3 4.6 C 0 km/h
1243 01-03-2010 08:08:02 4.6 C 3.71 g/m*3 4.6 C 0 km/h
1244 01-03-2010 08:20:02 4.8 C 3.69 g/m*3 4.8 C 0 km/h
1245 01-03-2010 08:32:02 4.9 C 3.71 g/m*3 4.9 C 0 km/h
1246 01-03-2010 08:44:02 5 C 3.67 g/m*3 5 C 0 km/h
1247 01-03-2010 08:56:01 5.1 C 3.69 g/m*3 5.1 C 0 km/h
1248 01-03-2010 09:08:02 5.2 C 3.86 g/m*3 5.2 C 0 km/h
1249 01-03-2010 09:20:01 5.3 C 4.02 g/m*3 5.3 C 0 km/h
1250 01-03-2010 09:32:02 5.4 C 3.91 g/m*3 5.4 C 0 km/h
Sensor: Nr:Datum:Temp:Abs-Feuchte:Windchill:Wind:
Aussen-T/F 1251 01-03-2010 09:44:02 5.6 C 3.96 g/m*3 5.6 C 0 km/h
1252 01-03-2010 09:56:01 5.8 C 4.01 g/m*3 5.8 C 0 km/h
1253 01-03-2010 10:08:02 6 C 3.7 g/m*3 6 C 0 km/h
1254 01-03-2010 10:20:01 6.2 C 3.6 g/m*3 6.2 C 0 km/h
1255 01-03-2010 10:32:02 6.4 C 3.65 g/m*3 6.4 C 0 km/h
1256 01-03-2010 10:44:02 6.3 C 3.48 g/m*3 6.3 C 0 km/h
1257 01-03-2010 10:56:01 6.4 C 3.5 g/m*3 6.4 C 0 km/h
1258 01-03-2010 11:08:02 6.7 C 3.5 g/m*3 6.7 C 0 km/h
1259 01-03-2010 11:20:02 6.6 C 3.47 g/m*3 6.6 C 0 km/h
1260 01-03-2010 11:32:02 6.3 C 3.41 g/m*3 6.3 C 0 km/h
1261 01-03-2010 11:44:02 6.6 C 3.47 g/m*3 6.6 C 0 km/h
1262 01-03-2010 11:56:01 7 C 3.33 g/m*3 7 C 0 km/h
1263 01-03-2010 12:08:02 7 C 3.33 g/m*3 7 C 0 km/h
1264 01-03-2010 12:20:02 7.2 C 3.3 g/m*3 7.2 C 0 km/h
1265 01-03-2010 12:32:01 7.5 C 3.2 g/m*3 7.5 C 0 km/h
1266 01-03-2010 12:44:01 7.9 C 3.2 g/m*3 7.9 C 0 km/h
1267 01-03-2010 12:56:02 7.8 C 3.18 g/m*3 7.8 C 0 km/h
1268 01-03-2010 13:08:01 7.7 C 3.16 g/m*3 7.7 C 0 km/h
1269 01-03-2010 13:20:02 8 C 3.14 g/m*3 8 C 0 km/h
1270 01-03-2010 13:32:01 8 C 3.06 g/m*3 8 C 0 km/h
1271 01-03-2010 13:44:01 7.8 C 3.02 g/m*3 7.8 C 0 km/h
1272 01-03-2010 13:56:01 7.7 C 3 g/m*3 7.7 C 0 km/h
1273 01-03-2010 14:08:01 7.3 C 3.16 g/m*3 7.3 C 0 km/h
1274 01-03-2010 14:20:01 7.1 C 3.2 g/m*3 7.1 C 0 km/h
1275 01-03-2010 14:32:02 7.6 C 3.22 g/m*3 7.6 C 0 km/h
Sensor: Nr:Datum:Temp:Abs-Feuchte:Windchill:Wind:
Aussen-T/F 1276 01-03-2010 14:44:02 7.5 C 3.2 g/m*3 7.5 C 0 km/h
1277 01-03-2010 14:56:02 7.4 C 3.18 g/m*3 7.4 C 0 km/h
1278 01-03-2010 15:08:02 7.3 C 3.24 g/m*3 7.3 C 0 km/h
1279 01-03-2010 15:20:02 7.6 C 3.3 g/m*3 7.6 C 0 km/h
1280 01-03-2010 15:32:02 7.5 C 3.28 g/m*3 7.5 C 0 km/h
1281 01-03-2010 15:44:02 7.4 C 3.1 g/m*3 7.4 C 0 km/h
1282 01-03-2010 15:56:02 7.3 C 3 g/m*3 7.3 C 0 km/h
1283 01-03-2010 16:08:01 7.3 C 3.08 g/m*3 7.3 C 0 km/h
1284 01-03-2010 16:20:02 7.3 C 3.08 g/m*3 7.3 C 0 km/h
1285 01-03-2010 16:32:02 7.3 C 3.08 g/m*3 7.3 C 0 km/h
1286 01-03-2010 16:44:02 7.3 C 3.08 g/m*3 7.3 C 0 km/h
1287 01-03-2010 16:56:02 7.2 C 3.06 g/m*3 7.2 C 0 km/h
1288 01-03-2010 17:08:03 7.1 C 3.12 g/m*3 7.1 C 0 km/h
1289 01-03-2010 17:20:02 6.9 C 3.08 g/m*3 6.9 C 0 km/h
1290 01-03-2010 17:32:02 6.8 C 3.06 g/m*3 6.8 C 0 km/h
1291 01-03-2010 17:44:02 6.8 C 3.14 g/m*3 6.8 C 0 km/h
1292 01-03-2010 17:56:01 6.7 C 3.12 g/m*3 6.7 C 0 km/h
1293 01-03-2010 18:08:02 6.5 C 3.22 g/m*3 6.5 C 0 km/h
1294 01-03-2010 18:20:01 6.4 C 3.5 g/m*3 6.4 C 0 km/h
1295 01-03-2010 18:32:01 6 C 3.56 g/m*3 6 C 0 km/h
1296 01-03-2010 18:44:01 5.8 C 3.72 g/m*3 5.8 C 0 km/h
1297 01-03-2010 18:56:01 5.7 C 3.77 g/m*3 5.7 C 0 km/h
1298 01-03-2010 19:08:02 5.6 C 3.68 g/m*3 5.6 C 0 km/h
1299 01-03-2010 19:20:01 5.6 C 3.53 g/m*3 5.6 C 0 km/h
1300 01-03-2010 19:32:02 5.4 C 3.56 g/m*3 5.4 C 0 km/h
Sensor: Nr:Datum:Temp:Abs-Feuchte:Windchill:Wind:
Aussen-T/F 1301 01-03-2010 19:44:02 5.3 C 3.53 g/m*3 5.3 C 0 km/h
1302 01-03-2010 19:56:02 5.1 C 3.42 g/m*3 5.1 C 0 km/h
1303 01-03-2010 20:08:03 5 C 3.4 g/m*3 5 C 0 km/h
1304 01-03-2010 20:20:02 5.1 C 3.42 g/m*3 5.1 C 0 km/h
1305 01-03-2010 20:32:02 4.6 C 3.44 g/m*3 4.6 C 0 km/h
1306 01-03-2010 20:44:02 4.4 C 3.46 g/m*3 4.4 C 0 km/h
1307 01-03-2010 20:56:02 4.4 C 3.4 g/m*3 4.4 C 0 km/h
1308 01-03-2010 21:08:02 3.8 C 3.51 g/m*3 3.8 C 0 km/h
1309 01-03-2010 21:20:02 3.4 C 3.54 g/m*3 3.4 C 0 km/h
1310 01-03-2010 21:32:01 3.4 C 3.6 g/m*3 3.4 C 0 km/h
1311 01-03-2010 21:44:01 3.3 C 3.64 g/m*3 3.3 C 0 km/h
1312 01-03-2010 21:56:02 3.1 C 3.71 g/m*3 3.1 C 0 km/h
1313 01-03-2010 22:08:02 2.8 C 3.64 g/m*3 2.8 C 0 km/h
1314 01-03-2010 22:21:03 2.6 C 3.82 g/m*3 2.6 C 0 km/h
1315 01-03-2010 22:33:03 2.4 C 3.83 g/m*3 2.4 C 0 km/h
1316 01-03-2010 22:45:03 2.1 C 3.86 g/m*3 2.1 C 0 km/h
1317 01-03-2010 22:57:03 2 C 3.89 g/m*3 2 C 0 km/h
1318 01-03-2010 23:09:03 1.8 C 3.95 g/m*3 1.8 C 0 km/h
1319 01-03-2010 23:21:03 1.5 C 3.92 g/m*3 1.5 C 0 km/h
1320 01-03-2010 23:33:03 1.2 C 3.89 g/m*3 1.2 C 0 km/h
1321 01-03-2010 23:45:03 1.1 C 3.92 g/m*3 1.1 C 0 km/h
1322 01-03-2010 23:57:03 1.1 C 3.97 g/m*3 1.1 C 0 km/h
1323 02-03-2010 00:09:03 0.9 C 3.97 g/m*3 0.9 C 0 km/h
1324 02-03-2010 00:21:03 0.7 C 3.97 g/m*3 0.7 C 0 km/h
1325 02-03-2010 00:33:03 0.5 C 3.96 g/m*3 0.5 C 0 km/h
Sensor: Nr:Datum:Temp:Abs-Feuchte:Windchill:Wind:
Aussen-T/F 1326 02-03-2010 00:45:03 0.2 C 3.88 g/m*3 0.2 C 0 km/h
1327 02-03-2010 00:57:03 0.2 C 3.88 g/m*3 0.2 C 0 km/h
1328 02-03-2010 01:09:03 0.1 C 3.9 g/m*3 0.1 C 0 km/h
1329 02-03-2010 01:21:03 0.2 C 3.98 g/m*3 0.2 C 0 km/h
1330 02-03-2010 01:33:03 0.3 C 4.01 g/m*3 0.3 C 0 km/h
1331 02-03-2010 01:45:03 0 C 3.92 g/m*3 0 C 0 km/h
1332 02-03-2010 01:57:03 0 C 3.97 g/m*3 0 C 0 km/h
1333 02-03-2010 02:09:03 0 C 3.97 g/m*3 0 C 0 km/h
1334 02-03-2010 02:21:04 -0.2 C 3.92 g/m*3 -0.2 C 0 km/h
1335 02-03-2010 02:33:04 -0.2 C 3.97 g/m*3 -0.2 C 0 km/h
1336 02-03-2010 02:45:04 -0.4 C 3.91 g/m*3 -0.4 C 0 km/h
1337 02-03-2010 02:57:04 -0.6 C 3.86 g/m*3 -0.6 C 0 km/h
1338 02-03-2010 03:09:04 -0.7 C 3.83 g/m*3 -0.7 C 0 km/h
1339 02-03-2010 03:21:04 -0.6 C 3.86 g/m*3 -0.6 C 0 km/h
1340 02-03-2010 03:33:04 -0.7 C 3.83 g/m*3 -0.7 C 0 km/h
1341 02-03-2010 03:45:04 -0.9 C 3.82 g/m*3 -0.9 C 0 km/h
1342 02-03-2010 03:57:04 -1 C 3.8 g/m*3 -1 C 0 km/h
1343 02-03-2010 04:09:04 -1.3 C 3.72 g/m*3 -1.3 C 0 km/h
1344 02-03-2010 04:21:04 -1.3 C 3.72 g/m*3 -1.3 C 0 km/h
1345 02-03-2010 04:33:04 -1.4 C 3.69 g/m*3 -1.4 C 0 km/h
1346 02-03-2010 04:45:04 -1.2 C 3.79 g/m*3 -1.2 C 0 km/h
1347 02-03-2010 04:57:04 -1.2 C 3.79 g/m*3 -1.2 C 0 km/h
1348 02-03-2010 05:09:04 -1.1 C 3.86 g/m*3 -1.1 C 0 km/h
1349 02-03-2010 05:21:04 -1.1 C 3.86 g/m*3 -1.1 C 0 km/h
1350 02-03-2010 05:33:04 -1.1 C 3.86 g/m*3 -1.1 C 0 km/h
Sensor: Nr:Datum:Temp:Abs-Feuchte:Windchill:Wind:
Aussen-T/F 1351 02-03-2010 05:45:04 -1.1 C 3.86 g/m*3 -1.1 C 0 km/h
1352 02-03-2010 05:57:04 -1.4 C 3.74 g/m*3 -1.4 C 0 km/h
1353 02-03-2010 06:09:04 -1.6 C 3.68 g/m*3 -1.6 C 0 km/h
1354 02-03-2010 06:21:04 -1.7 C 3.66 g/m*3 -1.7 C 0 km/h
1355 02-03-2010 06:33:05 -1.8 C 3.63 g/m*3 -1.8 C 0 km/h
1356 02-03-2010 06:45:05 -1.9 C 3.65 g/m*3 -1.9 C 0 km/h
1357 02-03-2010 06:57:05 -1.9 C 3.65 g/m*3 -1.9 C 0 km/h
1358 02-03-2010 07:09:02 -2 C 3.63 g/m*3 -2 C 0 km/h
1359 02-03-2010 07:21:03 -1.8 C 3.72 g/m*3 -1.8 C 0 km/h
1360 02-03-2010 07:33:02 -1.8 C 3.72 g/m*3 -1.8 C 0 km/h
1361 02-03-2010 07:45:02 -1.6 C 3.77 g/m*3 -1.6 C 0 km/h
1362 02-03-2010 07:57:02 -1.2 C 3.92 g/m*3 -1.2 C 0 km/h
1363 02-03-2010 08:09:02 -0.9 C 4.01 g/m*3 -0.9 C 0 km/h
1364 02-03-2010 08:21:02 -0.7 C 4.06 g/m*3 -0.7 C 0 km/h
1365 02-03-2010 08:33:03 -0.7 C 4.06 g/m*3 -0.7 C 0 km/h
1366 02-03-2010 08:45:02 -0.6 C 4.09 g/m*3 -0.6 C 0 km/h
1367 02-03-2010 08:57:03 -0.6 C 4.09 g/m*3 -0.6 C 0 km/h
1368 02-03-2010 09:09:01 -0.5 C 4.07 g/m*3 -0.5 C 0 km/h
1369 02-03-2010 09:21:02 0 C 4.26 g/m*3 0 C 0 km/h
1370 02-03-2010 09:33:02 0.1 C 4.24 g/m*3 0.1 C 0 km/h
1371 02-03-2010 09:45:02 -0.1 C 4.14 g/m*3 -0.1 C 0 km/h
1372 02-03-2010 09:57:02 -0.1 C 4.14 g/m*3 -0.1 C 0 km/h
1373 02-03-2010 10:09:03 0.3 C 4.25 g/m*3 0.3 C 0 km/h
1374 02-03-2010 10:21:02 0.7 C 4.32 g/m*3 0.7 C 0 km/h
1375 02-03-2010 10:33:02 1.2 C 4.42 g/m*3 1.2 C 0 km/h
Sensor: Nr:Datum:Temp:Abs-Feuchte:Windchill:Wind:
Aussen-T/F 1376 02-03-2010 10:45:01 1.6 C 4.49 g/m*3 1.6 C 0 km/h
1377 02-03-2010 10:57:01 2.1 C 4.48 g/m*3 2.1 C 0 km/h
1378 02-03-2010 11:09:02 2.6 C 4.57 g/m*3 2.6 C 0 km/h
1379 02-03-2010 11:21:01 3.1 C 4.61 g/m*3 3.1 C 0 km/h
1380 02-03-2010 11:33:02 4 C 4.7 g/m*3 4 C 0 km/h
1381 02-03-2010 11:45:02 4 C 4.51 g/m*3 4 C 0 km/h
1382 02-03-2010 11:57:02 4.2 C 4.25 g/m*3 4.2 C 0 km/h
1383 02-03-2010 12:09:02 5.1 C 3.63 g/m*3 5.1 C 0 km/h
1384 02-03-2010 12:21:01 6.1 C 3.29 g/m*3 6.1 C 0 km/h
1385 02-03-2010 12:33:02 6.3 C 3.26 g/m*3 6.3 C 0 km/h
1386 02-03-2010 12:45:02 7 C 3.02 g/m*3 7 C 0 km/h
1387 02-03-2010 12:57:02 7.4 C 2.86 g/m*3 7.4 C 0 km/h
1388 02-03-2010 13:09:02 8.1 C 2.91 g/m*3 8.1 C 0 km/h
1389 02-03-2010 13:21:01 9.1 C 2.75 g/m*3 9.1 C 0 km/h
1390 02-03-2010 13:33:02 8.5 C 2.65 g/m*3 8.5 C 0 km/h
1391 02-03-2010 13:45:01 9.5 C 2.73 g/m*3 9.5 C 0 km/h
1392 02-03-2010 13:57:01 10.3 C 2.49 g/m*3 10.3 C 0 km/h
1393 02-03-2010 14:09:02 10.2 C 2.38 g/m*3 10.2 C 0 km/h
1394 02-03-2010 14:21:02 10.1 C 2.65 g/m*3 10.1 C 0 km/h
1395 02-03-2010 14:33:02 9.5 C 2.28 g/m*3 9.5 C 0 km/h
1396 02-03-2010 14:45:02 9.5 C 2.46 g/m*3 9.5 C 0 km/h
1397 02-03-2010 14:57:02 9 C 2.29 g/m*3 9 C 0 km/h
1398 02-03-2010 15:09:02 8.7 C 2.42 g/m*3 8.7 C 0 km/h
1399 02-03-2010 15:21:02 9.5 C 2.55 g/m*3 9.5 C 0 km/h
1400 02-03-2010 15:33:01 10.3 C 2.49 g/m*3 10.3 C 0 km/h
Sensor: Nr:Datum:Temp:Abs-Feuchte:Windchill:Wind:
Aussen-T/F 1401 02-03-2010 15:45:02 11 C 2.4 g/m*3 11 C 0 km/h
1402 02-03-2010 15:57:02 10.7 C 1.96 g/m*3 10.7 C 0 km/h
1403 02-03-2010 16:09:01 9.7 C 1.84 g/m*3 9.7 C 0 km/h
1404 02-03-2010 16:21:02 9.5 C 1.82 g/m*3 9.5 C 0 km/h
1405 02-03-2010 16:33:01 8.7 C 2.51 g/m*3 8.7 C 0 km/h
1406 02-03-2010 16:45:02 8.4 C 2.63 g/m*3 8.4 C 0 km/h
1407 02-03-2010 16:57:03 8.7 C 2.77 g/m*3 8.7 C 0 km/h
1408 02-03-2010 17:09:02 8.7 C 2.77 g/m*3 8.7 C 0 km/h
1409 02-03-2010 17:21:02 9 C 2.73 g/m*3 9 C 0 km/h
1410 02-03-2010 17:33:02 8.4 C 2.71 g/m*3 8.4 C 0 km/h
1411 02-03-2010 17:45:02 8.2 C 2.93 g/m*3 8.2 C 0 km/h
1412 02-03-2010 17:57:03 7.9 C 2.96 g/m*3 7.9 C 0 km/h
1413 02-03-2010 18:09:01 7.5 C 3.04 g/m*3 7.5 C 0 km/h
1414 02-03-2010 18:21:02 7 C 3.1 g/m*3 7 C 0 km/h
1415 02-03-2010 18:33:02 6.5 C 3.3 g/m*3 6.5 C 0 km/h
1416 02-03-2010 18:45:02 6.2 C 3.38 g/m*3 6.2 C 0 km/h
1417 02-03-2010 18:57:02 5.9 C 3.53 g/m*3 5.9 C 0 km/h
1418 02-03-2010 19:09:01 5.9 C 3.53 g/m*3 5.9 C 0 km/h
1419 02-03-2010 19:21:02 5.9 C 3.39 g/m*3 5.9 C 0 km/h
1420 02-03-2010 19:33:02 5.8 C 3.3 g/m*3 5.8 C 0 km/h
1421 02-03-2010 19:45:01 5.8 C 3.3 g/m*3 5.8 C 0 km/h
1422 02-03-2010 19:57:01 5.8 C 3.3 g/m*3 5.8 C 0 km/h
1423 02-03-2010 20:09:02 6 C 3.19 g/m*3 6 C 0 km/h
1424 02-03-2010 20:21:01 5.8 C 3.22 g/m*3 5.8 C 0 km/h
1425 02-03-2010 20:33:01 5.5 C 3.3 g/m*3 5.5 C 0 km/h
Sensor: Nr:Datum:Temp:Abs-Feuchte:Windchill:Wind:
Aussen-T/F 1426 02-03-2010 20:45:01 5 C 3.47 g/m*3 5 C 0 km/h
1427 02-03-2010 20:57:02 4.4 C 3.66 g/m*3 4.4 C 0 km/h
1428 02-03-2010 21:09:01 4.3 C 3.83 g/m*3 4.3 C 0 km/h
1429 02-03-2010 21:21:02 3.8 C 4.02 g/m*3 3.8 C 0 km/h
1430 02-03-2010 21:33:02 3.2 C 4.34 g/m*3 3.2 C 0 km/h
1431 02-03-2010 21:45:02 2.9 C 4.43 g/m*3 2.9 C 0 km/h
1432 02-03-2010 21:57:02 2.7 C 4.43 g/m*3 2.7 C 0 km/h
1433 02-03-2010 22:10:02 2.5 C 4.37 g/m*3 2.5 C 0 km/h
1434 02-03-2010 22:22:02 2.5 C 4.43 g/m*3 2.5 C 0 km/h
1435 02-03-2010 22:34:02 2.4 C 4.34 g/m*3 2.4 C 0 km/h
1436 02-03-2010 22:46:02 2.2 C 4.34 g/m*3 2.2 C 0 km/h
1437 02-03-2010 22:58:02 2 C 4.28 g/m*3 2 C 0 km/h
1438 02-03-2010 23:10:02 1.8 C 4.28 g/m*3 1.8 C 0 km/h
1439 02-03-2010 23:22:02 1.7 C 4.3 g/m*3 1.7 C 0 km/h
1440 02-03-2010 23:34:02 1.5 C 4.24 g/m*3 1.5 C 0 km/h
1441 02-03-2010 23:46:02 1.3 C 4.19 g/m*3 1.3 C 0 km/h
1442 02-03-2010 23:58:02 1.3 C 4.13 g/m*3 1.3 C 0 km/h
1443 03-03-2010 00:10:03 1.1 C 4.08 g/m*3 1.1 C 0 km/h
1444 03-03-2010 00:22:03 1.2 C 4.05 g/m*3 1.2 C 0 km/h
1445 03-03-2010 00:34:03 1.1 C 3.92 g/m*3 1.1 C 0 km/h
1446 03-03-2010 00:46:03 0.9 C 3.87 g/m*3 0.9 C 0 km/h
1447 03-03-2010 00:58:03 0.9 C 3.81 g/m*3 0.9 C 0 km/h
1448 03-03-2010 01:10:03 0.8 C 3.79 g/m*3 0.8 C 0 km/h
1449 03-03-2010 01:22:03 0.5 C 3.71 g/m*3 0.5 C 0 km/h
1450 03-03-2010 01:34:03 0.3 C 3.66 g/m*3 0.3 C 0 km/h
Sensor: Nr:Datum:Temp:Abs-Feuchte:Windchill:Wind:
Aussen-T/F 1451 03-03-2010 01:46:03 0.1 C 3.66 g/m*3 0.1 C 0 km/h
1452 03-03-2010 01:58:03 -0.1 C 3.66 g/m*3 -0.1 C 0 km/h
1453 03-03-2010 02:10:03 0 C 3.78 g/m*3 0 C 0 km/h
1454 03-03-2010 02:22:03 -0.1 C 3.8 g/m*3 -0.1 C 0 km/h
1455 03-03-2010 02:34:03 -0.4 C 3.72 g/m*3 -0.4 C 0 km/h
1456 03-03-2010 02:46:03 -0.5 C 3.74 g/m*3 -0.5 C 0 km/h
1457 03-03-2010 02:58:03 -0.6 C 3.76 g/m*3 -0.6 C 0 km/h
1458 03-03-2010 03:10:03 -0.7 C 3.74 g/m*3 -0.7 C 0 km/h
1459 03-03-2010 03:22:03 -0.9 C 3.69 g/m*3 -0.9 C 0 km/h
1460 03-03-2010 03:34:03 -0.9 C 3.73 g/m*3 -0.9 C 0 km/h
1461 03-03-2010 03:46:03 -1 C 3.71 g/m*3 -1 C 0 km/h
1462 03-03-2010 03:58:04 -1.1 C 3.68 g/m*3 -1.1 C 0 km/h
1463 03-03-2010 04:10:04 -1.2 C 3.7 g/m*3 -1.2 C 0 km/h
1464 03-03-2010 04:22:04 -1.3 C 3.67 g/m*3 -1.3 C 0 km/h
1465 03-03-2010 04:34:04 -1.5 C 3.62 g/m*3 -1.5 C 0 km/h
1466 03-03-2010 04:46:04 -1.4 C 3.69 g/m*3 -1.4 C 0 km/h
1467 03-03-2010 04:58:04 -1.6 C 3.64 g/m*3 -1.6 C 0 km/h
1468 03-03-2010 05:10:04 -1.7 C 3.62 g/m*3 -1.7 C 0 km/h
1469 03-03-2010 05:22:04 -2 C 3.54 g/m*3 -2 C 0 km/h
1470 03-03-2010 05:34:04 -2 C 3.54 g/m*3 -2 C 0 km/h
1471 03-03-2010 05:46:04 -2.1 C 3.52 g/m*3 -2.1 C 0 km/h
1472 03-03-2010 05:58:04 -2.1 C 3.56 g/m*3 -2.1 C 0 km/h
1473 03-03-2010 06:10:04 -2.2 C 3.53 g/m*3 -2.2 C 0 km/h
1474 03-03-2010 06:22:04 -1.8 C 3.68 g/m*3 -1.8 C 0 km/h
1475 03-03-2010 06:34:04 -1.4 C 3.82 g/m*3 -1.4 C 0 km/h
Sensor: Nr:Datum:Temp:Abs-Feuchte:Windchill:Wind:
Aussen-T/F 1476 03-03-2010 06:46:04 -1.1 C 3.91 g/m*3 -1.1 C 0 km/h
1477 03-03-2010 06:58:04 -1.1 C 3.91 g/m*3 -1.1 C 0 km/h
1478 03-03-2010 07:10:02 -1.1 C 3.86 g/m*3 -1.1 C 0 km/h
1479 03-03-2010 07:22:02 -1.1 C 3.86 g/m*3 -1.1 C 0 km/h
1480 03-03-2010 07:34:02 -1.1 C 3.82 g/m*3 -1.1 C 0 km/h
1481 03-03-2010 07:46:02 -1.3 C 3.72 g/m*3 -1.3 C 0 km/h
1482 03-03-2010 07:58:02 -1.5 C 3.67 g/m*3 -1.5 C 0 km/h
1483 03-03-2010 08:10:02 -1.4 C 3.69 g/m*3 -1.4 C 0 km/h
1484 03-03-2010 08:22:02 -1.3 C 3.72 g/m*3 -1.3 C 0 km/h
1485 03-03-2010 08:34:02 -1.2 C 3.79 g/m*3 -1.2 C 0 km/h
1486 03-03-2010 08:46:02 -0.7 C 3.92 g/m*3 -0.7 C 0 km/h
1487 03-03-2010 08:58:02 0.1 C 4.2 g/m*3 0.1 C 0 km/h
1488 03-03-2010 09:10:01 0.6 C 4.29 g/m*3 0.6 C 0 km/h
1489 03-03-2010 09:22:02 0.8 C 4.15 g/m*3 0.8 C 0 km/h
1490 03-03-2010 09:34:02 1 C 3.84 g/m*3 1 C 0 km/h
1491 03-03-2010 09:46:02 1.2 C 3.68 g/m*3 1.2 C 0 km/h
1492 03-03-2010 09:58:02 1.5 C 3.54 g/m*3 1.5 C 0 km/h
1493 03-03-2010 10:10:03 1.4 C 3.41 g/m*3 1.4 C 0 km/h
1494 03-03-2010 10:22:02 1.1 C 3.4 g/m*3 1.1 C 0 km/h
1495 03-03-2010 10:34:02 1.2 C 3.47 g/m*3 1.2 C 0 km/h
1496 03-03-2010 10:46:01 1.3 C 3.5 g/m*3 1.3 C 0 km/h
1497 03-03-2010 10:58:01 1.7 C 3.54 g/m*3 1.7 C 0 km/h
1498 03-03-2010 11:10:02 2.2 C 3.49 g/m*3 2.2 C 0 km/h
1499 03-03-2010 11:22:01 2.5 C 3.45 g/m*3 2.5 C 0 km/h
1500 03-03-2010 11:34:01 2.8 C 3.46 g/m*3 2.8 C 0 km/h
Sensor: Nr:Datum:Temp:Abs-Feuchte:Windchill:Wind:
Aussen-T/F 1501 03-03-2010 11:46:01 3.1 C 3.35 g/m*3 3.1 C 0 km/h
1502 03-03-2010 11:58:01 3.7 C 3.24 g/m*3 3.7 C 0 km/h
1503 03-03-2010 12:10:02 4.3 C 3.24 g/m*3 4.3 C 0 km/h
1504 03-03-2010 12:22:01 4.8 C 3.22 g/m*3 4.8 C 0 km/h
1505 03-03-2010 12:34:02 5.1 C 3.15 g/m*3 5.1 C 0 km/h
1506 03-03-2010 12:46:01 5.8 C 3.15 g/m*3 5.8 C 0 km/h
1507 03-03-2010 12:58:01 6.5 C 3 g/m*3 6.5 C 0 km/h
1508 03-03-2010 13:10:02 7 C 2.94 g/m*3 7 C 0 km/h
1509 03-03-2010 13:22:01 7.8 C 2.86 g/m*3 7.8 C 0 km/h
1510 03-03-2010 13:34:02 8.5 C 2.48 g/m*3 8.5 C 0 km/h
1511 03-03-2010 13:46:01 8.9 C 2.19 g/m*3 8.9 C 0 km/h
1512 03-03-2010 13:58:01 9.1 C 1.77 g/m*3 9.1 C 0 km/h
1513 03-03-2010 14:10:02 9.4 C 1.81 g/m*3 9.4 C 0 km/h
1514 03-03-2010 14:22:02 9.8 C 1.86 g/m*3 9.8 C 0 km/h
1515 03-03-2010 14:34:01 10.3 C 1.92 g/m*3 10.3 C 0 km/h
1516 03-03-2010 14:46:02 10.5 C 1.94 g/m*3 10.5 C 0 km/h
1517 03-03-2010 14:58:02 10.2 C 1.9 g/m*3 10.2 C 0 km/h
1518 03-03-2010 15:10:01 10.7 C 1.96 g/m*3 10.7 C 0 km/h
1519 03-03-2010 15:22:02 11 C 2 g/m*3 11 C 0 km/h
1520 03-03-2010 15:34:01 11 C 2 g/m*3 11 C 0 km/h
1521 03-03-2010 15:46:03 10.5 C 1.94 g/m*3 10.5 C 0 km/h
1522 03-03-2010 15:58:03 11 C 2 g/m*3 11 C 0 km/h
1523 03-03-2010 16:10:02 11.2 C 2.03 g/m*3 11.2 C 0 km/h
1524 03-03-2010 16:22:02 11.5 C 2.07 g/m*3 11.5 C 0 km/h
1525 03-03-2010 16:34:02 11.1 C 2.01 g/m*3 11.1 C 0 km/h
Sensor: Nr:Datum:Temp:Abs-Feuchte:Windchill:Wind:
Aussen-T/F 1526 03-03-2010 16:46:02 10.3 C 1.92 g/m*3 10.3 C 0 km/h
1527 03-03-2010 16:58:02 10.3 C 1.92 g/m*3 10.3 C 0 km/h
1528 03-03-2010 17:10:01 9.3 C 1.8 g/m*3 9.3 C 0 km/h
1529 03-03-2010 17:22:02 8.5 C 1.71 g/m*3 8.5 C 0 km/h
1530 03-03-2010 17:34:02 7.8 C 1.63 g/m*3 7.8 C 0 km/h
1531 03-03-2010 17:46:02 7.2 C 1.96 g/m*3 7.2 C 0 km/h
1532 03-03-2010 17:58:03 6.6 C 1.89 g/m*3 6.6 C 0 km/h
1533 03-03-2010 18:10:02 6.2 C 2.21 g/m*3 6.2 C 0 km/h
1534 03-03-2010 18:22:02 5.7 C 2.13 g/m*3 5.7 C 0 km/h
1535 03-03-2010 18:34:03 5.4 C 2.02 g/m*3 5.4 C 0 km/h
1536 03-03-2010 18:46:02 5.1 C 2.05 g/m*3 5.1 C 0 km/h
1537 03-03-2010 18:58:02 4.8 C 2.15 g/m*3 4.8 C 0 km/h
1538 03-03-2010 19:10:02 4.6 C 2.12 g/m*3 4.6 C 0 km/h
1539 03-03-2010 19:22:02 4.4 C 2.15 g/m*3 4.4 C 0 km/h
1540 03-03-2010 19:34:02 4.2 C 2.19 g/m*3 4.2 C 0 km/h
1541 03-03-2010 19:46:02 4.1 C 2.24 g/m*3 4.1 C 0 km/h
1542 03-03-2010 19:58:02 3.9 C 2.46 g/m*3 3.9 C 0 km/h
1543 03-03-2010 20:10:02 3.7 C 2.49 g/m*3 3.7 C 0 km/h
1544 03-03-2010 20:22:02 3.7 C 2.49 g/m*3 3.7 C 0 km/h
1545 03-03-2010 20:34:02 3.6 C 2.54 g/m*3 3.6 C 0 km/h
1546 03-03-2010 20:46:01 3.4 C 2.57 g/m*3 3.4 C 0 km/h
1547 03-03-2010 20:58:01 3.3 C 2.55 g/m*3 3.3 C 0 km/h
1548 03-03-2010 21:10:02 3.2 C 2.59 g/m*3 3.2 C 0 km/h
1549 03-03-2010 21:22:01 3 C 2.62 g/m*3 3 C 0 km/h
1550 03-03-2010 21:34:02 3 C 2.68 g/m*3 3 C 0 km/h
Sensor: Nr:Datum:Temp:Abs-Feuchte:Windchill:Wind:
Aussen-T/F 1551 03-03-2010 21:46:02 2.9 C 2.72 g/m*3 2.9 C 0 km/h
1552 03-03-2010 21:58:02 2.8 C 2.76 g/m*3 2.8 C 0 km/h
1553 03-03-2010 22:11:02 2.7 C 2.8 g/m*3 2.7 C 0 km/h
1554 03-03-2010 22:23:02 2.6 C 2.84 g/m*3 2.6 C 0 km/h
1555 03-03-2010 22:35:02 2.5 C 2.82 g/m*3 2.5 C 0 km/h
1556 03-03-2010 22:47:03 2.4 C 2.8 g/m*3 2.4 C 0 km/h
1557 03-03-2010 22:59:03 2.2 C 2.82 g/m*3 2.2 C 0 km/h
1558 03-03-2010 23:11:03 1.9 C 2.87 g/m*3 1.9 C 0 km/h
1559 03-03-2010 23:23:03 1.7 C 2.89 g/m*3 1.7 C 0 km/h
1560 03-03-2010 23:35:03 1.6 C 2.92 g/m*3 1.6 C 0 km/h
1561 03-03-2010 23:47:03 1.5 C 2.95 g/m*3 1.5 C 0 km/h
1562 03-03-2010 23:59:03 1.4 C 2.93 g/m*3 1.4 C 0 km/h
1563 04-03-2010 00:11:03 1.3 C 2.97 g/m*3 1.3 C 0 km/h
1564 04-03-2010 00:23:03 1.2 C 2.89 g/m*3 1.2 C 0 km/h
1565 04-03-2010 00:35:03 1.2 C 2.89 g/m*3 1.2 C 0 km/h
1566 04-03-2010 00:47:03 1.2 C 2.89 g/m*3 1.2 C 0 km/h
1567 04-03-2010 00:59:03 1.3 C 2.91 g/m*3 1.3 C 0 km/h
1568 04-03-2010 01:11:03 1.3 C 2.91 g/m*3 1.3 C 0 km/h
1569 04-03-2010 01:23:03 1.2 C 2.89 g/m*3 1.2 C 0 km/h
1570 04-03-2010 01:35:03 1.1 C 2.87 g/m*3 1.1 C 0 km/h
1571 04-03-2010 01:47:03 1.2 C 2.89 g/m*3 1.2 C 0 km/h
1572 04-03-2010 01:59:03 1 C 2.85 g/m*3 1 C 0 km/h
1573 04-03-2010 02:11:03 0.8 C 2.92 g/m*3 0.8 C 0 km/h
1574 04-03-2010 02:23:03 0.5 C 2.96 g/m*3 0.5 C 0 km/h
1575 04-03-2010 02:35:03 0.2 C 2.95 g/m*3 0.2 C 0 km/h
Sensor: Nr:Datum:Temp:Abs-Feuchte:Windchill:Wind:
Aussen-T/F 1576 04-03-2010 02:47:03 0.1 C 2.98 g/m*3 0.1 C 0 km/h
1577 04-03-2010 02:59:04 0 C 2.96 g/m*3 0 C 0 km/h
1578 04-03-2010 03:11:04 -0.2 C 2.96 g/m*3 -0.2 C 0 km/h
1579 04-03-2010 03:23:04 -0.4 C 2.87 g/m*3 -0.4 C 0 km/h
1580 04-03-2010 03:35:04 -0.6 C 2.88 g/m*3 -0.6 C 0 km/h
1581 04-03-2010 03:47:04 -0.7 C 2.86 g/m*3 -0.7 C 0 km/h
1582 04-03-2010 03:59:04 -0.8 C 2.89 g/m*3 -0.8 C 0 km/h
1583 04-03-2010 04:11:04 -0.9 C 2.87 g/m*3 -0.9 C 0 km/h
1584 04-03-2010 04:23:04 -0.7 C 2.95 g/m*3 -0.7 C 0 km/h
1585 04-03-2010 04:35:04 -0.7 C 2.91 g/m*3 -0.7 C 0 km/h
1586 04-03-2010 04:47:04 -0.7 C 2.95 g/m*3 -0.7 C 0 km/h
1587 04-03-2010 04:59:04 -0.8 C 2.89 g/m*3 -0.8 C 0 km/h
1588 04-03-2010 05:11:04 -0.7 C 2.95 g/m*3 -0.7 C 0 km/h
1589 04-03-2010 05:23:04 -0.8 C 2.93 g/m*3 -0.8 C 0 km/h
1590 04-03-2010 05:35:04 -0.9 C 2.96 g/m*3 -0.9 C 0 km/h
1591 04-03-2010 05:47:04 -0.7 C 3 g/m*3 -0.7 C 0 km/h
1592 04-03-2010 05:59:04 -1 C 2.94 g/m*3 -1 C 0 km/h
1593 04-03-2010 06:11:04 -1 C 2.98 g/m*3 -1 C 0 km/h
1594 04-03-2010 06:23:04 -1.1 C 2.96 g/m*3 -1.1 C 0 km/h
1595 04-03-2010 06:35:04 -1.3 C 2.92 g/m*3 -1.3 C 0 km/h
1596 04-03-2010 06:47:04 -1.4 C 2.95 g/m*3 -1.4 C 0 km/h
1597 04-03-2010 06:59:04 -1.4 C 2.99 g/m*3 -1.4 C 0 km/h
1598 04-03-2010 07:11:01 -1.4 C 3.03 g/m*3 -1.4 C 0 km/h
1599 04-03-2010 07:23:02 -1.3 C 3.05 g/m*3 -1.3 C 0 km/h
1600 04-03-2010 07:35:02 -1.3 C 3.01 g/m*3 -1.3 C 0 km/h
Sensor: Nr:Datum:Temp:Abs-Feuchte:Windchill:Wind:
Aussen-T/F 1601 04-03-2010 07:47:01 -1.2 C 3.08 g/m*3 -1.2 C 0 km/h
1602 04-03-2010 07:59:01 -1.1 C 3.1 g/m*3 -1.1 C 0 km/h
1603 04-03-2010 08:11:02 -1.1 C 3.1 g/m*3 -1.1 C 0 km/h
1604 04-03-2010 08:23:01 -1 C 3.12 g/m*3 -1 C 0 km/h
1605 04-03-2010 08:35:01 -1.1 C 3.1 g/m*3 -1.1 C 0 km/h
1606 04-03-2010 08:47:02 -1.1 C 3.1 g/m*3 -1.1 C 0 km/h
1607 04-03-2010 08:59:02 -1 C 3.16 g/m*3 -1 C 0 km/h
1608 04-03-2010 09:11:02 -0.5 C 3.23 g/m*3 -0.5 C 0 km/h
1609 04-03-2010 09:23:02 0 C 3.29 g/m*3 0 C 0 km/h
1610 04-03-2010 09:35:01 0.2 C 3.24 g/m*3 0.2 C 0 km/h
1611 04-03-2010 09:47:02 0.5 C 3.26 g/m*3 0.5 C 0 km/h
1612 04-03-2010 09:59:02 1.3 C 3.34 g/m*3 1.3 C 0 km/h
1613 04-03-2010 10:11:01 2 C 3.28 g/m*3 2 C 0 km/h
1614 04-03-2010 10:23:02 3 C 3.21 g/m*3 3 C 0 km/h
1615 04-03-2010 10:35:02 3.6 C 2.85 g/m*3 3.6 C 0 km/h
1616 04-03-2010 10:47:02 3.4 C 2.63 g/m*3 3.4 C 0 km/h
1617 04-03-2010 10:59:03 3.9 C 2.59 g/m*3 3.9 C 0 km/h
1618 04-03-2010 11:11:01 3.8 C 2.45 g/m*3 3.8 C 0 km/h
1619 04-03-2010 11:23:02 4.1 C 2.24 g/m*3 4.1 C 0 km/h
1620 04-03-2010 11:35:02 4.4 C 2.35 g/m*3 4.4 C 0 km/h
1621 04-03-2010 11:47:01 4.6 C 2.32 g/m*3 4.6 C 0 km/h
1622 04-03-2010 11:59:01 4.3 C 2.08 g/m*3 4.3 C 0 km/h
1623 04-03-2010 12:11:02 4.2 C 2.19 g/m*3 4.2 C 0 km/h
1624 04-03-2010 12:23:01 4.5 C 2.3 g/m*3 4.5 C 0 km/h
1625 04-03-2010 12:35:01 4.8 C 2.28 g/m*3 4.8 C 0 km/h
Sensor: Nr:Datum:Temp:Abs-Feuchte:Windchill:Wind:
Aussen-T/F 1626 04-03-2010 12:47:02 4.8 C 2.08 g/m*3 4.8 C 0 km/h
1627 04-03-2010 12:59:02 5.8 C 2.08 g/m*3 5.8 C 0 km/h
1628 04-03-2010 13:11:02 6.3 C 1.92 g/m*3 6.3 C 0 km/h
1629 04-03-2010 13:23:01 6.8 C 1.53 g/m*3 6.8 C 0 km/h
1630 04-03-2010 13:35:02 7.1 C 1.56 g/m*3 7.1 C 0 km/h
1631 04-03-2010 13:47:02 6.9 C 1.54 g/m*3 6.9 C 0 km/h
1632 04-03-2010 13:59:02 7.1 C 1.56 g/m*3 7.1 C 0 km/h
1633 04-03-2010 14:11:02 7.9 C 1.64 g/m*3 7.9 C 0 km/h
1634 04-03-2010 14:23:01 8.2 C 1.67 g/m*3 8.2 C 0 km/h
1635 04-03-2010 14:35:02 9 C 1.76 g/m*3 9 C 0 km/h
1636 04-03-2010 14:47:02 8.9 C 1.75 g/m*3 8.9 C 0 km/h
1637 04-03-2010 14:59:02 9.2 C 1.79 g/m*3 9.2 C 0 km/h
1638 04-03-2010 15:11:02 9.2 C 1.79 g/m*3 9.2 C 0 km/h
1639 04-03-2010 15:23:01 9.3 C 1.8 g/m*3 9.3 C 0 km/h
1640 04-03-2010 15:35:02 8.2 C 1.67 g/m*3 8.2 C 0 km/h
1641 04-03-2010 15:47:02 8.9 C 1.75 g/m*3 8.9 C 0 km/h
1642 04-03-2010 15:59:02 9.2 C 1.79 g/m*3 9.2 C 0 km/h
1643 04-03-2010 16:11:02 9.4 C 1.81 g/m*3 9.4 C 0 km/h
1644 04-03-2010 16:23:01 9.3 C 1.8 g/m*3 9.3 C 0 km/h
1645 04-03-2010 16:35:02 9.1 C 1.77 g/m*3 9.1 C 0 km/h
1646 04-03-2010 16:47:01 9 C 1.76 g/m*3 9 C 0 km/h
1647 04-03-2010 16:59:01 8.5 C 1.71 g/m*3 8.5 C 0 km/h
1648 04-03-2010 17:11:02 8.3 C 1.69 g/m*3 8.3 C 0 km/h
1649 04-03-2010 17:23:02 7.7 C 1.62 g/m*3 7.7 C 0 km/h
1650 04-03-2010 17:35:01 7.3 C 1.58 g/m*3 7.3 C 0 km/h
Sensor: Nr:Datum:Temp:Abs-Feuchte:Windchill:Wind:
Aussen-T/F 1651 04-03-2010 17:47:02 6.9 C 1.54 g/m*3 6.9 C 0 km/h
1652 04-03-2010 17:59:02 5.7 C 1.42 g/m*3 5.7 C 0 km/h
1653 04-03-2010 18:11:01 4.9 C 1.42 g/m*3 4.9 C 0 km/h
1654 04-03-2010 18:23:02 4.3 C 1.62 g/m*3 4.3 C 0 km/h
1655 04-03-2010 18:35:01 4 C 1.78 g/m*3 4 C 0 km/h
1656 04-03-2010 18:47:02 3.5 C 1.91 g/m*3 3.5 C 0 km/h
1657 04-03-2010 18:59:02 3.2 C 1.93 g/m*3 3.2 C 0 km/h
1658 04-03-2010 19:11:02 3 C 2.08 g/m*3 3 C 0 km/h
1659 04-03-2010 19:23:02 2.6 C 2.14 g/m*3 2.6 C 0 km/h
1660 04-03-2010 19:35:02 2.2 C 2.25 g/m*3 2.2 C 0 km/h
1661 04-03-2010 19:47:01 1.9 C 2.32 g/m*3 1.9 C 0 km/h
1662 04-03-2010 19:59:01 1.6 C 2.33 g/m*3 1.6 C 0 km/h
1663 04-03-2010 20:11:02 1.5 C 2.36 g/m*3 1.5 C 0 km/h
1664 04-03-2010 20:23:02 1.4 C 2.35 g/m*3 1.4 C 0 km/h
1665 04-03-2010 20:35:01 1.3 C 2.38 g/m*3 1.3 C 0 km/h
1666 04-03-2010 20:47:02 1.1 C 2.35 g/m*3 1.1 C 0 km/h
1667 04-03-2010 20:59:02 1.1 C 2.51 g/m*3 1.1 C 0 km/h
1668 04-03-2010 21:11:02 1.1 C 2.51 g/m*3 1.1 C 0 km/h
1669 04-03-2010 21:23:01 1.1 C 2.51 g/m*3 1.1 C 0 km/h
1670 04-03-2010 21:35:02 0.8 C 2.56 g/m*3 0.8 C 0 km/h
1671 04-03-2010 21:47:02 0.6 C 2.58 g/m*3 0.6 C 0 km/h
1672 04-03-2010 21:59:02 0.7 C 2.59 g/m*3 0.7 C 0 km/h
1673 04-03-2010 22:11:02 0.9 C 2.68 g/m*3 0.9 C 0 km/h
1674 04-03-2010 22:24:03 0.7 C 2.64 g/m*3 0.7 C 0 km/h
1675 04-03-2010 22:36:03 0.3 C 2.57 g/m*3 0.3 C 0 km/h
Sensor: Nr:Datum:Temp:Abs-Feuchte:Windchill:Wind:
Aussen-T/F 1676 04-03-2010 22:48:03 0.1 C 2.63 g/m*3 0.1 C 0 km/h
1677 04-03-2010 23:00:03 0 C 2.62 g/m*3 0 C 0 km/h
1678 04-03-2010 23:12:03 -0.1 C 2.6 g/m*3 -0.1 C 0 km/h
1679 04-03-2010 23:24:03 -0.2 C 2.53 g/m*3 -0.2 C 0 km/h
1680 04-03-2010 23:36:03 -0.2 C 2.53 g/m*3 -0.2 C 0 km/h
1681 04-03-2010 23:48:03 -0.3 C 2.56 g/m*3 -0.3 C 0 km/h
1682 05-03-2010 00:00:03 -0.4 C 2.5 g/m*3 -0.4 C 0 km/h
1683 05-03-2010 00:12:03 -0.5 C 2.53 g/m*3 -0.5 C 0 km/h
1684 05-03-2010 00:24:03 -0.7 C 2.49 g/m*3 -0.7 C 0 km/h
1685 05-03-2010 00:36:03 -1 C 2.49 g/m*3 -1 C 0 km/h
1686 05-03-2010 00:48:03 -1.1 C 2.47 g/m*3 -1.1 C 0 km/h
1687 05-03-2010 01:00:03 -1.3 C 2.43 g/m*3 -1.3 C 0 km/h
1688 05-03-2010 01:12:03 -1.4 C 2.46 g/m*3 -1.4 C 0 km/h
1689 05-03-2010 01:24:03 -1.6 C 2.43 g/m*3 -1.6 C 0 km/h
1690 05-03-2010 01:36:04 -1.5 C 2.44 g/m*3 -1.5 C 0 km/h
1691 05-03-2010 01:48:04 -1.5 C 2.4 g/m*3 -1.5 C 0 km/h
1692 05-03-2010 02:00:04 -1.6 C 2.38 g/m*3 -1.6 C 0 km/h
1693 05-03-2010 02:12:04 -1.4 C 2.37 g/m*3 -1.4 C 0 km/h
1694 05-03-2010 02:24:04 -1.3 C 2.26 g/m*3 -1.3 C 0 km/h
1695 05-03-2010 02:36:04 -1.5 C 2.18 g/m*3 -1.5 C 0 km/h
1696 05-03-2010 02:48:04 -1.7 C 2.15 g/m*3 -1.7 C 0 km/h
1697 05-03-2010 03:00:04 -1.7 C 2.11 g/m*3 -1.7 C 0 km/h
1698 05-03-2010 03:12:04 -1.9 C 2.04 g/m*3 -1.9 C 0 km/h
1699 05-03-2010 03:24:04 -2 C 2.11 g/m*3 -2 C 0 km/h
1700 05-03-2010 03:36:04 -1.9 C 2.16 g/m*3 -1.9 C 0 km/h
Sensor: Nr:Datum:Temp:Abs-Feuchte:Windchill:Wind:
Aussen-T/F 1701 05-03-2010 03:48:04 -1.9 C 2.16 g/m*3 -1.9 C 0 km/h
1702 05-03-2010 04:00:04 -1.9 C 2.21 g/m*3 -1.9 C 0 km/h
1703 05-03-2010 04:12:04 -2.1 C 2.18 g/m*3 -2.1 C 0 km/h
1704 05-03-2010 04:24:04 -2.3 C 2.19 g/m*3 -2.3 C 0 km/h
1705 05-03-2010 04:36:04 -2.4 C 2.21 g/m*3 -2.4 C 0 km/h
1706 05-03-2010 04:48:04 -2.4 C 2.25 g/m*3 -2.4 C 0 km/h
1707 05-03-2010 05:00:04 -2.5 C 2.28 g/m*3 -2.5 C 0 km/h
1708 05-03-2010 05:12:04 -2.6 C 2.3 g/m*3 -2.6 C 0 km/h
1709 05-03-2010 05:24:04 -2.6 C 2.38 g/m*3 -2.6 C 0 km/h
1710 05-03-2010 05:36:04 -2.8 C 2.43 g/m*3 -2.8 C 0 km/h
1711 05-03-2010 05:48:05 -2.3 C 2.64 g/m*3 -2.3 C 0 km/h
1712 05-03-2010 06:00:05 -1.9 C 2.67 g/m*3 -1.9 C 0 km/h
1713 05-03-2010 06:12:05 -2 C 2.7 g/m*3 -2 C 0 km/h
1714 05-03-2010 06:24:05 -2.4 C 2.62 g/m*3 -2.4 C 0 km/h
1715 05-03-2010 06:36:05 -2.6 C 2.63 g/m*3 -2.6 C 0 km/h
1716 05-03-2010 06:48:05 -2.8 C 2.63 g/m*3 -2.8 C 0 km/h
1717 05-03-2010 07:00:05 -2.9 C 2.65 g/m*3 -2.9 C 0 km/h
1718 05-03-2010 07:12:02 -2.9 C 2.69 g/m*3 -2.9 C 0 km/h
1719 05-03-2010 07:24:03 -2.8 C 2.71 g/m*3 -2.8 C 0 km/h
1720 05-03-2010 07:36:02 -2.7 C 2.77 g/m*3 -2.7 C 0 km/h
1721 05-03-2010 07:48:02 -2.9 C 2.69 g/m*3 -2.9 C 0 km/h
1722 05-03-2010 08:00:02 -2.9 C 2.73 g/m*3 -2.9 C 0 km/h
1723 05-03-2010 08:12:02 -2.8 C 2.75 g/m*3 -2.8 C 0 km/h
1724 05-03-2010 08:24:03 -2.8 C 2.75 g/m*3 -2.8 C 0 km/h
1725 05-03-2010 08:36:02 -2.6 C 2.83 g/m*3 -2.6 C 0 km/h
Sensor: Nr:Datum:Temp:Abs-Feuchte:Windchill:Wind:
Aussen-T/F 1726 05-03-2010 08:48:01 -2.6 C 2.79 g/m*3 -2.6 C 0 km/h
1727 05-03-2010 09:00:01 -2.5 C 2.77 g/m*3 -2.5 C 0 km/h
1728 05-03-2010 09:12:02 -2.3 C 2.72 g/m*3 -2.3 C 0 km/h
1729 05-03-2010 09:24:01 -2 C 2.66 g/m*3 -2 C 0 km/h
1730 05-03-2010 09:36:02 -1.8 C 2.48 g/m*3 -1.8 C 0 km/h
1731 05-03-2010 09:48:02 -1.4 C 2.46 g/m*3 -1.4 C 0 km/h
1732 05-03-2010 10:00:02 -1 C 2.49 g/m*3 -1 C 0 km/h
1733 05-03-2010 10:12:02 -0.5 C 2.53 g/m*3 -0.5 C 0 km/h
1734 05-03-2010 10:24:02 0.4 C 2.54 g/m*3 0.4 C 0 km/h
1735 05-03-2010 10:36:02 0.9 C 2.06 g/m*3 0.9 C 0 km/h
1736 05-03-2010 10:48:02 1.4 C 1.92 g/m*3 1.4 C 0 km/h
1737 05-03-2010 11:00:02 1.8 C 1.97 g/m*3 1.8 C 0 km/h
1738 05-03-2010 11:12:02 2.1 C 2.01 g/m*3 2.1 C 0 km/h
1739 05-03-2010 11:24:02 2.1 C 1.96 g/m*3 2.1 C 0 km/h
1740 05-03-2010 11:36:02 2.2 C 1.52 g/m*3 2.2 C 0 km/h
1741 05-03-2010 11:48:01 2.5 C 1.21 g/m*3 2.5 C 0 km/h
1742 05-03-2010 12:00:01 3.5 C 1.54 g/m*3 3.5 C 0 km/h
1743 05-03-2010 12:12:02 2.5 C 1.21 g/m*3 2.5 C 0 km/h
1744 05-03-2010 12:24:01 2.7 C 1.34 g/m*3 2.7 C 0 km/h
1745 05-03-2010 12:36:01 3 C 1.19 g/m*3 3 C 0 km/h
1746 05-03-2010 12:48:01 3.6 C 1.24 g/m*3 3.6 C 0 km/h
1747 05-03-2010 13:00:01 3.5 C 1.23 g/m*3 3.5 C 0 km/h
1748 05-03-2010 13:12:02 3.3 C 1.21 g/m*3 3.3 C 0 km/h
1749 05-03-2010 13:24:01 3.5 C 1.23 g/m*3 3.5 C 0 km/h
1750 05-03-2010 13:36:01 3.2 C 1.21 g/m*3 3.2 C 0 km/h
Sensor: Nr:Datum:Temp:Abs-Feuchte:Windchill:Wind:
Aussen-T/F 1751 05-03-2010 13:48:01 3.2 C 1.51 g/m*3 3.2 C 0 km/h
1752 05-03-2010 14:00:01 3.1 C 1.26 g/m*3 3.1 C 0 km/h
1753 05-03-2010 14:12:02 3.6 C 1.3 g/m*3 3.6 C 0 km/h
1754 05-03-2010 14:24:02 4 C 1.27 g/m*3 4 C 0 km/h
1755 05-03-2010 14:36:01 3.7 C 1.25 g/m*3 3.7 C 0 km/h
1756 05-03-2010 14:48:01 4 C 1.34 g/m*3 4 C 0 km/h
1757 05-03-2010 15:00:01 4.5 C 1.38 g/m*3 4.5 C 0 km/h
1758 05-03-2010 15:12:02 5.2 C 1.58 g/m*3 5.2 C 0 km/h
1759 05-03-2010 15:24:02 4.8 C 1.41 g/m*3 4.8 C 0 km/h
1760 05-03-2010 15:36:01 5.5 C 1.47 g/m*3 5.5 C 0 km/h
1761 05-03-2010 15:48:01 6 C 1.45 g/m*3 6 C 0 km/h
1762 05-03-2010 16:00:01 5.4 C 1.4 g/m*3 5.4 C 0 km/h
1763 05-03-2010 16:12:01 4.9 C 1.35 g/m*3 4.9 C 0 km/h
1764 05-03-2010 16:24:02 4.8 C 1.34 g/m*3 4.8 C 0 km/h
1765 05-03-2010 16:36:01 4.5 C 1.38 g/m*3 4.5 C 0 km/h
1766 05-03-2010 16:48:02 4.4 C 1.63 g/m*3 4.4 C 0 km/h
1767 05-03-2010 17:00:02 4.4 C 1.7 g/m*3 4.4 C 0 km/h
1768 05-03-2010 17:12:01 4.3 C 1.49 g/m*3 4.3 C 0 km/h
1769 05-03-2010 17:24:02 4.2 C 1.48 g/m*3 4.2 C 0 km/h
1770 05-03-2010 17:36:01 4 C 1.46 g/m*3 4 C 0 km/h
1771 05-03-2010 17:48:03 3.8 C 1.44 g/m*3 3.8 C 0 km/h
1772 05-03-2010 18:00:03 3.8 C 1.57 g/m*3 3.8 C 0 km/h
1773 05-03-2010 18:12:02 3.5 C 1.66 g/m*3 3.5 C 0 km/h
1774 05-03-2010 18:24:02 3.3 C 1.82 g/m*3 3.3 C 0 km/h
1775 05-03-2010 18:36:02 3.2 C 1.99 g/m*3 3.2 C 0 km/h
Sensor: Nr:Datum:Temp:Abs-Feuchte:Windchill:Wind:
Aussen-T/F 1776 05-03-2010 18:48:02 3.1 C 2.21 g/m*3 3.1 C 0 km/h
1777 05-03-2010 19:00:02 3 C 2.32 g/m*3 3 C 0 km/h
1778 05-03-2010 19:12:02 2.9 C 2.42 g/m*3 2.9 C 0 km/h
1779 05-03-2010 19:24:02 2.8 C 2.46 g/m*3 2.8 C 0 km/h
1780 05-03-2010 19:36:02 2.7 C 2.56 g/m*3 2.7 C 0 km/h
1781 05-03-2010 19:48:02 2.6 C 2.66 g/m*3 2.6 C 0 km/h
1782 05-03-2010 20:00:02 2.5 C 2.7 g/m*3 2.5 C 0 km/h
1783 05-03-2010 20:12:01 2.5 C 2.76 g/m*3 2.5 C 0 km/h
1784 05-03-2010 20:24:02 2.4 C 2.8 g/m*3 2.4 C 0 km/h
1785 05-03-2010 20:36:01 2.5 C 2.82 g/m*3 2.5 C 0 km/h
1786 05-03-2010 20:48:02 2.5 C 2.82 g/m*3 2.5 C 0 km/h
1787 05-03-2010 21:00:02 2.5 C 2.82 g/m*3 2.5 C 0 km/h
1788 05-03-2010 21:12:01 2.4 C 2.91 g/m*3 2.4 C 0 km/h
1789 05-03-2010 21:24:01 2.1 C 3.13 g/m*3 2.1 C 0 km/h
1790 05-03-2010 21:36:02 1.8 C 3.4 g/m*3 1.8 C 0 km/h
1791 05-03-2010 21:48:02 1.5 C 3.54 g/m*3 1.5 C 0 km/h
1792 05-03-2010 22:00:03 1.3 C 3.71 g/m*3 1.3 C 0 km/h
1793 05-03-2010 22:12:02 1 C 3.84 g/m*3 1 C 0 km/h
1794 05-03-2010 22:24:02 0.9 C 3.97 g/m*3 0.9 C 0 km/h
1795 05-03-2010 22:36:02 0.8 C 4.04 g/m*3 0.8 C 0 km/h
1796 05-03-2010 22:48:02 0.8 C 4.1 g/m*3 0.8 C 0 km/h
1797 05-03-2010 23:00:02 0.7 C 4.12 g/m*3 0.7 C 0 km/h
1798 05-03-2010 23:12:01 0.5 C 4.16 g/m*3 0.5 C 0 km/h
1799 05-03-2010 23:24:02 0.6 C 4.24 g/m*3 0.6 C 0 km/h
1800 05-03-2010 23:36:02 0.7 C 4.27 g/m*3 0.7 C 0 km/h
Sensor: Nr:Datum:Temp:Abs-Feuchte:Windchill:Wind:
Aussen-T/F 1801 05-03-2010 23:48:02 0.7 C 4.27 g/m*3 0.7 C 0 km/h
1802 06-03-2010 00:00:03 0.9 C 4.28 g/m*3 0.9 C 0 km/h
1803 06-03-2010 00:12:02 0.7 C 4.17 g/m*3 0.7 C 0 km/h
1804 06-03-2010 00:25:05 0.6 C 4.24 g/m*3 0.6 C 0 km/h
1805 06-03-2010 00:37:05 0.7 C 4.27 g/m*3 0.7 C 0 km/h
1806 06-03-2010 00:49:05 0.6 C 4.29 g/m*3 0.6 C 0 km/h
1807 06-03-2010 01:01:05 0.6 C 4.34 g/m*3 0.6 C 0 km/h
1808 06-03-2010 01:13:05 0.5 C 4.36 g/m*3 0.5 C 0 km/h
1809 06-03-2010 01:25:05 0.5 C 4.41 g/m*3 0.5 C 0 km/h
1810 06-03-2010 01:37:06 0.4 C 4.43 g/m*3 0.4 C 0 km/h
1811 06-03-2010 01:49:06 0.5 C 4.46 g/m*3 0.5 C 0 km/h
1812 06-03-2010 02:01:06 0.6 C 4.54 g/m*3 0.6 C 0 km/h
1813 06-03-2010 02:13:06 0.6 C 4.6 g/m*3 0.6 C 0 km/h
1814 06-03-2010 02:25:06 0.6 C 4.6 g/m*3 0.6 C 0 km/h
1815 06-03-2010 02:37:06 0.6 C 4.6 g/m*3 0.6 C 0 km/h
1816 06-03-2010 02:49:06 0.5 C 4.61 g/m*3 0.5 C 0 km/h
1817 06-03-2010 03:01:06 0.4 C 4.58 g/m*3 0.4 C 0 km/h
1818 06-03-2010 03:13:06 0.3 C 4.55 g/m*3 0.3 C 0 km/h
1819 06-03-2010 03:25:06 0.2 C 4.57 g/m*3 0.2 C 0 km/h
1820 06-03-2010 03:37:06 0.1 C 4.54 g/m*3 0.1 C 0 km/h
1821 06-03-2010 03:49:06 0 C 4.51 g/m*3 0 C 0 km/h
1822 06-03-2010 04:01:06 0 C 4.51 g/m*3 0 C 0 km/h
1823 06-03-2010 04:13:06 0 C 4.51 g/m*3 0 C 0 km/h
1824 06-03-2010 04:25:06 0 C 4.51 g/m*3 0 C 0 km/h
1825 06-03-2010 04:37:06 0 C 4.55 g/m*3 0 C 0 km/h
Sensor: Nr:Datum:Temp:Abs-Feuchte:Windchill:Wind:
Aussen-T/F 1826 06-03-2010 04:49:06 0 C 4.55 g/m*3 0 C 0 km/h
1827 06-03-2010 05:01:06 0 C 4.55 g/m*3 0 C 0 km/h
1828 06-03-2010 05:13:06 -0.1 C 4.47 g/m*3 -0.1 C 0 km/h
1829 06-03-2010 05:25:06 0 C 4.51 g/m*3 0 C 0 km/h
1830 06-03-2010 05:37:06 0 C 4.51 g/m*3 0 C 0 km/h
1831 06-03-2010 05:49:07 0 C 4.51 g/m*3 0 C 0 km/h
1832 06-03-2010 06:01:07 -0.1 C 4.43 g/m*3 -0.1 C 0 km/h
1833 06-03-2010 06:13:07 -0.2 C 4.4 g/m*3 -0.2 C 0 km/h
1834 06-03-2010 06:25:07 -0.2 C 4.3 g/m*3 -0.2 C 0 km/h
1835 06-03-2010 06:37:07 -0.2 C 4.21 g/m*3 -0.2 C 0 km/h
1836 06-03-2010 06:49:07 -0.1 C 4.14 g/m*3 -0.1 C 0 km/h
1837 06-03-2010 07:01:07 -0.1 C 4.09 g/m*3 -0.1 C 0 km/h
1838 06-03-2010 07:13:07 0 C 4.12 g/m*3 0 C 0 km/h
1839 06-03-2010 07:25:07 0 C 4.17 g/m*3 0 C 0 km/h
1840 06-03-2010 07:37:07 0 C 4.17 g/m*3 0 C 0 km/h
1841 06-03-2010 07:49:01 0 C 4.12 g/m*3 0 C 0 km/h
1842 06-03-2010 08:01:02 0.1 C 4.2 g/m*3 0.1 C 0 km/h
1843 06-03-2010 08:13:02 0.1 C 4.2 g/m*3 0.1 C 0 km/h
1844 06-03-2010 08:25:01 0.2 C 4.22 g/m*3 0.2 C 0 km/h
1845 06-03-2010 08:37:02 0.4 C 4.23 g/m*3 0.4 C 0 km/h
1846 06-03-2010 08:49:01 0.4 C 4.13 g/m*3 0.4 C 0 km/h
1847 06-03-2010 09:01:02 0.4 C 4.03 g/m*3 0.4 C 0 km/h
1848 06-03-2010 09:13:02 0.4 C 4.03 g/m*3 0.4 C 0 km/h
1849 06-03-2010 09:25:02 0.4 C 4.08 g/m*3 0.4 C 0 km/h
1850 06-03-2010 09:37:02 0.3 C 4.06 g/m*3 0.3 C 0 km/h
Sensor: Nr:Datum:Temp:Abs-Feuchte:Windchill:Wind:
Aussen-T/F 1851 06-03-2010 09:49:02 0.4 C 4.03 g/m*3 0.4 C 0 km/h
1852 06-03-2010 10:01:02 0.4 C 3.88 g/m*3 0.4 C 0 km/h
1853 06-03-2010 10:13:02 0.5 C 3.71 g/m*3 0.5 C 0 km/h
1854 06-03-2010 10:25:02 0.5 C 3.71 g/m*3 0.5 C 0 km/h
1855 06-03-2010 10:37:02 0.5 C 3.71 g/m*3 0.5 C 0 km/h
1856 06-03-2010 10:49:01 0.4 C 3.59 g/m*3 0.4 C 0 km/h
1857 06-03-2010 11:01:02 0.5 C 3.66 g/m*3 0.5 C 0 km/h
1858 06-03-2010 11:13:02 0.4 C 3.59 g/m*3 0.4 C 0 km/h
1859 06-03-2010 11:25:01 0.5 C 3.56 g/m*3 0.5 C 0 km/h
1860 06-03-2010 11:37:01 0.4 C 3.39 g/m*3 0.4 C 0 km/h
1861 06-03-2010 11:49:01 0.3 C 3.26 g/m*3 0.3 C 0 km/h
1862 06-03-2010 12:01:02 0.4 C 3.34 g/m*3 0.4 C 0 km/h
1863 06-03-2010 12:13:02 0.5 C 3.26 g/m*3 0.5 C 0 km/h
1864 06-03-2010 12:25:01 0.4 C 3.19 g/m*3 0.4 C 0 km/h
1865 06-03-2010 12:37:02 0.6 C 3.23 g/m*3 0.6 C 0 km/h
1866 06-03-2010 12:49:02 0.7 C 3.36 g/m*3 0.7 C 0 km/h
1867 06-03-2010 13:01:02 0.8 C 3.28 g/m*3 0.8 C 0 km/h
1868 06-03-2010 13:13:02 1.1 C 3.29 g/m*3 1.1 C 0 km/h
1869 06-03-2010 13:25:01 0.9 C 2.94 g/m*3 0.9 C 0 km/h
1870 06-03-2010 13:37:02 0.5 C 3.11 g/m*3 0.5 C 0 km/h
1871 06-03-2010 13:49:02 0.4 C 3.34 g/m*3 0.4 C 0 km/h
1872 06-03-2010 14:01:02 0.2 C 3.19 g/m*3 0.2 C 0 km/h
1873 06-03-2010 14:13:02 0.5 C 3.36 g/m*3 0.5 C 0 km/h
1874 06-03-2010 14:25:02 1 C 3.32 g/m*3 1 C 0 km/h
1875 06-03-2010 14:37:02 1.7 C 3.27 g/m*3 1.7 C 0 km/h
Sensor: Nr:Datum:Temp:Abs-Feuchte:Windchill:Wind:
Aussen-T/F 1876 06-03-2010 14:49:02 1.4 C 3.04 g/m*3 1.4 C 0 km/h
1877 06-03-2010 15:01:02 1.3 C 3.02 g/m*3 1.3 C 0 km/h
1878 06-03-2010 15:13:02 1.3 C 2.97 g/m*3 1.3 C 0 km/h
1879 06-03-2010 15:25:02 1.5 C 2.79 g/m*3 1.5 C 0 km/h
1880 06-03-2010 15:37:02 1.3 C 2.7 g/m*3 1.3 C 0 km/h
1881 06-03-2010 15:49:02 1.4 C 2.67 g/m*3 1.4 C 0 km/h
1882 06-03-2010 16:01:02 1.4 C 2.72 g/m*3 1.4 C 0 km/h
1883 06-03-2010 16:13:02 0.9 C 2.63 g/m*3 0.9 C 0 km/h
1884 06-03-2010 16:25:02 1 C 2.6 g/m*3 1 C 0 km/h
1885 06-03-2010 16:37:02 0.8 C 2.66 g/m*3 0.8 C 0 km/h
1886 06-03-2010 16:49:02 0.5 C 2.71 g/m*3 0.5 C 0 km/h
1887 06-03-2010 17:01:02 0.2 C 2.55 g/m*3 0.2 C 0 km/h
1888 06-03-2010 17:13:02 -0.2 C 2.25 g/m*3 -0.2 C 0 km/h
1889 06-03-2010 17:25:02 -0.5 C 2.15 g/m*3 -0.5 C 0 km/h
1890 06-03-2010 17:37:02 -0.6 C 2.14 g/m*3 -0.6 C 0 km/h
1891 06-03-2010 17:49:01 -1 C 2.08 g/m*3 -1 C 0 km/h
1892 06-03-2010 18:01:02 -1.4 C 2.02 g/m*3 -1.4 C 0 km/h
1893 06-03-2010 18:13:02 -1.6 C 2.08 g/m*3 -1.6 C 0 km/h
1894 06-03-2010 18:25:02 -1.8 C 2.05 g/m*3 -1.8 C 0 km/h
1895 06-03-2010 18:37:02 -1.9 C 2.08 g/m*3 -1.9 C 0 km/h
1896 06-03-2010 18:49:02 -1.8 C 2.05 g/m*3 -1.8 C 0 km/h
1897 06-03-2010 19:01:02 -2 C 2.11 g/m*3 -2 C 0 km/h
1898 06-03-2010 19:13:02 -2.3 C 2.1 g/m*3 -2.3 C 0 km/h
1899 06-03-2010 19:25:02 -2.5 C 2.2 g/m*3 -2.5 C 0 km/h
1900 06-03-2010 19:37:01 -2.6 C 2.22 g/m*3 -2.6 C 0 km/h
Sensor: Nr:Datum:Temp:Abs-Feuchte:Windchill:Wind:
Aussen-T/F 1901 06-03-2010 19:49:02 -2.7 C 2.21 g/m*3 -2.7 C 0 km/h
1902 06-03-2010 20:01:01 -2.7 C 2.21 g/m*3 -2.7 C 0 km/h
1903 06-03-2010 20:13:01 -2.8 C 2.15 g/m*3 -2.8 C 0 km/h
1904 06-03-2010 20:25:02 -3.1 C 2.15 g/m*3 -3.1 C 0 km/h
1905 06-03-2010 20:37:01 -3.4 C 2.25 g/m*3 -3.4 C 0 km/h
1906 06-03-2010 20:49:02 -3.6 C 2.3 g/m*3 -3.6 C 0 km/h
1907 06-03-2010 21:01:01 -3.8 C 2.3 g/m*3 -3.8 C 0 km/h
1908 06-03-2010 21:13:01 -4 C 2.34 g/m*3 -4 C 0 km/h
1909 06-03-2010 21:25:02 -4 C 2.38 g/m*3 -4 C 0 km/h
1910 06-03-2010 21:37:01 -4.2 C 2.38 g/m*3 -4.2 C 0 km/h
1911 06-03-2010 21:50:03 -4.2 C 2.42 g/m*3 -4.2 C 0 km/h
1912 06-03-2010 22:02:03 -4.3 C 2.43 g/m*3 -4.3 C 0 km/h
1913 06-03-2010 22:14:03 -4.2 C 2.49 g/m*3 -4.2 C 0 km/h
1914 06-03-2010 22:26:03 -4 C 2.52 g/m*3 -4 C 0 km/h
1915 06-03-2010 22:38:03 -3.7 C 2.58 g/m*3 -3.7 C 0 km/h
1916 06-03-2010 22:50:03 -3.4 C 2.6 g/m*3 -3.4 C 0 km/h
1917 06-03-2010 23:02:03 -3.4 C 2.6 g/m*3 -3.4 C 0 km/h
1918 06-03-2010 23:14:03 -3.3 C 2.58 g/m*3 -3.3 C 0 km/h
1919 06-03-2010 23:26:03 -3.3 C 2.58 g/m*3 -3.3 C 0 km/h
1920 06-03-2010 23:38:03 -3.5 C 2.5 g/m*3 -3.5 C 0 km/h
1921 06-03-2010 23:50:03 -3.8 C 2.45 g/m*3 -3.8 C 0 km/h
1922 07-03-2010 00:02:03 -4.2 C 2.42 g/m*3 -4.2 C 0 km/h
1923 07-03-2010 00:14:03 -4.4 C 2.42 g/m*3 -4.4 C 0 km/h
1924 07-03-2010 00:26:04 -4.5 C 2.4 g/m*3 -4.5 C 0 km/h
1925 07-03-2010 00:38:04 -4.7 C 2.4 g/m*3 -4.7 C 0 km/h
Sensor: Nr:Datum:Temp:Abs-Feuchte:Windchill:Wind:
Aussen-T/F 1926 07-03-2010 00:50:04 -4.6 C 2.42 g/m*3 -4.6 C 0 km/h
1927 07-03-2010 01:02:04 -4.4 C 2.49 g/m*3 -4.4 C 0 km/h
1928 07-03-2010 01:14:04 -4.3 C 2.47 g/m*3 -4.3 C 0 km/h
1929 07-03-2010 01:26:04 -4.4 C 2.45 g/m*3 -4.4 C 0 km/h
1930 07-03-2010 01:38:04 -4.5 C 2.44 g/m*3 -4.5 C 0 km/h
1931 07-03-2010 01:50:04 -4.4 C 2.45 g/m*3 -4.4 C 0 km/h
1932 07-03-2010 02:02:04 -4.4 C 2.49 g/m*3 -4.4 C 0 km/h
1933 07-03-2010 02:14:04 -4.4 C 2.49 g/m*3 -4.4 C 0 km/h
1934 07-03-2010 02:26:04 -4.6 C 2.45 g/m*3 -4.6 C 0 km/h
1935 07-03-2010 02:38:04 -4.4 C 2.52 g/m*3 -4.4 C 0 km/h
1936 07-03-2010 02:50:04 -4.5 C 2.51 g/m*3 -4.5 C 0 km/h
1937 07-03-2010 03:02:04 -4.6 C 2.49 g/m*3 -4.6 C 0 km/h
1938 07-03-2010 03:14:04 -4.8 C 2.45 g/m*3 -4.8 C 0 km/h
1939 07-03-2010 03:26:04 -5 C 2.45 g/m*3 -5 C 0 km/h
1940 07-03-2010 03:38:04 -5.1 C 2.43 g/m*3 -5.1 C 0 km/h
1941 07-03-2010 03:50:04 -5.2 C 2.45 g/m*3 -5.2 C 0 km/h
1942 07-03-2010 04:02:04 -5.3 C 2.43 g/m*3 -5.3 C 0 km/h
1943 07-03-2010 04:14:04 -5.1 C 2.5 g/m*3 -5.1 C 0 km/h
1944 07-03-2010 04:26:05 -4.9 C 2.54 g/m*3 -4.9 C 0 km/h
1945 07-03-2010 04:38:05 -4.6 C 2.63 g/m*3 -4.6 C 0 km/h
1946 07-03-2010 04:50:05 -4.6 C 2.63 g/m*3 -4.6 C 0 km/h
1947 07-03-2010 05:02:05 -4.8 C 2.56 g/m*3 -4.8 C 0 km/h
1948 07-03-2010 05:14:05 -5 C 2.52 g/m*3 -5 C 0 km/h
1949 07-03-2010 05:26:05 -5.2 C 2.48 g/m*3 -5.2 C 0 km/h
1950 07-03-2010 05:38:05 -5.3 C 2.47 g/m*3 -5.3 C 0 km/h
Sensor: Nr:Datum:Temp:Abs-Feuchte:Windchill:Wind:
Aussen-T/F 1951 07-03-2010 05:50:05 -5.3 C 2.47 g/m*3 -5.3 C 0 km/h
1952 07-03-2010 06:02:05 -5.6 C 2.41 g/m*3 -5.6 C 0 km/h
1953 07-03-2010 06:14:05 -5.8 C 2.38 g/m*3 -5.8 C 0 km/h
1954 07-03-2010 06:26:05 -5.8 C 2.41 g/m*3 -5.8 C 0 km/h
1955 07-03-2010 06:38:05 -5.9 C 2.42 g/m*3 -5.9 C 0 km/h
1956 07-03-2010 06:50:05 -6 C 2.41 g/m*3 -6 C 0 km/h
1957 07-03-2010 07:02:05 -6 C 2.44 g/m*3 -6 C 0 km/h
1958 07-03-2010 07:14:05 -6.1 C 2.42 g/m*3 -6.1 C 0 km/h
1959 07-03-2010 07:26:05 -6.1 C 2.42 g/m*3 -6.1 C 0 km/h
1960 07-03-2010 07:38:05 -6.4 C 2.34 g/m*3 -6.4 C 0 km/h
1961 07-03-2010 07:50:05 -6.5 C 2.32 g/m*3 -6.5 C 0 km/h
1962 07-03-2010 08:02:05 -6.5 C 2.32 g/m*3 -6.5 C 0 km/h
1963 07-03-2010 08:14:05 -6.4 C 2.34 g/m*3 -6.4 C 0 km/h
1964 07-03-2010 08:26:02 -6.2 C 2.4 g/m*3 -6.2 C 0 km/h
1965 07-03-2010 08:38:03 -5.7 C 2.49 g/m*3 -5.7 C 0 km/h
1966 07-03-2010 08:50:02 -5.3 C 2.57 g/m*3 -5.3 C 0 km/h
1967 07-03-2010 09:02:02 -5 C 2.59 g/m*3 -5 C 0 km/h
1968 07-03-2010 09:14:02 -4.6 C 2.63 g/m*3 -4.6 C 0 km/h
1969 07-03-2010 09:26:02 -4.1 C 2.65 g/m*3 -4.1 C 0 km/h
1970 07-03-2010 09:38:02 -3.5 C 2.65 g/m*3 -3.5 C 0 km/h
1971 07-03-2010 09:50:02 -3 C 2.59 g/m*3 -3 C 0 km/h
1972 07-03-2010 10:02:01 -2 C 2.66 g/m*3 -2 C 0 km/h
1973 07-03-2010 10:14:01 -1.4 C 2.51 g/m*3 -1.4 C 0 km/h
1974 07-03-2010 10:26:02 -1 C 2.4 g/m*3 -1 C 0 km/h
1975 07-03-2010 10:38:02 -1 C 2.35 g/m*3 -1 C 0 km/h
Sensor: Nr:Datum:Temp:Abs-Feuchte:Windchill:Wind:
Aussen-T/F 1976 07-03-2010 10:50:02 -1 C 2.31 g/m*3 -1 C 0 km/h
1977 07-03-2010 11:02:03 -0.7 C 2.35 g/m*3 -0.7 C 0 km/h
1978 07-03-2010 11:14:03 -0.5 C 2.29 g/m*3 -0.5 C 0 km/h
1979 07-03-2010 11:26:02 -0.5 C 2.2 g/m*3 -0.5 C 0 km/h
1980 07-03-2010 11:38:02 -0.4 C 2.22 g/m*3 -0.4 C 0 km/h
1981 07-03-2010 11:50:02 -0.1 C 2.26 g/m*3 -0.1 C 0 km/h
1982 07-03-2010 12:02:02 -0.2 C 2.15 g/m*3 -0.2 C 0 km/h
1983 07-03-2010 12:14:02 0 C 2.23 g/m*3 0 C 0 km/h
1984 07-03-2010 12:26:01 0.4 C 2.29 g/m*3 0.4 C 0 km/h
1985 07-03-2010 12:38:02 0.9 C 2.32 g/m*3 0.9 C 0 km/h
1986 07-03-2010 12:50:02 1.5 C 2.31 g/m*3 1.5 C 0 km/h
1987 07-03-2010 13:02:02 1.6 C 2.16 g/m*3 1.6 C 0 km/h
1988 07-03-2010 13:14:02 1.8 C 2.14 g/m*3 1.8 C 0 km/h
1989 07-03-2010 13:26:02 2.2 C 2.14 g/m*3 2.2 C 0 km/h
1990 07-03-2010 13:38:02 2.5 C 2.07 g/m*3 2.5 C 0 km/h
1991 07-03-2010 13:50:02 2.9 C 2.07 g/m*3 2.9 C 0 km/h
1992 07-03-2010 14:02:03 3 C 1.96 g/m*3 3 C 0 km/h
1993 07-03-2010 14:14:03 3.3 C 2.06 g/m*3 3.3 C 0 km/h
1994 07-03-2010 14:26:02 3.7 C 1.99 g/m*3 3.7 C 0 km/h
1995 07-03-2010 14:38:02 3.7 C 1.74 g/m*3 3.7 C 0 km/h
1996 07-03-2010 14:50:01 3.9 C 1.77 g/m*3 3.9 C 0 km/h
1997 07-03-2010 15:02:02 4.2 C 1.68 g/m*3 4.2 C 0 km/h
1998 07-03-2010 15:14:02 4.5 C 1.31 g/m*3 4.5 C 0 km/h
1999 07-03-2010 15:26:01 4.6 C 1.32 g/m*3 4.6 C 0 km/h
2000 07-03-2010 15:38:02 4.7 C 1.33 g/m*3 4.7 C 0 km/h
Sensor: Nr:Datum:Temp:Abs-Feuchte:Windchill:Wind:
Aussen-T/F 2001 07-03-2010 15:50:02 5 C 1.36 g/m*3 5 C 0 km/h
2002 07-03-2010 16:02:02 5.1 C 1.37 g/m*3 5.1 C 0 km/h
2003 07-03-2010 16:14:02 5.3 C 1.39 g/m*3 5.3 C 0 km/h
2004 07-03-2010 16:26:01 5.8 C 1.43 g/m*3 5.8 C 0 km/h
2005 07-03-2010 16:38:02 5.9 C 1.44 g/m*3 5.9 C 0 km/h
2006 07-03-2010 16:50:02 5.7 C 1.42 g/m*3 5.7 C 0 km/h
2007 07-03-2010 17:02:02 5.8 C 1.43 g/m*3 5.8 C 0 km/h
2008 07-03-2010 17:14:02 5.1 C 1.37 g/m*3 5.1 C 0 km/h
2009 07-03-2010 17:26:02 4.9 C 1.35 g/m*3 4.9 C 0 km/h
2010 07-03-2010 17:38:02 4.7 C 1.33 g/m*3 4.7 C 0 km/h
2011 07-03-2010 17:50:02 4.1 C 1.28 g/m*3 4.1 C 0 km/h
2012 07-03-2010 18:02:02 3.2 C 1.21 g/m*3 3.2 C 0 km/h
2013 07-03-2010 18:14:03 2.2 C 1.63 g/m*3 2.2 C 0 km/h
2014 07-03-2010 18:26:02 1.4 C 1.71 g/m*3 1.4 C 0 km/h
2015 07-03-2010 18:38:02 0.6 C 1.77 g/m*3 0.6 C 0 km/h
2016 07-03-2010 18:50:02 0.1 C 1.76 g/m*3 0.1 C 0 km/h
2017 07-03-2010 19:02:02 -0.2 C 1.77 g/m*3 -0.2 C 0 km/h
2018 07-03-2010 19:14:02 -0.4 C 1.74 g/m*3 -0.4 C 0 km/h
2019 07-03-2010 19:26:02 -0.6 C 1.81 g/m*3 -0.6 C 0 km/h
2020 07-03-2010 19:38:02 -0.7 C 1.85 g/m*3 -0.7 C 0 km/h
2021 07-03-2010 19:50:01 -1.2 C 1.87 g/m*3 -1.2 C 0 km/h
2022 07-03-2010 20:02:01 -1.4 C 1.89 g/m*3 -1.4 C 0 km/h
2023 07-03-2010 20:14:02 -1.5 C 1.83 g/m*3 -1.5 C 0 km/h
2024 07-03-2010 20:26:01 -1.7 C 1.89 g/m*3 -1.7 C 0 km/h
2025 07-03-2010 20:38:01 -1.9 C 1.95 g/m*3 -1.9 C 0 km/h
Sensor: Nr:Datum:Temp:Abs-Feuchte:Windchill:Wind:
Aussen-T/F 2026 07-03-2010 20:50:01 -2 C 2.02 g/m*3 -2 C 0 km/h
2027 07-03-2010 21:02:01 -2.3 C 2.02 g/m*3 -2.3 C 0 km/h
2028 07-03-2010 21:14:01 -2.4 C 2.01 g/m*3 -2.4 C 0 km/h
2029 07-03-2010 21:26:01 -2.5 C 1.95 g/m*3 -2.5 C 0 km/h
2030 07-03-2010 21:38:01 -2.5 C 1.83 g/m*3 -2.5 C 0 km/h
2031 07-03-2010 21:51:03 -2.5 C 1.87 g/m*3 -2.5 C 0 km/h
2032 07-03-2010 22:03:03 -2.6 C 1.82 g/m*3 -2.6 C 0 km/h
2033 07-03-2010 22:15:03 -2.8 C 1.79 g/m*3 -2.8 C 0 km/h
2034 07-03-2010 22:27:03 -2.8 C 1.83 g/m*3 -2.8 C 0 km/h
2035 07-03-2010 22:39:03 -3 C 1.85 g/m*3 -3 C 0 km/h
2036 07-03-2010 22:51:03 -3.2 C 1.9 g/m*3 -3.2 C 0 km/h
2037 07-03-2010 23:03:04 -3.3 C 1.96 g/m*3 -3.3 C 0 km/h
2038 07-03-2010 23:15:04 -3.4 C 1.95 g/m*3 -3.4 C 0 km/h
2039 07-03-2010 23:27:04 -3.4 C 1.91 g/m*3 -3.4 C 0 km/h
2040 07-03-2010 23:39:04 -3.4 C 1.83 g/m*3 -3.4 C 0 km/h
2041 07-03-2010 23:51:04 -3.7 C 1.76 g/m*3 -3.7 C 0 km/h
2042 08-03-2010 00:03:04 -3.9 C 1.81 g/m*3 -3.9 C 0 km/h
2043 08-03-2010 00:15:04 -4 C 1.83 g/m*3 -4 C 0 km/h
2044 08-03-2010 00:27:04 -4.2 C 1.77 g/m*3 -4.2 C 0 km/h
2045 08-03-2010 00:39:04 -4.3 C 1.79 g/m*3 -4.3 C 0 km/h
2046 08-03-2010 00:51:04 -4.5 C 1.8 g/m*3 -4.5 C 0 km/h
2047 08-03-2010 01:03:04 -4.5 C 1.76 g/m*3 -4.5 C 0 km/h
2048 08-03-2010 01:15:04 -4.6 C 1.75 g/m*3 -4.6 C 0 km/h
2049 08-03-2010 01:27:04 -4.6 C 1.75 g/m*3 -4.6 C 0 km/h
2050 08-03-2010 01:39:04 -4.7 C 1.7 g/m*3 -4.7 C 0 km/h
Sensor: Nr:Datum:Temp:Abs-Feuchte:Windchill:Wind:
Aussen-T/F 2051 08-03-2010 01:51:04 -4.8 C 1.73 g/m*3 -4.8 C 0 km/h
2052 08-03-2010 02:03:04 -5 C 1.7 g/m*3 -5 C 0 km/h
2053 08-03-2010 02:15:04 -4.9 C 1.68 g/m*3 -4.9 C 0 km/h
2054 08-03-2010 02:27:04 -5 C 1.6 g/m*3 -5 C 0 km/h
2055 08-03-2010 02:39:04 -4.7 C 1.53 g/m*3 -4.7 C 0 km/h
2056 08-03-2010 02:51:04 -5 C 1.63 g/m*3 -5 C 0 km/h
2057 08-03-2010 03:03:04 -5.3 C 1.7 g/m*3 -5.3 C 0 km/h
2058 08-03-2010 03:15:05 -5.8 C 1.67 g/m*3 -5.8 C 0 km/h
2059 08-03-2010 03:27:05 -5.9 C 1.72 g/m*3 -5.9 C 0 km/h
2060 08-03-2010 03:39:05 -5.8 C 1.74 g/m*3 -5.8 C 0 km/h
2061 08-03-2010 03:51:05 -6 C 1.71 g/m*3 -6 C 0 km/h
2062 08-03-2010 04:03:05 -6.1 C 1.73 g/m*3 -6.1 C 0 km/h
2063 08-03-2010 04:15:05 -6.1 C 1.73 g/m*3 -6.1 C 0 km/h
2064 08-03-2010 04:27:05 -6.4 C 1.72 g/m*3 -6.4 C 0 km/h
2065 08-03-2010 04:39:05 -6.4 C 1.75 g/m*3 -6.4 C 0 km/h
2066 08-03-2010 04:51:05 -6.6 C 1.73 g/m*3 -6.6 C 0 km/h
2067 08-03-2010 05:03:05 -6.6 C 1.73 g/m*3 -6.6 C 0 km/h
2068 08-03-2010 05:15:05 -6.8 C 1.73 g/m*3 -6.8 C 0 km/h
2069 08-03-2010 05:27:05 -6.9 C 1.75 g/m*3 -6.9 C 0 km/h
2070 08-03-2010 05:39:05 -7.1 C 1.72 g/m*3 -7.1 C 0 km/h
2071 08-03-2010 05:51:05 -7.2 C 1.74 g/m*3 -7.2 C 0 km/h
2072 08-03-2010 06:03:05 -7.3 C 1.76 g/m*3 -7.3 C 0 km/h
2073 08-03-2010 06:15:05 -7.3 C 1.76 g/m*3 -7.3 C 0 km/h
2074 08-03-2010 06:27:05 -7.3 C 1.76 g/m*3 -7.3 C 0 km/h
2075 08-03-2010 06:39:05 -7.2 C 1.83 g/m*3 -7.2 C 0 km/h
Sensor: Nr:Datum:Temp:Abs-Feuchte:Windchill:Wind:
Aussen-T/F 2076 08-03-2010 06:51:05 -7.4 C 1.83 g/m*3 -7.4 C 0 km/h
2077 08-03-2010 07:03:02 -7.4 C 1.83 g/m*3 -7.4 C 0 km/h
2078 08-03-2010 07:15:03 -7.5 C 1.82 g/m*3 -7.5 C 0 km/h
2079 08-03-2010 07:27:03 -7.3 C 1.9 g/m*3 -7.3 C 0 km/h
2080 08-03-2010 07:39:03 -7 C 1.97 g/m*3 -7 C 0 km/h
2081 08-03-2010 07:51:01 -6.5 C 2.05 g/m*3 -6.5 C 0 km/h
2082 08-03-2010 08:03:01 -6.1 C 2.11 g/m*3 -6.1 C 0 km/h
2083 08-03-2010 08:15:01 -5.8 C 2.09 g/m*3 -5.8 C 0 km/h
2084 08-03-2010 08:27:01 -5.3 C 2.1 g/m*3 -5.3 C 0 km/h
2085 08-03-2010 08:39:02 -5 C 2.08 g/m*3 -5 C 0 km/h
2086 08-03-2010 08:51:02 -4.5 C 2.12 g/m*3 -4.5 C 0 km/h
2087 08-03-2010 09:03:02 -4.2 C 2.02 g/m*3 -4.2 C 0 km/h
2088 08-03-2010 09:15:02 -3.7 C 2.06 g/m*3 -3.7 C 0 km/h
2089 08-03-2010 09:27:02 -3.1 C 2.15 g/m*3 -3.1 C 0 km/h
2090 08-03-2010 09:39:02 -2.5 C 2.12 g/m*3 -2.5 C 0 km/h
2091 08-03-2010 09:51:02 -2.1 C 2.01 g/m*3 -2.1 C 0 km/h
2092 08-03-2010 10:03:01 -1.7 C 2.02 g/m*3 -1.7 C 0 km/h
2093 08-03-2010 10:15:01 -1.3 C 1.99 g/m*3 -1.3 C 0 km/h
2094 08-03-2010 10:27:01 -0.6 C 1.95 g/m*3 -0.6 C 0 km/h
2095 08-03-2010 10:39:02 0 C 1.94 g/m*3 0 C 0 km/h
2096 08-03-2010 10:51:02 0.4 C 1.74 g/m*3 0.4 C 0 km/h
2097 08-03-2010 11:03:01 0.7 C 1.78 g/m*3 0.7 C 0 km/h
2098 08-03-2010 11:15:02 1.1 C 1.83 g/m*3 1.1 C 0 km/h
2099 08-03-2010 11:27:02 1.3 C 1.7 g/m*3 1.3 C 0 km/h
2100 08-03-2010 11:39:02 1.7 C 1.85 g/m*3 1.7 C 0 km/h
Sensor: Nr:Datum:Temp:Abs-Feuchte:Windchill:Wind:
Aussen-T/F 2101 08-03-2010 11:51:01 2.4 C 1.77 g/m*3 2.4 C 0 km/h
2102 08-03-2010 12:03:02 2.6 C 1.62 g/m*3 2.6 C 0 km/h
2103 08-03-2010 12:15:01 3.1 C 1.68 g/m*3 3.1 C 0 km/h
2104 08-03-2010 12:27:01 3.2 C 1.63 g/m*3 3.2 C 0 km/h
2105 08-03-2010 12:39:02 3.4 C 1.53 g/m*3 3.4 C 0 km/h
2106 08-03-2010 12:51:02 3.2 C 1.39 g/m*3 3.2 C 0 km/h
2107 08-03-2010 13:03:02 3.2 C 1.51 g/m*3 3.2 C 0 km/h
2108 08-03-2010 13:15:02 3.6 C 1.61 g/m*3 3.6 C 0 km/h
2109 08-03-2010 13:27:02 4.5 C 1.31 g/m*3 4.5 C 0 km/h
2110 08-03-2010 13:39:02 4.9 C 1.35 g/m*3 4.9 C 0 km/h
2111 08-03-2010 13:51:02 4.9 C 1.35 g/m*3 4.9 C 0 km/h
2112 08-03-2010 14:03:02 4.8 C 1.34 g/m*3 4.8 C 0 km/h
2113 08-03-2010 14:15:02 3.9 C 1.26 g/m*3 3.9 C 0 km/h
2114 08-03-2010 14:27:02 3.5 C 1.41 g/m*3 3.5 C 0 km/h
2115 08-03-2010 14:39:02 3.8 C 1.44 g/m*3 3.8 C 0 km/h
2116 08-03-2010 14:51:02 4.6 C 1.32 g/m*3 4.6 C 0 km/h
2117 08-03-2010 15:03:01 4.3 C 1.3 g/m*3 4.3 C 0 km/h
2118 08-03-2010 15:15:02 4.9 C 1.35 g/m*3 4.9 C 0 km/h
2119 08-03-2010 15:27:02 5.1 C 1.37 g/m*3 5.1 C 0 km/h
2120 08-03-2010 15:39:01 6.4 C 1.49 g/m*3 6.4 C 0 km/h
2121 08-03-2010 15:51:02 6.7 C 1.52 g/m*3 6.7 C 0 km/h
2122 08-03-2010 16:03:01 6.5 C 1.5 g/m*3 6.5 C 0 km/h
2123 08-03-2010 16:15:02 6.6 C 1.51 g/m*3 6.6 C 0 km/h
2124 08-03-2010 16:27:02 6.9 C 1.54 g/m*3 6.9 C 0 km/h
2125 08-03-2010 16:39:01 6.7 C 1.52 g/m*3 6.7 C 0 km/h
Sensor: Nr:Datum:Temp:Abs-Feuchte:Windchill:Wind:
Aussen-T/F 2126 08-03-2010 16:51:02 6.4 C 1.49 g/m*3 6.4 C 0 km/h
2127 08-03-2010 17:03:02 6.2 C 1.47 g/m*3 6.2 C 0 km/h
2128 08-03-2010 17:15:02 6.3 C 1.48 g/m*3 6.3 C 0 km/h
2129 08-03-2010 17:27:02 5.8 C 1.43 g/m*3 5.8 C 0 km/h
2130 08-03-2010 17:39:02 4.6 C 1.32 g/m*3 4.6 C 0 km/h
2131 08-03-2010 17:51:02 4.2 C 1.29 g/m*3 4.2 C 0 km/h
2132 08-03-2010 18:03:02 3.7 C 1.56 g/m*3 3.7 C 0 km/h
2133 08-03-2010 18:15:01 2.9 C 1.71 g/m*3 2.9 C 0 km/h
2134 08-03-2010 18:27:01 1.8 C 1.75 g/m*3 1.8 C 0 km/h
2135 08-03-2010 18:39:02 1.4 C 1.87 g/m*3 1.4 C 0 km/h
2136 08-03-2010 18:51:02 0.7 C 2.03 g/m*3 0.7 C 0 km/h
2137 08-03-2010 19:03:02 0.4 C 2.04 g/m*3 0.4 C 0 km/h
2138 08-03-2010 19:15:02 0.1 C 2.1 g/m*3 0.1 C 0 km/h
2139 08-03-2010 19:27:02 -0.2 C 2.15 g/m*3 -0.2 C 0 km/h
2140 08-03-2010 19:39:02 -0.3 C 2.04 g/m*3 -0.3 C 0 km/h
2141 08-03-2010 19:51:01 -0.3 C 1.99 g/m*3 -0.3 C 0 km/h
2142 08-03-2010 20:03:02 -0.6 C 2 g/m*3 -0.6 C 0 km/h
2143 08-03-2010 20:15:01 -0.7 C 2.08 g/m*3 -0.7 C 0 km/h
2144 08-03-2010 20:27:01 -1.1 C 2.11 g/m*3 -1.1 C 0 km/h
2145 08-03-2010 20:39:01 -1.2 C 2.1 g/m*3 -1.2 C 0 km/h
2146 08-03-2010 20:51:01 -1.4 C 2.15 g/m*3 -1.4 C 0 km/h
2147 08-03-2010 21:03:02 -1.4 C 2.15 g/m*3 -1.4 C 0 km/h
2148 08-03-2010 21:15:01 -1.5 C 2.18 g/m*3 -1.5 C 0 km/h
2149 08-03-2010 21:27:01 -1.3 C 2.26 g/m*3 -1.3 C 0 km/h
2150 08-03-2010 21:40:03 -1.3 C 2.26 g/m*3 -1.3 C 0 km/h
Sensor: Nr:Datum:Temp:Abs-Feuchte:Windchill:Wind:
Aussen-T/F 2151 08-03-2010 21:52:03 -1.2 C 2.32 g/m*3 -1.2 C 0 km/h
2152 08-03-2010 22:04:03 -1.2 C 2.36 g/m*3 -1.2 C 0 km/h
2153 08-03-2010 22:16:03 -1.2 C 2.32 g/m*3 -1.2 C 0 km/h
2154 08-03-2010 22:28:03 -1.1 C 2.24 g/m*3 -1.1 C 0 km/h
2155 08-03-2010 22:40:03 -0.9 C 2.09 g/m*3 -0.9 C 0 km/h
2156 08-03-2010 22:52:03 -1 C 2.08 g/m*3 -1 C 0 km/h
2157 08-03-2010 23:04:03 -1.4 C 2.07 g/m*3 -1.4 C 0 km/h
2158 08-03-2010 23:16:04 -1.8 C 2.05 g/m*3 -1.8 C 0 km/h
2159 08-03-2010 23:28:04 -1.9 C 2.04 g/m*3 -1.9 C 0 km/h
2160 08-03-2010 23:40:04 -1.9 C 2.08 g/m*3 -1.9 C 0 km/h
2161 08-03-2010 23:52:04 -2 C 2.11 g/m*3 -2 C 0 km/h
2162 09-03-2010 00:04:04 -2.1 C 2.13 g/m*3 -2.1 C 0 km/h
2163 09-03-2010 00:16:04 -2.2 C 2.12 g/m*3 -2.2 C 0 km/h
2164 09-03-2010 00:28:04 -2.4 C 2.09 g/m*3 -2.4 C 0 km/h
2165 09-03-2010 00:40:04 -2.4 C 2.09 g/m*3 -2.4 C 0 km/h
2166 09-03-2010 00:52:04 -2.6 C 2.14 g/m*3 -2.6 C 0 km/h
2167 09-03-2010 01:04:04 -2.8 C 2.15 g/m*3 -2.8 C 0 km/h
2168 09-03-2010 01:16:04 -3 C 2.2 g/m*3 -3 C 0 km/h
2169 09-03-2010 01:28:04 -3.1 C 2.22 g/m*3 -3.1 C 0 km/h
2170 09-03-2010 01:40:04 -3.2 C 2.21 g/m*3 -3.2 C 0 km/h
2171 09-03-2010 01:52:04 -3.3 C 2.19 g/m*3 -3.3 C 0 km/h
2172 09-03-2010 02:04:04 -3.4 C 2.18 g/m*3 -3.4 C 0 km/h
2173 09-03-2010 02:16:05 -3.4 C 2.21 g/m*3 -3.4 C 0 km/h
2174 09-03-2010 02:28:05 -3.3 C 2.23 g/m*3 -3.3 C 0 km/h
2175 09-03-2010 02:40:05 -3.3 C 2.23 g/m*3 -3.3 C 0 km/h
Sensor: Nr:Datum:Temp:Abs-Feuchte:Windchill:Wind:
Aussen-T/F 2176 09-03-2010 02:52:05 -3.5 C 2.24 g/m*3 -3.5 C 0 km/h
2177 09-03-2010 03:04:05 -3.7 C 2.24 g/m*3 -3.7 C 0 km/h
2178 09-03-2010 03:16:05 -3.8 C 2.23 g/m*3 -3.8 C 0 km/h
2179 09-03-2010 03:28:05 -3.9 C 2.25 g/m*3 -3.9 C 0 km/h
2180 09-03-2010 03:40:05 -4 C 2.27 g/m*3 -4 C 0 km/h
2181 09-03-2010 03:52:05 -4.1 C 2.29 g/m*3 -4.1 C 0 km/h
2182 09-03-2010 04:04:05 -4.2 C 2.27 g/m*3 -4.2 C 0 km/h
2183 09-03-2010 04:16:05 -4.3 C 2.29 g/m*3 -4.3 C 0 km/h
2184 09-03-2010 04:28:05 -4.5 C 2.22 g/m*3 -4.5 C 0 km/h
2185 09-03-2010 04:40:05 -4.5 C 2.19 g/m*3 -4.5 C 0 km/h
2186 09-03-2010 04:52:05 -4.5 C 2.19 g/m*3 -4.5 C 0 km/h
2187 09-03-2010 05:04:05 -4.6 C 2.17 g/m*3 -4.6 C 0 km/h
2188 09-03-2010 05:16:05 -4.7 C 2.16 g/m*3 -4.7 C 0 km/h
2189 09-03-2010 05:28:05 -4.8 C 2.14 g/m*3 -4.8 C 0 km/h
2190 09-03-2010 05:40:05 -4.9 C 2.16 g/m*3 -4.9 C 0 km/h
2191 09-03-2010 05:52:05 -4.9 C 2.16 g/m*3 -4.9 C 0 km/h
2192 09-03-2010 06:04:05 -4.8 C 2.14 g/m*3 -4.8 C 0 km/h
2193 09-03-2010 06:16:05 -4.8 C 2.14 g/m*3 -4.8 C 0 km/h
2194 09-03-2010 06:28:05 -4.9 C 2.13 g/m*3 -4.9 C 0 km/h
2195 09-03-2010 06:40:06 -5.2 C 2.08 g/m*3 -5.2 C 0 km/h
2196 09-03-2010 06:52:06 -5.3 C 2.07 g/m*3 -5.3 C 0 km/h
2197 09-03-2010 07:04:03 -5.6 C 2.05 g/m*3 -5.6 C 0 km/h
2198 09-03-2010 07:16:03 -5.6 C 2.09 g/m*3 -5.6 C 0 km/h
2199 09-03-2010 07:28:03 -5.4 C 2.15 g/m*3 -5.4 C 0 km/h
2200 09-03-2010 07:40:03 -5.3 C 2.17 g/m*3 -5.3 C 0 km/h
Sensor: Nr:Datum:Temp:Abs-Feuchte:Windchill:Wind:
Aussen-T/F 2201 09-03-2010 07:52:02 -5.3 C 2.17 g/m*3 -5.3 C 0 km/h
2202 09-03-2010 08:04:02 -5.2 C 2.18 g/m*3 -5.2 C 0 km/h
2203 09-03-2010 08:16:02 -5 C 2.18 g/m*3 -5 C 0 km/h
2204 09-03-2010 08:28:02 -4.9 C 2.16 g/m*3 -4.9 C 0 km/h
2205 09-03-2010 08:40:02 -4.8 C 2.14 g/m*3 -4.8 C 0 km/h
2206 09-03-2010 08:52:02 -4.7 C 2.16 g/m*3 -4.7 C 0 km/h
2207 09-03-2010 09:04:01 -4.5 C 2.19 g/m*3 -4.5 C 0 km/h
2208 09-03-2010 09:16:02 -4.2 C 2.16 g/m*3 -4.2 C 0 km/h
2209 09-03-2010 09:28:02 -3.9 C 2.17 g/m*3 -3.9 C 0 km/h
2210 09-03-2010 09:40:01 -3.4 C 2.18 g/m*3 -3.4 C 0 km/h
2211 09-03-2010 09:52:02 -2.7 C 2.13 g/m*3 -2.7 C 0 km/h
2212 09-03-2010 10:04:01 -2.4 C 2.09 g/m*3 -2.4 C 0 km/h
2213 09-03-2010 10:16:01 -1.9 C 2.08 g/m*3 -1.9 C 0 km/h
2214 09-03-2010 10:28:01 -1.2 C 2.05 g/m*3 -1.2 C 0 km/h
2215 09-03-2010 10:40:02 -0.7 C 1.94 g/m*3 -0.7 C 0 km/h
2216 09-03-2010 10:52:02 -0.4 C 1.84 g/m*3 -0.4 C 0 km/h
2217 09-03-2010 11:04:01 -0.1 C 1.73 g/m*3 -0.1 C 0 km/h
2218 09-03-2010 11:16:02 0.3 C 1.63 g/m*3 0.3 C 0 km/h
2219 09-03-2010 11:28:02 0.5 C 1.5 g/m*3 0.5 C 0 km/h
2220 09-03-2010 11:40:02 0.5 C 1.3 g/m*3 0.5 C 0 km/h
2221 09-03-2010 11:52:01 0.8 C 1.28 g/m*3 0.8 C 0 km/h
2222 09-03-2010 12:04:02 1 C 1.09 g/m*3 1 C 0 km/h
2223 09-03-2010 12:16:01 1.3 C 1.06 g/m*3 1.3 C 0 km/h
2224 09-03-2010 12:28:01 1.6 C 1.14 g/m*3 1.6 C 0 km/h
2225 09-03-2010 12:40:02 1.8 C 1.1 g/m*3 1.8 C 0 km/h
Sensor: Nr:Datum:Temp:Abs-Feuchte:Windchill:Wind:
Aussen-T/F 2226 09-03-2010 12:52:02 2.2 C 1.13 g/m*3 2.2 C 0 km/h
2227 09-03-2010 13:04:02 2.2 C 1.13 g/m*3 2.2 C 0 km/h
2228 09-03-2010 13:16:01 2.9 C 1.18 g/m*3 2.9 C 0 km/h
2229 09-03-2010 13:28:01 3.2 C 1.21 g/m*3 3.2 C 0 km/h
2230 09-03-2010 13:40:02 3.5 C 1.23 g/m*3 3.5 C 0 km/h
2231 09-03-2010 13:52:02 3.7 C 1.25 g/m*3 3.7 C 0 km/h
2232 09-03-2010 14:04:02 3.9 C 1.26 g/m*3 3.9 C 0 km/h
2233 09-03-2010 14:16:02 4.5 C 1.31 g/m*3 4.5 C 0 km/h
2234 09-03-2010 14:28:02 4.9 C 1.35 g/m*3 4.9 C 0 km/h
2235 09-03-2010 14:40:02 5.3 C 1.39 g/m*3 5.3 C 0 km/h
2236 09-03-2010 14:52:02 5.7 C 1.42 g/m*3 5.7 C 0 km/h
2237 09-03-2010 15:04:02 5.7 C 1.42 g/m*3 5.7 C 0 km/h
2238 09-03-2010 15:16:02 5.7 C 1.42 g/m*3 5.7 C 0 km/h
2239 09-03-2010 15:28:02 5.7 C 1.42 g/m*3 5.7 C 0 km/h
2240 09-03-2010 15:40:02 6.2 C 1.47 g/m*3 6.2 C 0 km/h
2241 09-03-2010 15:52:02 6 C 1.45 g/m*3 6 C 0 km/h
2242 09-03-2010 16:04:02 5.9 C 1.44 g/m*3 5.9 C 0 km/h
2243 09-03-2010 16:16:02 5.8 C 1.43 g/m*3 5.8 C 0 km/h
2244 09-03-2010 16:28:02 6.3 C 1.48 g/m*3 6.3 C 0 km/h
2245 09-03-2010 16:40:02 6.3 C 1.48 g/m*3 6.3 C 0 km/h
2246 09-03-2010 16:52:02 6.2 C 1.47 g/m*3 6.2 C 0 km/h
2247 09-03-2010 17:04:02 5.5 C 1.4 g/m*3 5.5 C 0 km/h
2248 09-03-2010 17:16:03 5.2 C 1.38 g/m*3 5.2 C 0 km/h
2249 09-03-2010 17:28:03 4.8 C 1.34 g/m*3 4.8 C 0 km/h
2250 09-03-2010 17:40:02 4.4 C 1.31 g/m*3 4.4 C 0 km/h
Sensor: Nr:Datum:Temp:Abs-Feuchte:Windchill:Wind:
Aussen-T/F 2251 09-03-2010 17:52:02 4 C 1.27 g/m*3 4 C 0 km/h
2252 09-03-2010 18:04:02 3.2 C 1.21 g/m*3 3.2 C 0 km/h
2253 09-03-2010 18:16:02 2.4 C 1.14 g/m*3 2.4 C 0 km/h
2254 09-03-2010 18:28:02 1.5 C 1.07 g/m*3 1.5 C 0 km/h
2255 09-03-2010 18:40:02 1.1 C 1.05 g/m*3 1.1 C 0 km/h
2256 09-03-2010 18:52:02 0.7 C 1.02 g/m*3 0.7 C 0 km/h
2257 09-03-2010 19:04:02 0.5 C 1 g/m*3 0.5 C 0 km/h
2258 09-03-2010 19:16:02 0.2 C 0.98 g/m*3 0.2 C 0 km/h
2259 09-03-2010 19:28:02 -0.1 C 0.96 g/m*3 -0.1 C 0 km/h
2260 09-03-2010 19:40:02 -0.3 C 0.95 g/m*3 -0.3 C 0 km/h
2261 09-03-2010 19:52:02 -0.6 C 0.93 g/m*3 -0.6 C 0 km/h
2262 09-03-2010 20:04:01 -0.6 C 0.93 g/m*3 -0.6 C 0 km/h
2263 09-03-2010 20:16:02 -0.8 C 0.92 g/m*3 -0.8 C 0 km/h
2264 09-03-2010 20:28:03 -1.2 C 0.89 g/m*3 -1.2 C 0 km/h
2265 09-03-2010 20:40:01 -1.4 C 0.88 g/m*3 -1.4 C 0 km/h
2266 09-03-2010 20:52:02 -1.5 C 0.92 g/m*3 -1.5 C 0 km/h
2267 09-03-2010 21:04:01 -1.7 C 0.9 g/m*3 -1.7 C 0 km/h
2268 09-03-2010 21:16:02 -1.7 C 0.86 g/m*3 -1.7 C 0 km/h
2269 09-03-2010 21:28:02 -1.9 C 0.85 g/m*3 -1.9 C 0 km/h
2270 09-03-2010 21:40:02 -1.8 C 0.85 g/m*3 -1.8 C 0 km/h
2271 09-03-2010 21:52:02 -1.9 C 0.85 g/m*3 -1.9 C 0 km/h
2272 09-03-2010 22:04:02 -1.8 C 0.85 g/m*3 -1.8 C 0 km/h
2273 09-03-2010 22:16:02 -1.7 C 0.86 g/m*3 -1.7 C 0 km/h
2274 09-03-2010 22:28:02 -1.7 C 0.86 g/m*3 -1.7 C 0 km/h
2275 09-03-2010 22:40:02 -1.8 C 0.85 g/m*3 -1.8 C 0 km/h
Sensor: Nr:Datum:Temp:Abs-Feuchte:Windchill:Wind:
Aussen-T/F 2276 09-03-2010 22:52:02 -1.8 C 0.9 g/m*3 -1.8 C 0 km/h
2277 09-03-2010 23:05:02 -2 C 1.1 g/m*3 -2 C 0 km/h
2278 09-03-2010 23:17:02 -2.3 C 1.24 g/m*3 -2.3 C 0 km/h
2279 09-03-2010 23:29:02 -2.4 C 1.27 g/m*3 -2.4 C 0 km/h
2280 09-03-2010 23:41:02 -2.5 C 1.34 g/m*3 -2.5 C 0 km/h
2281 09-03-2010 23:53:02 -2.6 C 1.41 g/m*3 -2.6 C 0 km/h
2282 10-03-2010 00:05:02 -2.7 C 1.48 g/m*3 -2.7 C 0 km/h
2283 10-03-2010 00:17:02 -2.8 C 1.55 g/m*3 -2.8 C 0 km/h
2284 10-03-2010 00:29:02 -2.7 C 1.56 g/m*3 -2.7 C 0 km/h
2285 10-03-2010 00:41:02 -2.6 C 1.58 g/m*3 -2.6 C 0 km/h
2286 10-03-2010 00:53:02 -2.7 C 1.6 g/m*3 -2.7 C 0 km/h
2287 10-03-2010 01:05:03 -3 C 1.65 g/m*3 -3 C 0 km/h
2288 10-03-2010 01:17:03 -3.1 C 1.68 g/m*3 -3.1 C 0 km/h
2289 10-03-2010 01:29:03 -3.2 C 1.7 g/m*3 -3.2 C 0 km/h
2290 10-03-2010 01:41:03 -3 C 1.73 g/m*3 -3 C 0 km/h
2291 10-03-2010 01:53:03 -3.4 C 1.72 g/m*3 -3.4 C 0 km/h
2292 10-03-2010 02:05:03 -3.4 C 1.76 g/m*3 -3.4 C 0 km/h
2293 10-03-2010 02:17:03 -3.5 C 1.74 g/m*3 -3.5 C 0 km/h
2294 10-03-2010 02:29:03 -3.6 C 1.77 g/m*3 -3.6 C 0 km/h
2295 10-03-2010 02:41:03 -3.8 C 1.78 g/m*3 -3.8 C 0 km/h
2296 10-03-2010 02:53:03 -3.8 C 1.78 g/m*3 -3.8 C 0 km/h
2297 10-03-2010 03:05:03 -3.8 C 1.78 g/m*3 -3.8 C 0 km/h
2298 10-03-2010 03:17:03 -3.8 C 1.82 g/m*3 -3.8 C 0 km/h
2299 10-03-2010 03:29:03 -3.9 C 1.81 g/m*3 -3.9 C 0 km/h
2300 10-03-2010 03:41:03 -3.9 C 1.77 g/m*3 -3.9 C 0 km/h
Sensor: Nr:Datum:Temp:Abs-Feuchte:Windchill:Wind:
Aussen-T/F 2301 10-03-2010 03:53:03 -3.9 C 1.77 g/m*3 -3.9 C 0 km/h
2302 10-03-2010 04:05:03 -3.6 C 1.81 g/m*3 -3.6 C 0 km/h
2303 10-03-2010 04:17:03 -3.5 C 1.78 g/m*3 -3.5 C 0 km/h
2304 10-03-2010 04:29:03 -3.5 C 1.74 g/m*3 -3.5 C 0 km/h
2305 10-03-2010 04:41:03 -3.5 C 1.74 g/m*3 -3.5 C 0 km/h
2306 10-03-2010 04:53:03 -3.5 C 1.71 g/m*3 -3.5 C 0 km/h
2307 10-03-2010 05:05:03 -3.6 C 1.69 g/m*3 -3.6 C 0 km/h
2308 10-03-2010 05:17:03 -3.5 C 1.71 g/m*3 -3.5 C 0 km/h
2309 10-03-2010 05:29:04 -3.5 C 1.71 g/m*3 -3.5 C 0 km/h
2310 10-03-2010 05:41:04 -3.5 C 1.71 g/m*3 -3.5 C 0 km/h
2311 10-03-2010 05:53:04 -3.4 C 1.68 g/m*3 -3.4 C 0 km/h
2312 10-03-2010 06:05:04 -3.6 C 1.66 g/m*3 -3.6 C 0 km/h
2313 10-03-2010 06:17:04 -3.6 C 1.69 g/m*3 -3.6 C 0 km/h
2314 10-03-2010 06:29:04 -3.9 C 1.69 g/m*3 -3.9 C 0 km/h
2315 10-03-2010 06:41:04 -3.8 C 1.67 g/m*3 -3.8 C 0 km/h
2316 10-03-2010 06:53:04 -3.7 C 1.68 g/m*3 -3.7 C 0 km/h
2317 10-03-2010 07:05:02 -3.7 C 1.68 g/m*3 -3.7 C 0 km/h
2318 10-03-2010 07:17:02 -3.6 C 1.69 g/m*3 -3.6 C 0 km/h
2319 10-03-2010 07:29:02 -3.6 C 1.69 g/m*3 -3.6 C 0 km/h
2320 10-03-2010 07:41:02 -3.4 C 1.72 g/m*3 -3.4 C 0 km/h
2321 10-03-2010 07:53:02 -3 C 1.69 g/m*3 -3 C 0 km/h
2322 10-03-2010 08:05:02 -2.7 C 1.69 g/m*3 -2.7 C 0 km/h
2323 10-03-2010 08:17:02 -2.5 C 1.67 g/m*3 -2.5 C 0 km/h
2324 10-03-2010 08:29:02 -2.1 C 1.67 g/m*3 -2.1 C 0 km/h
2325 10-03-2010 08:41:02 -1.8 C 1.62 g/m*3 -1.8 C 0 km/h
Sensor: Nr:Datum:Temp:Abs-Feuchte:Windchill:Wind:
Aussen-T/F 2326 10-03-2010 08:53:02 -1.3 C 1.51 g/m*3 -1.3 C 0 km/h
2327 10-03-2010 09:05:02 -1 C 1.4 g/m*3 -1 C 0 km/h
2328 10-03-2010 09:17:02 -0.8 C 1.38 g/m*3 -0.8 C 0 km/h
2329 10-03-2010 09:29:02 -0.4 C 1.23 g/m*3 -0.4 C 0 km/h
2330 10-03-2010 09:41:01 -0.1 C 1.2 g/m*3 -0.1 C 0 km/h
2331 10-03-2010 09:53:01 0.5 C 1 g/m*3 0.5 C 0 km/h
2332 10-03-2010 10:05:01 1.1 C 1.05 g/m*3 1.1 C 0 km/h
2333 10-03-2010 10:17:02 1.4 C 1.07 g/m*3 1.4 C 0 km/h
2334 10-03-2010 10:29:02 1.8 C 1.1 g/m*3 1.8 C 0 km/h
2335 10-03-2010 10:41:01 2.3 C 1.13 g/m*3 2.3 C 0 km/h
2336 10-03-2010 10:53:02 2.8 C 1.17 g/m*3 2.8 C 0 km/h
2337 10-03-2010 11:05:01 3.3 C 1.21 g/m*3 3.3 C 0 km/h
2338 10-03-2010 11:17:02 3.6 C 1.24 g/m*3 3.6 C 0 km/h
2339 10-03-2010 11:29:02 3.9 C 1.26 g/m*3 3.9 C 0 km/h
2340 10-03-2010 11:41:01 4.1 C 1.28 g/m*3 4.1 C 0 km/h
2341 10-03-2010 11:53:02 4.3 C 1.62 g/m*3 4.3 C 0 km/h
2342 10-03-2010 12:05:02 4.6 C 1.52 g/m*3 4.6 C 0 km/h
2343 10-03-2010 12:17:02 5.1 C 1.57 g/m*3 5.1 C 0 km/h
2344 10-03-2010 12:29:02 5.7 C 1.49 g/m*3 5.7 C 0 km/h
2345 10-03-2010 12:41:01 6.1 C 1.46 g/m*3 6.1 C 0 km/h
2346 10-03-2010 12:53:02 6.5 C 1.5 g/m*3 6.5 C 0 km/h
2347 10-03-2010 13:05:01 6.6 C 1.51 g/m*3 6.6 C 0 km/h
2348 10-03-2010 13:17:01 7 C 1.55 g/m*3 7 C 0 km/h
2349 10-03-2010 13:29:01 7.4 C 1.59 g/m*3 7.4 C 0 km/h
2350 10-03-2010 13:41:02 7.6 C 1.61 g/m*3 7.6 C 0 km/h
Sensor: Nr:Datum:Temp:Abs-Feuchte:Windchill:Wind:
Aussen-T/F 2351 10-03-2010 13:53:02 8 C 1.65 g/m*3 8 C 0 km/h
2352 10-03-2010 14:05:02 8.2 C 1.67 g/m*3 8.2 C 0 km/h
2353 10-03-2010 14:17:02 8.2 C 1.67 g/m*3 8.2 C 0 km/h
2354 10-03-2010 14:29:02 8.3 C 1.69 g/m*3 8.3 C 0 km/h
2355 10-03-2010 14:41:02 8.5 C 1.71 g/m*3 8.5 C 0 km/h
2356 10-03-2010 14:53:02 8.2 C 1.67 g/m*3 8.2 C 0 km/h
2357 10-03-2010 15:05:03 8.7 C 1.73 g/m*3 8.7 C 0 km/h
2358 10-03-2010 15:17:02 9.3 C 1.8 g/m*3 9.3 C 0 km/h
2359 10-03-2010 15:29:02 8.7 C 1.73 g/m*3 8.7 C 0 km/h
2360 10-03-2010 15:41:02 8.4 C 1.7 g/m*3 8.4 C 0 km/h
2361 10-03-2010 15:53:01 8.8 C 1.74 g/m*3 8.8 C 0 km/h
2362 10-03-2010 16:05:02 8.7 C 1.73 g/m*3 8.7 C 0 km/h
2363 10-03-2010 16:17:01 8.3 C 1.69 g/m*3 8.3 C 0 km/h
2364 10-03-2010 16:29:01 7.8 C 1.63 g/m*3 7.8 C 0 km/h
2365 10-03-2010 16:41:01 7.4 C 1.59 g/m*3 7.4 C 0 km/h
2366 10-03-2010 16:53:01 7.1 C 1.56 g/m*3 7.1 C 0 km/h
2367 10-03-2010 17:05:02 6.8 C 1.53 g/m*3 6.8 C 0 km/h
2368 10-03-2010 17:17:02 6.5 C 1.5 g/m*3 6.5 C 0 km/h
2369 10-03-2010 17:29:02 6.2 C 1.47 g/m*3 6.2 C 0 km/h
2370 10-03-2010 17:41:01 6.1 C 1.46 g/m*3 6.1 C 0 km/h
2371 10-03-2010 17:53:01 5.7 C 1.42 g/m*3 5.7 C 0 km/h
2372 10-03-2010 18:05:01 5.4 C 1.4 g/m*3 5.4 C 0 km/h
2373 10-03-2010 18:17:02 5 C 1.36 g/m*3 5 C 0 km/h
2374 10-03-2010 18:29:02 4.4 C 1.5 g/m*3 4.4 C 0 km/h
2375 10-03-2010 18:41:01 4 C 1.78 g/m*3 4 C 0 km/h
Sensor: Nr:Datum:Temp:Abs-Feuchte:Windchill:Wind:
Aussen-T/F 2376 10-03-2010 18:53:02 3.7 C 1.93 g/m*3 3.7 C 0 km/h
2377 10-03-2010 19:05:01 3.7 C 1.81 g/m*3 3.7 C 0 km/h
2378 10-03-2010 19:17:02 3.5 C 1.72 g/m*3 3.5 C 0 km/h
2379 10-03-2010 19:29:02 3.3 C 1.7 g/m*3 3.3 C 0 km/h
2380 10-03-2010 19:41:01 2.9 C 1.89 g/m*3 2.9 C 0 km/h
2381 10-03-2010 19:53:03 2.7 C 1.81 g/m*3 2.7 C 0 km/h
2382 10-03-2010 20:05:02 2.7 C 1.81 g/m*3 2.7 C 0 km/h
2383 10-03-2010 20:17:02 2.5 C 1.78 g/m*3 2.5 C 0 km/h
2384 10-03-2010 20:29:02 2.4 C 1.83 g/m*3 2.4 C 0 km/h
2385 10-03-2010 20:41:02 2.3 C 1.76 g/m*3 2.3 C 0 km/h
2386 10-03-2010 20:53:02 2.2 C 1.8 g/m*3 2.2 C 0 km/h
2387 10-03-2010 21:05:01 2.2 C 1.75 g/m*3 2.2 C 0 km/h
2388 10-03-2010 21:18:02 2.1 C 1.73 g/m*3 2.1 C 0 km/h
2389 10-03-2010 21:30:02 1.9 C 1.93 g/m*3 1.9 C 0 km/h
2390 10-03-2010 21:42:02 1.8 C 1.92 g/m*3 1.8 C 0 km/h
2391 10-03-2010 21:54:02 1.7 C 1.96 g/m*3 1.7 C 0 km/h
2392 10-03-2010 22:06:02 1.5 C 1.99 g/m*3 1.5 C 0 km/h
2393 10-03-2010 22:18:02 1.5 C 1.99 g/m*3 1.5 C 0 km/h
2394 10-03-2010 22:30:02 1.4 C 2.03 g/m*3 1.4 C 0 km/h
2395 10-03-2010 22:42:02 1.4 C 2.03 g/m*3 1.4 C 0 km/h
2396 10-03-2010 22:54:02 1.4 C 2.08 g/m*3 1.4 C 0 km/h
2397 10-03-2010 23:06:02 1.1 C 2.09 g/m*3 1.1 C 0 km/h
2398 10-03-2010 23:18:02 0.8 C 2.15 g/m*3 0.8 C 0 km/h
2399 10-03-2010 23:30:02 0.6 C 2.22 g/m*3 0.6 C 0 km/h
2400 10-03-2010 23:42:02 0.4 C 2.24 g/m*3 0.4 C 0 km/h
Sensor: Nr:Datum:Temp:Abs-Feuchte:Windchill:Wind:
Aussen-T/F 2401 10-03-2010 23:54:02 0.2 C 2.26 g/m*3 0.2 C 0 km/h
2402 11-03-2010 00:06:02 0 C 2.33 g/m*3 0 C 0 km/h
2403 11-03-2010 00:18:02 0 C 2.33 g/m*3 0 C 0 km/h
2404 11-03-2010 00:30:02 -0.2 C 2.29 g/m*3 -0.2 C 0 km/h
2405 11-03-2010 00:42:02 -0.2 C 2.29 g/m*3 -0.2 C 0 km/h
2406 11-03-2010 00:54:02 -0.2 C 2.29 g/m*3 -0.2 C 0 km/h
2407 11-03-2010 01:06:02 -0.3 C 2.28 g/m*3 -0.3 C 0 km/h
2408 11-03-2010 01:18:03 -0.5 C 2.25 g/m*3 -0.5 C 0 km/h
2409 11-03-2010 01:30:03 -0.9 C 2.28 g/m*3 -0.9 C 0 km/h
2410 11-03-2010 01:42:03 -0.9 C 2.37 g/m*3 -0.9 C 0 km/h
2411 11-03-2010 01:54:03 -1.1 C 2.29 g/m*3 -1.1 C 0 km/h
2412 11-03-2010 02:06:03 -1 C 2.31 g/m*3 -1 C 0 km/h
2413 11-03-2010 02:18:03 -1.1 C 2.29 g/m*3 -1.1 C 0 km/h
2414 11-03-2010 02:30:03 -1.3 C 2.3 g/m*3 -1.3 C 0 km/h
2415 11-03-2010 02:42:03 -1.3 C 2.3 g/m*3 -1.3 C 0 km/h
2416 11-03-2010 02:54:03 -1.4 C 2.33 g/m*3 -1.4 C 0 km/h
2417 11-03-2010 03:06:03 -1.5 C 2.31 g/m*3 -1.5 C 0 km/h
2418 11-03-2010 03:18:03 -1.5 C 2.36 g/m*3 -1.5 C 0 km/h
2419 11-03-2010 03:30:03 -1.7 C 2.32 g/m*3 -1.7 C 0 km/h
2420 11-03-2010 03:42:03 -1.8 C 2.31 g/m*3 -1.8 C 0 km/h
2421 11-03-2010 03:54:03 -1.9 C 2.29 g/m*3 -1.9 C 0 km/h
2422 11-03-2010 04:06:03 -2 C 2.32 g/m*3 -2 C 0 km/h
2423 11-03-2010 04:18:03 -2 C 2.32 g/m*3 -2 C 0 km/h
2424 11-03-2010 04:30:03 -2.1 C 2.3 g/m*3 -2.1 C 0 km/h
2425 11-03-2010 04:42:03 -2.2 C 2.29 g/m*3 -2.2 C 0 km/h
Sensor: Nr:Datum:Temp:Abs-Feuchte:Windchill:Wind:
Aussen-T/F 2426 11-03-2010 04:54:03 -2.3 C 2.31 g/m*3 -2.3 C 0 km/h
2427 11-03-2010 05:06:03 -2.6 C 2.26 g/m*3 -2.6 C 0 km/h
2428 11-03-2010 05:18:03 -3 C 2.2 g/m*3 -3 C 0 km/h
2429 11-03-2010 05:30:04 -3 C 2.32 g/m*3 -3 C 0 km/h
2430 11-03-2010 05:42:04 -3 C 2.4 g/m*3 -3 C 0 km/h
2431 11-03-2010 05:54:04 -2.8 C 2.39 g/m*3 -2.8 C 0 km/h
2432 11-03-2010 06:06:04 -2.7 C 2.37 g/m*3 -2.7 C 0 km/h
2433 11-03-2010 06:18:04 -2.8 C 2.35 g/m*3 -2.8 C 0 km/h
2434 11-03-2010 06:30:04 -2.8 C 2.39 g/m*3 -2.8 C 0 km/h
2435 11-03-2010 06:42:04 -2.8 C 2.39 g/m*3 -2.8 C 0 km/h
2436 11-03-2010 06:54:04 -2.8 C 2.43 g/m*3 -2.8 C 0 km/h
2437 11-03-2010 07:06:02 -2.9 C 2.45 g/m*3 -2.9 C 0 km/h
2438 11-03-2010 07:18:01 -3 C 2.44 g/m*3 -3 C 0 km/h
2439 11-03-2010 07:30:01 -3 C 2.47 g/m*3 -3 C 0 km/h
2440 11-03-2010 07:42:02 -2.9 C 2.49 g/m*3 -2.9 C 0 km/h
2441 11-03-2010 07:54:01 -2.7 C 2.53 g/m*3 -2.7 C 0 km/h
2442 11-03-2010 08:06:02 -2.4 C 2.58 g/m*3 -2.4 C 0 km/h
2443 11-03-2010 08:18:02 -2.1 C 2.55 g/m*3 -2.1 C 0 km/h
2444 11-03-2010 08:30:02 -1.8 C 2.52 g/m*3 -1.8 C 0 km/h
2445 11-03-2010 08:42:01 -1.3 C 2.52 g/m*3 -1.3 C 0 km/h
2446 11-03-2010 08:54:02 -0.9 C 2.55 g/m*3 -0.9 C 0 km/h
2447 11-03-2010 09:06:01 -0.7 C 2.54 g/m*3 -0.7 C 0 km/h
2448 11-03-2010 09:18:02 -0.4 C 2.45 g/m*3 -0.4 C 0 km/h
2449 11-03-2010 09:30:03 -0.3 C 2.42 g/m*3 -0.3 C 0 km/h
2450 11-03-2010 09:42:01 -0.2 C 2.39 g/m*3 -0.2 C 0 km/h
Sensor: Nr:Datum:Temp:Abs-Feuchte:Windchill:Wind:
Aussen-T/F 2451 11-03-2010 09:54:02 -0.2 C 2.29 g/m*3 -0.2 C 0 km/h
2452 11-03-2010 10:06:02 0.1 C 2.34 g/m*3 0.1 C 0 km/h
2453 11-03-2010 10:18:02 0.2 C 2.36 g/m*3 0.2 C 0 km/h
2454 11-03-2010 10:30:02 0.2 C 2.31 g/m*3 0.2 C 0 km/h
2455 11-03-2010 10:42:03 0.4 C 2.39 g/m*3 0.4 C 0 km/h
2456 11-03-2010 10:54:02 0.9 C 2.42 g/m*3 0.9 C 0 km/h
2457 11-03-2010 11:06:01 1.1 C 2.35 g/m*3 1.1 C 0 km/h
2458 11-03-2010 11:18:02 1.4 C 2.35 g/m*3 1.4 C 0 km/h
2459 11-03-2010 11:30:02 1.6 C 2.27 g/m*3 1.6 C 0 km/h
2460 11-03-2010 11:42:02 1.9 C 2.26 g/m*3 1.9 C 0 km/h
2461 11-03-2010 11:54:02 2 C 2.17 g/m*3 2 C 0 km/h
2462 11-03-2010 12:06:03 2.2 C 2.2 g/m*3 2.2 C 0 km/h
2463 11-03-2010 12:18:02 2.7 C 2.21 g/m*3 2.7 C 0 km/h
2464 11-03-2010 12:30:02 3.1 C 2.04 g/m*3 3.1 C 0 km/h
2465 11-03-2010 12:42:02 3.6 C 1.98 g/m*3 3.6 C 0 km/h
2466 11-03-2010 12:54:02 4 C 1.91 g/m*3 4 C 0 km/h
2467 11-03-2010 13:06:02 4.5 C 1.84 g/m*3 4.5 C 0 km/h
2468 11-03-2010 13:18:01 4.8 C 1.68 g/m*3 4.8 C 0 km/h
2469 11-03-2010 13:30:01 5.1 C 1.78 g/m*3 5.1 C 0 km/h
2470 11-03-2010 13:42:02 5.9 C 1.87 g/m*3 5.9 C 0 km/h
2471 11-03-2010 13:54:02 5.6 C 1.84 g/m*3 5.6 C 0 km/h
2472 11-03-2010 14:06:02 6.1 C 1.9 g/m*3 6.1 C 0 km/h
2473 11-03-2010 14:18:01 6.5 C 1.95 g/m*3 6.5 C 0 km/h
2474 11-03-2010 14:30:01 6.2 C 2.13 g/m*3 6.2 C 0 km/h
2475 11-03-2010 14:42:02 6.6 C 2.04 g/m*3 6.6 C 0 km/h
Sensor: Nr:Datum:Temp:Abs-Feuchte:Windchill:Wind:
Aussen-T/F 2476 11-03-2010 14:54:02 6.3 C 2.07 g/m*3 6.3 C 0 km/h
2477 11-03-2010 15:06:02 5.7 C 2.35 g/m*3 5.7 C 0 km/h
2478 11-03-2010 15:18:01 5.9 C 2.45 g/m*3 5.9 C 0 km/h
2479 11-03-2010 15:30:01 4.9 C 2.57 g/m*3 4.9 C 0 km/h
2480 11-03-2010 15:42:02 4.6 C 2.65 g/m*3 4.6 C 0 km/h
2481 11-03-2010 15:54:02 4.8 C 2.68 g/m*3 4.8 C 0 km/h
2482 11-03-2010 16:06:02 4.7 C 2.66 g/m*3 4.7 C 0 km/h
2483 11-03-2010 16:18:02 4.8 C 2.68 g/m*3 4.8 C 0 km/h
2484 11-03-2010 16:30:02 4.3 C 2.66 g/m*3 4.3 C 0 km/h
2485 11-03-2010 16:42:02 4.2 C 2.71 g/m*3 4.2 C 0 km/h
2486 11-03-2010 16:54:02 4 C 2.67 g/m*3 4 C 0 km/h
2487 11-03-2010 17:06:02 3.9 C 2.78 g/m*3 3.9 C 0 km/h
2488 11-03-2010 17:18:02 3.6 C 2.79 g/m*3 3.6 C 0 km/h
2489 11-03-2010 17:30:02 3.1 C 2.75 g/m*3 3.1 C 0 km/h
2490 11-03-2010 17:42:04 2.8 C 2.82 g/m*3 2.8 C 0 km/h
2491 11-03-2010 17:54:02 2.2 C 2.76 g/m*3 2.2 C 0 km/h
2492 11-03-2010 18:06:01 2 C 2.78 g/m*3 2 C 0 km/h
2493 11-03-2010 18:18:02 1.6 C 2.87 g/m*3 1.6 C 0 km/h
2494 11-03-2010 18:30:02 1.2 C 2.84 g/m*3 1.2 C 0 km/h
2495 11-03-2010 18:42:02 0.9 C 2.89 g/m*3 0.9 C 0 km/h
2496 11-03-2010 18:54:02 0.7 C 2.9 g/m*3 0.7 C 0 km/h
2497 11-03-2010 19:06:02 0.4 C 2.89 g/m*3 0.4 C 0 km/h
2498 11-03-2010 19:18:02 0.3 C 2.92 g/m*3 0.3 C 0 km/h
2499 11-03-2010 19:30:02 0.3 C 2.97 g/m*3 0.3 C 0 km/h
2500 11-03-2010 19:42:02 0.1 C 2.93 g/m*3 0.1 C 0 km/h
Sensor: Nr:Datum:Temp:Abs-Feuchte:Windchill:Wind:
Aussen-T/F 2501 11-03-2010 19:54:02 0 C 2.91 g/m*3 0 C 0 km/h
2502 11-03-2010 20:06:02 -0.1 C 2.89 g/m*3 -0.1 C 0 km/h
2503 11-03-2010 20:18:02 -0.2 C 2.91 g/m*3 -0.2 C 0 km/h
2504 11-03-2010 20:30:02 -0.4 C 2.92 g/m*3 -0.4 C 0 km/h
2505 11-03-2010 20:42:02 -0.4 C 2.97 g/m*3 -0.4 C 0 km/h
2506 11-03-2010 20:54:01 -0.6 C 2.97 g/m*3 -0.6 C 0 km/h
2507 11-03-2010 21:07:04 -0.8 C 2.93 g/m*3 -0.8 C 0 km/h
2508 11-03-2010 21:19:04 -0.8 C 2.98 g/m*3 -0.8 C 0 km/h
2509 11-03-2010 21:31:04 -0.9 C 2.96 g/m*3 -0.9 C 0 km/h
2510 11-03-2010 21:43:05 -1.1 C 2.96 g/m*3 -1.1 C 0 km/h
2511 11-03-2010 21:55:05 -1.1 C 2.96 g/m*3 -1.1 C 0 km/h
2512 11-03-2010 22:07:05 -1.2 C 3.03 g/m*3 -1.2 C 0 km/h
2513 11-03-2010 22:19:05 -1.3 C 3.01 g/m*3 -1.3 C 0 km/h
2514 11-03-2010 22:31:05 -1.2 C 3.08 g/m*3 -1.2 C 0 km/h
2515 11-03-2010 22:43:05 -1.4 C 3.03 g/m*3 -1.4 C 0 km/h
2516 11-03-2010 22:55:05 -1.5 C 3.06 g/m*3 -1.5 C 0 km/h
2517 11-03-2010 23:07:05 -1.7 C 3.01 g/m*3 -1.7 C 0 km/h
2518 11-03-2010 23:19:05 -1.9 C 2.97 g/m*3 -1.9 C 0 km/h
2519 11-03-2010 23:31:05 -2 C 2.99 g/m*3 -2 C 0 km/h
2520 11-03-2010 23:43:05 -2.2 C 2.95 g/m*3 -2.2 C 0 km/h
2521 11-03-2010 23:55:05 -2.5 C 2.89 g/m*3 -2.5 C 0 km/h
2522 12-03-2010 00:07:05 -2.6 C 2.87 g/m*3 -2.6 C 0 km/h
2523 12-03-2010 00:19:05 -2.6 C 2.87 g/m*3 -2.6 C 0 km/h
2524 12-03-2010 00:31:05 -2.7 C 2.89 g/m*3 -2.7 C 0 km/h
2525 12-03-2010 00:43:05 -2.7 C 2.89 g/m*3 -2.7 C 0 km/h
Sensor: Nr:Datum:Temp:Abs-Feuchte:Windchill:Wind:
Aussen-T/F 2526 12-03-2010 00:55:05 -2.3 C 2.97 g/m*3 -2.3 C 0 km/h
2527 12-03-2010 01:07:05 -1.9 C 3.06 g/m*3 -1.9 C 0 km/h
2528 12-03-2010 01:19:05 -1.6 C 3.08 g/m*3 -1.6 C 0 km/h
2529 12-03-2010 01:31:05 -1.5 C 3.06 g/m*3 -1.5 C 0 km/h
2530 12-03-2010 01:43:05 -1.3 C 3.1 g/m*3 -1.3 C 0 km/h
2531 12-03-2010 01:55:06 -1.4 C 3.03 g/m*3 -1.4 C 0 km/h
2532 12-03-2010 02:07:06 -1.4 C 3.03 g/m*3 -1.4 C 0 km/h
2533 12-03-2010 02:19:06 -1.3 C 3.1 g/m*3 -1.3 C 0 km/h
2534 12-03-2010 02:31:06 -1.3 C 3.1 g/m*3 -1.3 C 0 km/h
2535 12-03-2010 02:43:06 -1.3 C 3.1 g/m*3 -1.3 C 0 km/h
2536 12-03-2010 02:55:06 -1.3 C 3.1 g/m*3 -1.3 C 0 km/h
2537 12-03-2010 03:07:06 -1.2 C 3.12 g/m*3 -1.2 C 0 km/h
2538 12-03-2010 03:19:06 -1.3 C 3.1 g/m*3 -1.3 C 0 km/h
2539 12-03-2010 03:31:06 -1.3 C 3.1 g/m*3 -1.3 C 0 km/h
2540 12-03-2010 03:43:06 -1.3 C 3.14 g/m*3 -1.3 C 0 km/h
2541 12-03-2010 03:55:06 -1.2 C 3.17 g/m*3 -1.2 C 0 km/h
2542 12-03-2010 04:07:06 -1.3 C 3.14 g/m*3 -1.3 C 0 km/h
2543 12-03-2010 04:19:06 -1.3 C 3.14 g/m*3 -1.3 C 0 km/h
2544 12-03-2010 04:31:06 -1.3 C 3.14 g/m*3 -1.3 C 0 km/h
2545 12-03-2010 04:43:06 -1.3 C 3.14 g/m*3 -1.3 C 0 km/h
2546 12-03-2010 04:55:06 -1.3 C 3.14 g/m*3 -1.3 C 0 km/h
2547 12-03-2010 05:07:06 -1.2 C 3.17 g/m*3 -1.2 C 0 km/h
2548 12-03-2010 05:19:06 -1.2 C 3.21 g/m*3 -1.2 C 0 km/h
2549 12-03-2010 05:31:06 -1.2 C 3.21 g/m*3 -1.2 C 0 km/h
2550 12-03-2010 05:43:06 -1.1 C 3.23 g/m*3 -1.1 C 0 km/h
Sensor: Nr:Datum:Temp:Abs-Feuchte:Windchill:Wind:
Aussen-T/F 2551 12-03-2010 05:55:06 -1.1 C 3.23 g/m*3 -1.1 C 0 km/h
2552 12-03-2010 06:07:07 -1.1 C 3.28 g/m*3 -1.1 C 0 km/h
2553 12-03-2010 06:19:07 -1.1 C 3.28 g/m*3 -1.1 C 0 km/h
2554 12-03-2010 06:31:07 -0.9 C 3.32 g/m*3 -0.9 C 0 km/h
2555 12-03-2010 06:43:07 -0.9 C 3.32 g/m*3 -0.9 C 0 km/h
2556 12-03-2010 06:55:07 -0.9 C 3.37 g/m*3 -0.9 C 0 km/h
2557 12-03-2010 07:07:03 -0.9 C 3.41 g/m*3 -0.9 C 0 km/h
2558 12-03-2010 07:19:04 -0.9 C 3.46 g/m*3 -0.9 C 0 km/h
2559 12-03-2010 07:31:03 -0.9 C 3.51 g/m*3 -0.9 C 0 km/h
2560 12-03-2010 07:43:03 -0.9 C 3.55 g/m*3 -0.9 C 0 km/h
2561 12-03-2010 07:55:01 -0.9 C 3.6 g/m*3 -0.9 C 0 km/h
2562 12-03-2010 08:07:02 -0.7 C 3.69 g/m*3 -0.7 C 0 km/h
2563 12-03-2010 08:19:02 -0.7 C 3.69 g/m*3 -0.7 C 0 km/h
2564 12-03-2010 08:31:01 -0.5 C 3.74 g/m*3 -0.5 C 0 km/h
2565 12-03-2010 08:43:01 -0.4 C 3.77 g/m*3 -0.4 C 0 km/h
2566 12-03-2010 08:55:03 -0.4 C 3.82 g/m*3 -0.4 C 0 km/h
2567 12-03-2010 09:07:02 -0.3 C 3.89 g/m*3 -0.3 C 0 km/h
2568 12-03-2010 09:19:02 -0.2 C 3.92 g/m*3 -0.2 C 0 km/h
2569 12-03-2010 09:31:03 0 C 4.02 g/m*3 0 C 0 km/h
2570 12-03-2010 09:43:03 0.1 C 4.05 g/m*3 0.1 C 0 km/h
2571 12-03-2010 09:55:02 0.3 C 4.06 g/m*3 0.3 C 0 km/h
2572 12-03-2010 10:07:01 0.4 C 4.08 g/m*3 0.4 C 0 km/h
2573 12-03-2010 10:19:02 0.7 C 4.12 g/m*3 0.7 C 0 km/h
2574 12-03-2010 10:31:02 0.9 C 4.12 g/m*3 0.9 C 0 km/h
2575 12-03-2010 10:43:02 1.3 C 4.13 g/m*3 1.3 C 0 km/h
Sensor: Nr:Datum:Temp:Abs-Feuchte:Windchill:Wind:
Aussen-T/F 2576 12-03-2010 10:55:02 1.5 C 4.14 g/m*3 1.5 C 0 km/h
2577 12-03-2010 11:07:03 1.8 C 4.11 g/m*3 1.8 C 0 km/h
2578 12-03-2010 11:19:02 2.1 C 4.08 g/m*3 2.1 C 0 km/h
2579 12-03-2010 11:31:02 2.2 C 4.06 g/m*3 2.2 C 0 km/h
2580 12-03-2010 11:43:03 2.6 C 4.17 g/m*3 2.6 C 0 km/h
2581 12-03-2010 11:55:01 2.7 C 4.2 g/m*3 2.7 C 0 km/h
2582 12-03-2010 12:07:02 2.8 C 4.16 g/m*3 2.8 C 0 km/h
2583 12-03-2010 12:19:01 3.1 C 4.19 g/m*3 3.1 C 0 km/h
2584 12-03-2010 12:31:01 3.4 C 4.28 g/m*3 3.4 C 0 km/h
2585 12-03-2010 12:43:01 3.8 C 4.27 g/m*3 3.8 C 0 km/h
2586 12-03-2010 12:55:01 3.9 C 4.29 g/m*3 3.9 C 0 km/h
2587 12-03-2010 13:07:02 4.4 C 4.31 g/m*3 4.4 C 0 km/h
2588 12-03-2010 13:19:01 4.4 C 4.24 g/m*3 4.4 C 0 km/h
2589 12-03-2010 13:31:02 4.6 C 4.3 g/m*3 4.6 C 0 km/h
2590 12-03-2010 13:43:02 5 C 4.14 g/m*3 5 C 0 km/h
2591 12-03-2010 13:55:01 5.2 C 4.27 g/m*3 5.2 C 0 km/h
2592 12-03-2010 14:07:02 4.8 C 4.16 g/m*3 4.8 C 0 km/h
2593 12-03-2010 14:19:02 5 C 4.08 g/m*3 5 C 0 km/h
2594 12-03-2010 14:31:01 5.1 C 4.1 g/m*3 5.1 C 0 km/h
2595 12-03-2010 14:43:01 5.4 C 4.12 g/m*3 5.4 C 0 km/h
2596 12-03-2010 14:55:01 6.1 C 4.09 g/m*3 6.1 C 0 km/h
2597 12-03-2010 15:07:02 7.1 C 4.29 g/m*3 7.1 C 0 km/h
2598 12-03-2010 15:19:02 6.9 C 3.85 g/m*3 6.9 C 0 km/h
2599 12-03-2010 15:31:01 7.4 C 4.06 g/m*3 7.4 C 0 km/h
2600 12-03-2010 15:43:01 7.3 C 3.95 g/m*3 7.3 C 0 km/h
Sensor: Nr:Datum:Temp:Abs-Feuchte:Windchill:Wind:
Aussen-T/F 2601 12-03-2010 15:55:01 6.1 C 3.8 g/m*3 6.1 C 0 km/h
2602 12-03-2010 16:07:01 5.3 C 4.09 g/m*3 5.3 C 0 km/h
2603 12-03-2010 16:19:02 4.9 C 4.25 g/m*3 4.9 C 0 km/h
2604 12-03-2010 16:31:01 5.1 C 4.38 g/m*3 5.1 C 0 km/h
2605 12-03-2010 16:43:01 5.2 C 4.41 g/m*3 5.2 C 0 km/h
2606 12-03-2010 16:55:02 5.1 C 4.31 g/m*3 5.1 C 0 km/h
2607 12-03-2010 17:07:01 4.9 C 4.32 g/m*3 4.9 C 0 km/h
2608 12-03-2010 17:19:01 4.9 C 4.32 g/m*3 4.9 C 0 km/h
2609 12-03-2010 17:31:01 4.8 C 4.29 g/m*3 4.8 C 0 km/h
2610 12-03-2010 17:43:01 4.4 C 4.24 g/m*3 4.4 C 0 km/h
2611 12-03-2010 17:55:02 4.1 C 4.29 g/m*3 4.1 C 0 km/h
2612 12-03-2010 18:07:02 3.9 C 4.36 g/m*3 3.9 C 0 km/h
2613 12-03-2010 18:19:02 3.7 C 4.36 g/m*3 3.7 C 0 km/h
2614 12-03-2010 18:31:01 3.5 C 4.37 g/m*3 3.5 C 0 km/h
2615 12-03-2010 18:43:01 3.2 C 4.28 g/m*3 3.2 C 0 km/h
2616 12-03-2010 18:55:02 3 C 4.28 g/m*3 3 C 0 km/h
2617 12-03-2010 19:07:01 2.8 C 4.34 g/m*3 2.8 C 0 km/h
2618 12-03-2010 19:19:02 2.8 C 4.34 g/m*3 2.8 C 0 km/h
2619 12-03-2010 19:31:01 2.8 C 4.4 g/m*3 2.8 C 0 km/h
2620 12-03-2010 19:43:01 2.9 C 4.43 g/m*3 2.9 C 0 km/h
2621 12-03-2010 19:55:02 3.1 C 4.43 g/m*3 3.1 C 0 km/h
2622 12-03-2010 20:07:02 3.1 C 4.43 g/m*3 3.1 C 0 km/h
2623 12-03-2010 20:19:02 3.1 C 4.43 g/m*3 3.1 C 0 km/h
2624 12-03-2010 20:31:03 3.2 C 4.46 g/m*3 3.2 C 0 km/h
2625 12-03-2010 20:43:03 3.1 C 4.37 g/m*3 3.1 C 0 km/h
Sensor: Nr:Datum:Temp:Abs-Feuchte:Windchill:Wind:
Aussen-T/F 2626 12-03-2010 20:55:02 2.9 C 4.43 g/m*3 2.9 C 0 km/h
2627 12-03-2010 21:07:01 2.8 C 4.4 g/m*3 2.8 C 0 km/h
2628 12-03-2010 21:19:02 2.8 C 4.46 g/m*3 2.8 C 0 km/h
2629 12-03-2010 21:31:02 2.7 C 4.43 g/m*3 2.7 C 0 km/h
2630 12-03-2010 21:43:02 2.7 C 4.43 g/m*3 2.7 C 0 km/h
2631 12-03-2010 21:55:03 2.6 C 4.4 g/m*3 2.6 C 0 km/h
2632 12-03-2010 22:07:03 2.6 C 4.4 g/m*3 2.6 C 0 km/h
2633 12-03-2010 22:20:03 2.6 C 4.46 g/m*3 2.6 C 0 km/h
2634 12-03-2010 22:32:03 2.4 C 4.4 g/m*3 2.4 C 0 km/h
2635 12-03-2010 22:44:03 2.4 C 4.45 g/m*3 2.4 C 0 km/h
2636 12-03-2010 22:56:03 2.4 C 4.45 g/m*3 2.4 C 0 km/h
2637 12-03-2010 23:08:03 2.4 C 4.45 g/m*3 2.4 C 0 km/h
2638 12-03-2010 23:20:03 2.4 C 4.45 g/m*3 2.4 C 0 km/h
2639 12-03-2010 23:32:03 2.3 C 4.42 g/m*3 2.3 C 0 km/h
2640 12-03-2010 23:44:03 2.2 C 4.45 g/m*3 2.2 C 0 km/h
2641 12-03-2010 23:56:03 2.3 C 4.48 g/m*3 2.3 C 0 km/h
2642 13-03-2010 00:08:03 2.3 C 4.48 g/m*3 2.3 C 0 km/h
2643 13-03-2010 00:20:03 2.2 C 4.45 g/m*3 2.2 C 0 km/h
2644 13-03-2010 00:32:03 2.3 C 4.48 g/m*3 2.3 C 0 km/h
2645 13-03-2010 00:44:03 2.3 C 4.48 g/m*3 2.3 C 0 km/h
2646 13-03-2010 00:56:03 2.3 C 4.48 g/m*3 2.3 C 0 km/h
2647 13-03-2010 01:08:03 2.2 C 4.45 g/m*3 2.2 C 0 km/h
2648 13-03-2010 01:20:03 2.2 C 4.39 g/m*3 2.2 C 0 km/h
2649 13-03-2010 01:32:03 2.3 C 4.42 g/m*3 2.3 C 0 km/h
2650 13-03-2010 01:44:03 2.2 C 4.39 g/m*3 2.2 C 0 km/h
Sensor: Nr:Datum:Temp:Abs-Feuchte:Windchill:Wind:
Aussen-T/F 2651 13-03-2010 01:56:03 2.2 C 4.39 g/m*3 2.2 C 0 km/h
2652 13-03-2010 02:08:03 2.2 C 4.39 g/m*3 2.2 C 0 km/h
2653 13-03-2010 02:20:03 2.1 C 4.31 g/m*3 2.1 C 0 km/h
2654 13-03-2010 02:32:03 2.2 C 4.34 g/m*3 2.2 C 0 km/h
2655 13-03-2010 02:44:04 2.1 C 4.25 g/m*3 2.1 C 0 km/h
2656 13-03-2010 02:56:04 2.2 C 4.28 g/m*3 2.2 C 0 km/h
2657 13-03-2010 03:08:04 2.2 C 4.22 g/m*3 2.2 C 0 km/h
2658 13-03-2010 03:20:04 2.2 C 4.22 g/m*3 2.2 C 0 km/h
2659 13-03-2010 03:32:04 2.2 C 4.22 g/m*3 2.2 C 0 km/h
2660 13-03-2010 03:44:04 2 C 4.17 g/m*3 2 C 0 km/h
2661 13-03-2010 03:56:04 1.8 C 4.22 g/m*3 1.8 C 0 km/h
2662 13-03-2010 04:08:04 1.9 C 4.19 g/m*3 1.9 C 0 km/h
2663 13-03-2010 04:20:04 2 C 4.17 g/m*3 2 C 0 km/h
2664 13-03-2010 04:32:04 2 C 4.17 g/m*3 2 C 0 km/h
2665 13-03-2010 04:44:04 2 C 4.17 g/m*3 2 C 0 km/h
2666 13-03-2010 04:56:04 2 C 4.17 g/m*3 2 C 0 km/h
2667 13-03-2010 05:08:04 2 C 4.17 g/m*3 2 C 0 km/h
2668 13-03-2010 05:20:04 1.8 C 4.17 g/m*3 1.8 C 0 km/h
2669 13-03-2010 05:32:04 1.9 C 4.19 g/m*3 1.9 C 0 km/h
2670 13-03-2010 05:44:04 2 C 4.11 g/m*3 2 C 0 km/h
2671 13-03-2010 05:56:04 2 C 4.11 g/m*3 2 C 0 km/h
2672 13-03-2010 06:08:04 2 C 4.11 g/m*3 2 C 0 km/h
2673 13-03-2010 06:20:04 2.1 C 4.08 g/m*3 2.1 C 0 km/h
2674 13-03-2010 06:32:04 2.2 C 4.11 g/m*3 2.2 C 0 km/h
2675 13-03-2010 06:44:04 2.1 C 4.08 g/m*3 2.1 C 0 km/h
Sensor: Nr:Datum:Temp:Abs-Feuchte:Windchill:Wind:
Aussen-T/F 2676 13-03-2010 06:56:02 2.3 C 4.2 g/m*3 2.3 C 0 km/h
2677 13-03-2010 07:08:02 2.3 C 4.25 g/m*3 2.3 C 0 km/h
2678 13-03-2010 07:20:02 2.3 C 4.31 g/m*3 2.3 C 0 km/h
2679 13-03-2010 07:32:02 2.3 C 4.31 g/m*3 2.3 C 0 km/h
2680 13-03-2010 07:44:02 2.4 C 4.45 g/m*3 2.4 C 0 km/h
2681 13-03-2010 07:56:02 2.6 C 4.63 g/m*3 2.6 C 0 km/h
2682 13-03-2010 08:08:02 2.7 C 4.66 g/m*3 2.7 C 0 km/h
2683 13-03-2010 08:20:02 2.8 C 4.69 g/m*3 2.8 C 0 km/h
2684 13-03-2010 08:32:02 2.9 C 4.72 g/m*3 2.9 C 0 km/h
2685 13-03-2010 08:44:02 3.1 C 4.73 g/m*3 3.1 C 0 km/h
2686 13-03-2010 08:56:02 3.3 C 4.73 g/m*3 3.3 C 0 km/h
2687 13-03-2010 09:08:01 3.4 C 4.7 g/m*3 3.4 C 0 km/h
2688 13-03-2010 09:20:02 3.4 C 4.64 g/m*3 3.4 C 0 km/h
2689 13-03-2010 09:32:01 3.6 C 4.7 g/m*3 3.6 C 0 km/h
2690 13-03-2010 09:44:01 3.6 C 4.7 g/m*3 3.6 C 0 km/h
2691 13-03-2010 09:56:02 3.7 C 4.74 g/m*3 3.7 C 0 km/h
2692 13-03-2010 10:08:01 4 C 4.7 g/m*3 4 C 0 km/h
2693 13-03-2010 10:20:02 4.4 C 4.7 g/m*3 4.4 C 0 km/h
2694 13-03-2010 10:32:02 4.8 C 4.69 g/m*3 4.8 C 0 km/h
2695 13-03-2010 10:44:02 4.8 C 4.49 g/m*3 4.8 C 0 km/h
2696 13-03-2010 10:56:02 5 C 4.42 g/m*3 5 C 0 km/h
2697 13-03-2010 11:08:02 4.8 C 4.22 g/m*3 4.8 C 0 km/h
2698 13-03-2010 11:20:02 4.7 C 4.26 g/m*3 4.7 C 0 km/h
2699 13-03-2010 11:32:02 5.2 C 4.34 g/m*3 5.2 C 0 km/h
2700 13-03-2010 11:44:02 5.3 C 4.23 g/m*3 5.3 C 0 km/h
Sensor: Nr:Datum:Temp:Abs-Feuchte:Windchill:Wind:
Aussen-T/F 2701 13-03-2010 11:56:02 6 C 4.06 g/m*3 6 C 0 km/h
2702 13-03-2010 12:08:02 6.5 C 4.05 g/m*3 6.5 C 0 km/h
2703 13-03-2010 12:20:01 6.2 C 3.75 g/m*3 6.2 C 0 km/h
2704 13-03-2010 12:32:02 5.8 C 3.72 g/m*3 5.8 C 0 km/h
2705 13-03-2010 12:44:02 6.3 C 3.78 g/m*3 6.3 C 0 km/h
2706 13-03-2010 12:56:02 6.7 C 3.72 g/m*3 6.7 C 0 km/h
2707 13-03-2010 13:08:02 6.3 C 3.7 g/m*3 6.3 C 0 km/h
2708 13-03-2010 13:20:02 6 C 3.7 g/m*3 6 C 0 km/h
2709 13-03-2010 13:32:02 5.8 C 3.94 g/m*3 5.8 C 0 km/h
2710 13-03-2010 13:44:02 5.8 C 4.01 g/m*3 5.8 C 0 km/h
2711 13-03-2010 13:56:02 6.1 C 4.16 g/m*3 6.1 C 0 km/h
2712 13-03-2010 14:08:02 6.3 C 4.07 g/m*3 6.3 C 0 km/h
2713 13-03-2010 14:20:02 6.3 C 4.07 g/m*3 6.3 C 0 km/h
2714 13-03-2010 14:32:02 6.1 C 4.02 g/m*3 6.1 C 0 km/h
2715 13-03-2010 14:44:02 6.2 C 3.97 g/m*3 6.2 C 0 km/h
2716 13-03-2010 14:56:02 6.3 C 4 g/m*3 6.3 C 0 km/h
2717 13-03-2010 15:08:02 6.5 C 4.05 g/m*3 6.5 C 0 km/h
2718 13-03-2010 15:20:02 6.5 C 3.9 g/m*3 6.5 C 0 km/h
2719 13-03-2010 15:32:02 6.5 C 3.9 g/m*3 6.5 C 0 km/h
2720 13-03-2010 15:44:02 6.7 C 4.03 g/m*3 6.7 C 0 km/h
2721 13-03-2010 15:56:02 6.6 C 3.93 g/m*3 6.6 C 0 km/h
2722 13-03-2010 16:08:02 6.6 C 3.93 g/m*3 6.6 C 0 km/h
2723 13-03-2010 16:20:03 6.5 C 3.9 g/m*3 6.5 C 0 km/h
2724 13-03-2010 16:32:02 6.5 C 3.9 g/m*3 6.5 C 0 km/h
2725 13-03-2010 16:44:02 6.4 C 3.87 g/m*3 6.4 C 0 km/h
Sensor: Nr:Datum:Temp:Abs-Feuchte:Windchill:Wind:
Aussen-T/F 2726 13-03-2010 16:56:02 6.4 C 3.95 g/m*3 6.4 C 0 km/h
2727 13-03-2010 17:08:02 6.4 C 3.95 g/m*3 6.4 C 0 km/h
2728 13-03-2010 17:20:02 6.3 C 3.92 g/m*3 6.3 C 0 km/h
2729 13-03-2010 17:32:02 6.3 C 4 g/m*3 6.3 C 0 km/h
2730 13-03-2010 17:44:02 6.2 C 3.97 g/m*3 6.2 C 0 km/h
2731 13-03-2010 17:56:02 6.2 C 3.97 g/m*3 6.2 C 0 km/h
2732 13-03-2010 18:08:02 6.2 C 3.97 g/m*3 6.2 C 0 km/h
2733 13-03-2010 18:20:02 6.1 C 3.95 g/m*3 6.1 C 0 km/h
2734 13-03-2010 18:32:01 6.1 C 3.95 g/m*3 6.1 C 0 km/h
2735 13-03-2010 18:44:01 6 C 3.92 g/m*3 6 C 0 km/h
2736 13-03-2010 18:56:02 6.1 C 3.95 g/m*3 6.1 C 0 km/h
2737 13-03-2010 19:08:01 6 C 3.92 g/m*3 6 C 0 km/h
2738 13-03-2010 19:20:02 6 C 3.99 g/m*3 6 C 0 km/h
2739 13-03-2010 19:32:02 6 C 3.99 g/m*3 6 C 0 km/h
2740 13-03-2010 19:44:02 6 C 3.99 g/m*3 6 C 0 km/h
2741 13-03-2010 19:56:02 6 C 3.99 g/m*3 6 C 0 km/h
2742 13-03-2010 20:08:01 5.8 C 4.08 g/m*3 5.8 C 0 km/h
2743 13-03-2010 20:20:01 5.8 C 4.23 g/m*3 5.8 C 0 km/h
2744 13-03-2010 20:32:02 5.5 C 4.28 g/m*3 5.5 C 0 km/h
2745 13-03-2010 20:44:02 5.5 C 4.42 g/m*3 5.5 C 0 km/h
2746 13-03-2010 20:56:02 5.6 C 4.45 g/m*3 5.6 C 0 km/h
2747 13-03-2010 21:08:02 5.6 C 4.45 g/m*3 5.6 C 0 km/h
2748 13-03-2010 21:20:02 5.5 C 4.35 g/m*3 5.5 C 0 km/h
2749 13-03-2010 21:32:02 5.6 C 4.17 g/m*3 5.6 C 0 km/h
2750 13-03-2010 21:44:02 5.5 C 4.07 g/m*3 5.5 C 0 km/h
Sensor: Nr:Datum:Temp:Abs-Feuchte:Windchill:Wind:
Aussen-T/F 2751 13-03-2010 21:56:01 5.4 C 4.05 g/m*3 5.4 C 0 km/h
2752 13-03-2010 22:08:02 5.3 C 4.02 g/m*3 5.3 C 0 km/h
2753 13-03-2010 22:21:03 5.2 C 4.13 g/m*3 5.2 C 0 km/h
2754 13-03-2010 22:33:04 5 C 4.21 g/m*3 5 C 0 km/h
2755 13-03-2010 22:45:04 5 C 4.08 g/m*3 5 C 0 km/h
2756 13-03-2010 22:57:04 5.2 C 3.79 g/m*3 5.2 C 0 km/h
2757 13-03-2010 23:09:04 5.1 C 3.63 g/m*3 5.1 C 0 km/h
2758 13-03-2010 23:21:04 5.1 C 3.63 g/m*3 5.1 C 0 km/h
2759 13-03-2010 23:33:04 5.1 C 3.63 g/m*3 5.1 C 0 km/h
2760 13-03-2010 23:45:04 5 C 3.67 g/m*3 5 C 0 km/h
2761 13-03-2010 23:57:04 4.9 C 3.71 g/m*3 4.9 C 0 km/h
2762 14-03-2010 00:09:04 4.8 C 3.62 g/m*3 4.8 C 0 km/h
2763 14-03-2010 00:21:04 4.7 C 3.6 g/m*3 4.7 C 0 km/h
2764 14-03-2010 00:33:04 4.7 C 3.6 g/m*3 4.7 C 0 km/h
2765 14-03-2010 00:45:04 4.7 C 3.6 g/m*3 4.7 C 0 km/h
2766 14-03-2010 00:57:04 4.6 C 3.57 g/m*3 4.6 C 0 km/h
2767 14-03-2010 01:09:04 4.6 C 3.64 g/m*3 4.6 C 0 km/h
2768 14-03-2010 01:21:04 4.5 C 3.68 g/m*3 4.5 C 0 km/h
2769 14-03-2010 01:33:04 4.4 C 3.66 g/m*3 4.4 C 0 km/h
2770 14-03-2010 01:45:04 4.3 C 3.7 g/m*3 4.3 C 0 km/h
2771 14-03-2010 01:57:04 4.3 C 3.76 g/m*3 4.3 C 0 km/h
2772 14-03-2010 02:09:04 4.3 C 3.76 g/m*3 4.3 C 0 km/h
2773 14-03-2010 02:21:04 4.3 C 3.83 g/m*3 4.3 C 0 km/h
2774 14-03-2010 02:33:04 4.3 C 3.83 g/m*3 4.3 C 0 km/h
2775 14-03-2010 02:45:05 4.2 C 3.8 g/m*3 4.2 C 0 km/h
Sensor: Nr:Datum:Temp:Abs-Feuchte:Windchill:Wind:
Aussen-T/F 2776 14-03-2010 02:57:05 4.3 C 3.83 g/m*3 4.3 C 0 km/h
2777 14-03-2010 03:09:05 4.3 C 3.89 g/m*3 4.3 C 0 km/h
2778 14-03-2010 03:21:05 4.3 C 3.89 g/m*3 4.3 C 0 km/h
2779 14-03-2010 03:33:05 4.4 C 3.85 g/m*3 4.4 C 0 km/h
2780 14-03-2010 03:45:05 4.4 C 3.85 g/m*3 4.4 C 0 km/h
2781 14-03-2010 03:57:05 4.4 C 3.85 g/m*3 4.4 C 0 km/h
2782 14-03-2010 04:09:05 4.4 C 3.85 g/m*3 4.4 C 0 km/h
2783 14-03-2010 04:21:05 4.5 C 3.88 g/m*3 4.5 C 0 km/h
2784 14-03-2010 04:33:05 4.4 C 3.92 g/m*3 4.4 C 0 km/h
2785 14-03-2010 04:45:05 4.4 C 3.92 g/m*3 4.4 C 0 km/h
2786 14-03-2010 04:57:05 4.3 C 3.96 g/m*3 4.3 C 0 km/h
2787 14-03-2010 05:09:05 4.3 C 4.02 g/m*3 4.3 C 0 km/h
2788 14-03-2010 05:21:05 4.3 C 4.02 g/m*3 4.3 C 0 km/h
2789 14-03-2010 05:33:05 4.3 C 4.02 g/m*3 4.3 C 0 km/h
2790 14-03-2010 05:45:05 4.2 C 3.99 g/m*3 4.2 C 0 km/h
2791 14-03-2010 05:57:05 4.2 C 3.99 g/m*3 4.2 C 0 km/h
2792 14-03-2010 06:09:05 4.3 C 4.02 g/m*3 4.3 C 0 km/h
2793 14-03-2010 06:21:05 4.2 C 3.99 g/m*3 4.2 C 0 km/h
2794 14-03-2010 06:33:05 4.2 C 3.99 g/m*3 4.2 C 0 km/h
2795 14-03-2010 06:45:06 4.2 C 3.99 g/m*3 4.2 C 0 km/h
2796 14-03-2010 06:57:06 4.2 C 4.06 g/m*3 4.2 C 0 km/h
2797 14-03-2010 07:09:06 4.3 C 4.02 g/m*3 4.3 C 0 km/h
2798 14-03-2010 07:21:06 4.3 C 4.02 g/m*3 4.3 C 0 km/h
2799 14-03-2010 07:33:06 4.5 C 4.08 g/m*3 4.5 C 0 km/h
2800 14-03-2010 07:45:06 4.6 C 4.04 g/m*3 4.6 C 0 km/h
Sensor: Nr:Datum:Temp:Abs-Feuchte:Windchill:Wind:
Aussen-T/F 2801 14-03-2010 07:57:06 4.7 C 4 g/m*3 4.7 C 0 km/h
2802 14-03-2010 08:09:06 4.8 C 3.96 g/m*3 4.8 C 0 km/h
2803 14-03-2010 08:21:06 4.9 C 3.92 g/m*3 4.9 C 0 km/h
2804 14-03-2010 08:33:06 5.2 C 3.86 g/m*3 5.2 C 0 km/h
2805 14-03-2010 08:45:01 5.3 C 3.81 g/m*3 5.3 C 0 km/h
2806 14-03-2010 08:57:01 5.4 C 3.77 g/m*3 5.4 C 0 km/h
2807 14-03-2010 09:09:02 5.6 C 3.82 g/m*3 5.6 C 0 km/h
2808 14-03-2010 09:21:01 5.7 C 3.77 g/m*3 5.7 C 0 km/h
2809 14-03-2010 09:33:02 6 C 3.7 g/m*3 6 C 0 km/h
2810 14-03-2010 09:45:02 5.9 C 3.75 g/m*3 5.9 C 0 km/h
2811 14-03-2010 09:57:02 6 C 3.77 g/m*3 6 C 0 km/h
2812 14-03-2010 10:09:02 6.3 C 3.78 g/m*3 6.3 C 0 km/h
2813 14-03-2010 10:21:02 6.5 C 3.75 g/m*3 6.5 C 0 km/h
2814 14-03-2010 10:33:02 6.8 C 3.82 g/m*3 6.8 C 0 km/h
2815 14-03-2010 10:45:02 7 C 3.64 g/m*3 7 C 0 km/h
2816 14-03-2010 10:57:02 6.9 C 3.7 g/m*3 6.9 C 0 km/h
2817 14-03-2010 11:09:02 7.2 C 3.69 g/m*3 7.2 C 0 km/h
2818 14-03-2010 11:21:02 7.5 C 3.76 g/m*3 7.5 C 0 km/h
2819 14-03-2010 11:33:02 7.4 C 3.66 g/m*3 7.4 C 0 km/h
2820 14-03-2010 11:45:01 7.5 C 3.76 g/m*3 7.5 C 0 km/h
2821 14-03-2010 11:57:01 7.6 C 3.63 g/m*3 7.6 C 0 km/h
2822 14-03-2010 12:09:02 7.8 C 3.51 g/m*3 7.8 C 0 km/h
2823 14-03-2010 12:21:01 7.8 C 3.43 g/m*3 7.8 C 0 km/h
2824 14-03-2010 12:33:01 7.7 C 3.49 g/m*3 7.7 C 0 km/h
2825 14-03-2010 12:45:01 7.6 C 3.54 g/m*3 7.6 C 0 km/h
Sensor: Nr:Datum:Temp:Abs-Feuchte:Windchill:Wind:
Aussen-T/F 2826 14-03-2010 12:57:01 7.6 C 3.63 g/m*3 7.6 C 0 km/h
2827 14-03-2010 13:09:02 7.6 C 3.63 g/m*3 7.6 C 0 km/h
2828 14-03-2010 13:21:01 7.7 C 3.73 g/m*3 7.7 C 0 km/h
2829 14-03-2010 13:33:02 7.7 C 3.73 g/m*3 7.7 C 0 km/h
2830 14-03-2010 13:45:02 7.5 C 3.76 g/m*3 7.5 C 0 km/h
2831 14-03-2010 13:57:02 7.5 C 3.76 g/m*3 7.5 C 0 km/h
2832 14-03-2010 14:09:02 7.4 C 3.74 g/m*3 7.4 C 0 km/h
2833 14-03-2010 14:21:01 7.3 C 3.79 g/m*3 7.3 C 0 km/h
2834 14-03-2010 14:33:02 7.4 C 3.82 g/m*3 7.4 C 0 km/h
2835 14-03-2010 14:45:02 7.5 C 3.84 g/m*3 7.5 C 0 km/h
2836 14-03-2010 14:57:02 7.5 C 3.84 g/m*3 7.5 C 0 km/h
2837 14-03-2010 15:09:02 7.7 C 3.89 g/m*3 7.7 C 0 km/h
2838 14-03-2010 15:21:02 7.7 C 3.89 g/m*3 7.7 C 0 km/h
2839 14-03-2010 15:33:02 7.8 C 3.84 g/m*3 7.8 C 0 km/h
2840 14-03-2010 15:45:02 7.8 C 3.92 g/m*3 7.8 C 0 km/h
2841 14-03-2010 15:57:02 7.7 C 3.97 g/m*3 7.7 C 0 km/h
2842 14-03-2010 16:09:02 7.6 C 3.95 g/m*3 7.6 C 0 km/h
2843 14-03-2010 16:21:02 7.3 C 4.03 g/m*3 7.3 C 0 km/h
2844 14-03-2010 16:33:02 7.2 C 4.08 g/m*3 7.2 C 0 km/h
2845 14-03-2010 16:45:02 6.9 C 4.31 g/m*3 6.9 C 0 km/h
2846 14-03-2010 16:57:02 6.5 C 4.27 g/m*3 6.5 C 0 km/h
2847 14-03-2010 17:09:02 6.4 C 4.47 g/m*3 6.4 C 0 km/h
2848 14-03-2010 17:21:02 6.7 C 4.18 g/m*3 6.7 C 0 km/h
2849 14-03-2010 17:33:02 6.8 C 4.21 g/m*3 6.8 C 0 km/h
2850 14-03-2010 17:45:02 6.6 C 4.23 g/m*3 6.6 C 0 km/h
Sensor: Nr:Datum:Temp:Abs-Feuchte:Windchill:Wind:
Aussen-T/F 2851 14-03-2010 17:57:02 6.4 C 4.32 g/m*3 6.4 C 0 km/h
2852 14-03-2010 18:09:02 6.4 C 4.4 g/m*3 6.4 C 0 km/h
2853 14-03-2010 18:21:02 6.2 C 4.49 g/m*3 6.2 C 0 km/h
2854 14-03-2010 18:33:02 5.9 C 4.61 g/m*3 5.9 C 0 km/h
2855 14-03-2010 18:45:02 5.7 C 4.84 g/m*3 5.7 C 0 km/h
2856 14-03-2010 18:57:02 5.4 C 4.95 g/m*3 5.4 C 0 km/h
2857 14-03-2010 19:09:01 5.4 C 4.95 g/m*3 5.4 C 0 km/h
2858 14-03-2010 19:21:02 5.4 C 4.95 g/m*3 5.4 C 0 km/h
2859 14-03-2010 19:33:01 5.6 C 5.02 g/m*3 5.6 C 0 km/h
2860 14-03-2010 19:45:02 5.7 C 4.98 g/m*3 5.7 C 0 km/h
2861 14-03-2010 19:57:02 5.8 C 4.94 g/m*3 5.8 C 0 km/h
2862 14-03-2010 20:09:01 5.7 C 4.91 g/m*3 5.7 C 0 km/h
2863 14-03-2010 20:21:02 5.7 C 4.84 g/m*3 5.7 C 0 km/h
2864 14-03-2010 20:33:01 5.7 C 4.77 g/m*3 5.7 C 0 km/h
2865 14-03-2010 20:45:02 5.8 C 4.73 g/m*3 5.8 C 0 km/h
2866 14-03-2010 20:57:02 5.7 C 4.63 g/m*3 5.7 C 0 km/h
2867 14-03-2010 21:09:02 5.7 C 4.55 g/m*3 5.7 C 0 km/h
2868 14-03-2010 21:21:02 5.7 C 4.55 g/m*3 5.7 C 0 km/h
2869 14-03-2010 21:33:02 5.9 C 4.4 g/m*3 5.9 C 0 km/h
2870 14-03-2010 21:46:05 5.8 C 4.37 g/m*3 5.8 C 0 km/h
2871 14-03-2010 21:58:06 5.8 C 4.3 g/m*3 5.8 C 0 km/h
2872 14-03-2010 22:10:06 5.8 C 4.3 g/m*3 5.8 C 0 km/h
2873 14-03-2010 22:22:06 5.9 C 4.33 g/m*3 5.9 C 0 km/h
2874 14-03-2010 22:34:06 5.8 C 4.3 g/m*3 5.8 C 0 km/h
2875 14-03-2010 22:46:06 5.9 C 4.33 g/m*3 5.9 C 0 km/h
Sensor: Nr:Datum:Temp:Abs-Feuchte:Windchill:Wind:
Aussen-T/F 2876 14-03-2010 22:58:06 5.9 C 4.33 g/m*3 5.9 C 0 km/h
2877 14-03-2010 23:10:06 6.1 C 4.31 g/m*3 6.1 C 0 km/h
2878 14-03-2010 23:22:06 6 C 4.5 g/m*3 6 C 0 km/h
2879 14-03-2010 23:34:06 5.8 C 4.58 g/m*3 5.8 C 0 km/h
2880 14-03-2010 23:46:06 6.1 C 4.75 g/m*3 6.1 C 0 km/h
2881 14-03-2010 23:58:06 5.7 C 4.77 g/m*3 5.7 C 0 km/h
2882 15-03-2010 00:10:06 5.8 C 4.73 g/m*3 5.8 C 0 km/h
2883 15-03-2010 00:22:06 5.8 C 4.73 g/m*3 5.8 C 0 km/h
2884 15-03-2010 00:34:06 5.9 C 4.76 g/m*3 5.9 C 0 km/h
2885 15-03-2010 00:46:06 5.8 C 4.8 g/m*3 5.8 C 0 km/h
2886 15-03-2010 00:58:06 5.8 C 4.73 g/m*3 5.8 C 0 km/h
2887 15-03-2010 01:10:06 5.8 C 4.73 g/m*3 5.8 C 0 km/h
2888 15-03-2010 01:22:06 5.8 C 4.73 g/m*3 5.8 C 0 km/h
2889 15-03-2010 01:34:06 5.7 C 4.63 g/m*3 5.7 C 0 km/h
2890 15-03-2010 01:46:06 5.7 C 4.7 g/m*3 5.7 C 0 km/h
2891 15-03-2010 01:58:07 5.7 C 4.77 g/m*3 5.7 C 0 km/h
2892 15-03-2010 02:10:07 5.4 C 4.81 g/m*3 5.4 C 0 km/h
2893 15-03-2010 02:22:07 5.2 C 4.82 g/m*3 5.2 C 0 km/h
2894 15-03-2010 02:34:07 4.9 C 4.93 g/m*3 4.9 C 0 km/h
2895 15-03-2010 02:46:07 4.8 C 5.03 g/m*3 4.8 C 0 km/h
2896 15-03-2010 02:58:07 4.7 C 5 g/m*3 4.7 C 0 km/h
2897 15-03-2010 03:10:07 5 C 4.76 g/m*3 5 C 0 km/h
2898 15-03-2010 03:22:07 5 C 4.69 g/m*3 5 C 0 km/h
2899 15-03-2010 03:34:07 4.9 C 4.79 g/m*3 4.9 C 0 km/h
2900 15-03-2010 03:46:07 4.8 C 4.69 g/m*3 4.8 C 0 km/h
Sensor: Nr:Datum:Temp:Abs-Feuchte:Windchill:Wind:
Aussen-T/F 2901 15-03-2010 03:58:07 4.7 C 4.73 g/m*3 4.7 C 0 km/h
2902 15-03-2010 04:10:07 4.6 C 4.63 g/m*3 4.6 C 0 km/h
2903 15-03-2010 04:22:07 4.6 C 4.63 g/m*3 4.6 C 0 km/h
2904 15-03-2010 04:34:07 4.6 C 4.63 g/m*3 4.6 C 0 km/h
2905 15-03-2010 04:46:07 4.6 C 4.57 g/m*3 4.6 C 0 km/h
2906 15-03-2010 04:58:07 4.7 C 4.6 g/m*3 4.7 C 0 km/h
2907 15-03-2010 05:10:07 4.6 C 4.5 g/m*3 4.6 C 0 km/h
2908 15-03-2010 05:22:07 4.6 C 4.57 g/m*3 4.6 C 0 km/h
2909 15-03-2010 05:34:07 4.6 C 4.43 g/m*3 4.6 C 0 km/h
2910 15-03-2010 05:46:07 4.7 C 4.33 g/m*3 4.7 C 0 km/h
2911 15-03-2010 05:58:07 4.7 C 4.33 g/m*3 4.7 C 0 km/h
2912 15-03-2010 06:10:08 4.7 C 4.26 g/m*3 4.7 C 0 km/h
2913 15-03-2010 06:22:03 4.7 C 4.2 g/m*3 4.7 C 0 km/h
2914 15-03-2010 06:34:04 4.6 C 4.17 g/m*3 4.6 C 0 km/h
2915 15-03-2010 06:46:02 4.6 C 4.23 g/m*3 4.6 C 0 km/h
2916 15-03-2010 06:58:02 4.7 C 4.2 g/m*3 4.7 C 0 km/h
2917 15-03-2010 07:10:02 4.4 C 4.37 g/m*3 4.4 C 0 km/h
2918 15-03-2010 07:22:02 4 C 4.64 g/m*3 4 C 0 km/h
2919 15-03-2010 07:34:02 3.7 C 4.86 g/m*3 3.7 C 0 km/h
2920 15-03-2010 07:46:02 3.6 C 4.95 g/m*3 3.6 C 0 km/h
2921 15-03-2010 07:58:02 3.7 C 5.11 g/m*3 3.7 C 0 km/h
2922 15-03-2010 08:10:02 3.8 C 5.21 g/m*3 3.8 C 0 km/h
2923 15-03-2010 08:22:02 3.7 C 5.23 g/m*3 3.7 C 0 km/h
2924 15-03-2010 08:34:02 3.8 C 5.33 g/m*3 3.8 C 0 km/h
2925 15-03-2010 08:46:02 4 C 5.4 g/m*3 4 C 0 km/h
Sensor: Nr:Datum:Temp:Abs-Feuchte:Windchill:Wind:
Aussen-T/F 2926 15-03-2010 08:58:02 4.2 C 5.54 g/m*3 4.2 C 0 km/h
2927 15-03-2010 09:10:02 4.3 C 5.51 g/m*3 4.3 C 0 km/h
2928 15-03-2010 09:22:02 4.3 C 5.51 g/m*3 4.3 C 0 km/h
2929 15-03-2010 09:34:02 4.4 C 5.55 g/m*3 4.4 C 0 km/h
2930 15-03-2010 09:46:02 4.6 C 5.62 g/m*3 4.6 C 0 km/h
2931 15-03-2010 09:58:02 4.5 C 5.52 g/m*3 4.5 C 0 km/h
2932 15-03-2010 10:10:02 4.5 C 5.52 g/m*3 4.5 C 0 km/h
2933 15-03-2010 10:22:02 4.6 C 5.56 g/m*3 4.6 C 0 km/h
2934 15-03-2010 10:34:02 5.1 C 5.61 g/m*3 5.1 C 0 km/h
2935 15-03-2010 10:46:02 5.5 C 5.48 g/m*3 5.5 C 0 km/h
2936 15-03-2010 10:58:02 6 C 5.44 g/m*3 6 C 0 km/h
2937 15-03-2010 11:10:02 5.9 C 5.26 g/m*3 5.9 C 0 km/h
2938 15-03-2010 11:22:02 6 C 5.08 g/m*3 6 C 0 km/h
2939 15-03-2010 11:34:01 5.9 C 5.05 g/m*3 5.9 C 0 km/h
2940 15-03-2010 11:46:02 5.9 C 4.98 g/m*3 5.9 C 0 km/h
2941 15-03-2010 11:58:02 6 C 4.94 g/m*3 6 C 0 km/h
2942 15-03-2010 12:10:01 6 C 4.79 g/m*3 6 C 0 km/h
2943 15-03-2010 12:22:02 6.6 C 4.98 g/m*3 6.6 C 0 km/h
2944 15-03-2010 12:34:01 7.4 C 4.85 g/m*3 7.4 C 0 km/h
2945 15-03-2010 12:46:02 7.8 C 4.98 g/m*3 7.8 C 0 km/h
2946 15-03-2010 12:58:02 8.5 C 4.87 g/m*3 8.5 C 0 km/h
2947 15-03-2010 13:10:02 9.3 C 4.67 g/m*3 9.3 C 0 km/h
2948 15-03-2010 13:22:02 9 C 4.58 g/m*3 9 C 0 km/h
2949 15-03-2010 13:34:02 9.4 C 4.61 g/m*3 9.4 C 0 km/h
2950 15-03-2010 13:46:02 9.9 C 4.58 g/m*3 9.9 C 0 km/h
Sensor: Nr:Datum:Temp:Abs-Feuchte:Windchill:Wind:
Aussen-T/F 2951 15-03-2010 13:58:03 9.7 C 4.33 g/m*3 9.7 C 0 km/h
2952 15-03-2010 14:10:01 10.1 C 4.35 g/m*3 10.1 C 0 km/h
2953 15-03-2010 14:22:01 10 C 4.04 g/m*3 10 C 0 km/h
2954 15-03-2010 14:34:02 10.4 C 3.95 g/m*3 10.4 C 0 km/h
2955 15-03-2010 14:46:02 10.5 C 4.07 g/m*3 10.5 C 0 km/h
2956 15-03-2010 14:58:02 10.3 C 4.02 g/m*3 10.3 C 0 km/h
2957 15-03-2010 15:10:01 10.4 C 4.05 g/m*3 10.4 C 0 km/h
2958 15-03-2010 15:22:02 11 C 4.1 g/m*3 11 C 0 km/h
2959 15-03-2010 15:34:02 10.5 C 3.98 g/m*3 10.5 C 0 km/h
2960 15-03-2010 15:46:02 10.4 C 4.05 g/m*3 10.4 C 0 km/h
2961 15-03-2010 15:58:02 10.1 C 4.07 g/m*3 10.1 C 0 km/h
2962 15-03-2010 16:10:03 9.9 C 4.2 g/m*3 9.9 C 0 km/h
2963 15-03-2010 16:22:02 10 C 4.23 g/m*3 10 C 0 km/h
2964 15-03-2010 16:34:02 9.9 C 4.29 g/m*3 9.9 C 0 km/h
2965 15-03-2010 16:46:01 9.8 C 4.27 g/m*3 9.8 C 0 km/h
2966 15-03-2010 16:58:01 9.7 C 4.43 g/m*3 9.7 C 0 km/h
2967 15-03-2010 17:10:02 9.6 C 4.4 g/m*3 9.6 C 0 km/h
2968 15-03-2010 17:22:01 9.2 C 4.55 g/m*3 9.2 C 0 km/h
2969 15-03-2010 17:34:01 8.6 C 4.98 g/m*3 8.6 C 0 km/h
2970 15-03-2010 17:46:01 8.3 C 5.06 g/m*3 8.3 C 0 km/h
2971 15-03-2010 17:58:01 8.2 C 4.94 g/m*3 8.2 C 0 km/h
2972 15-03-2010 18:10:02 8.2 C 5.11 g/m*3 8.2 C 0 km/h
2973 15-03-2010 18:22:01 8.1 C 5.16 g/m*3 8.1 C 0 km/h
2974 15-03-2010 18:34:02 8 C 5.21 g/m*3 8 C 0 km/h
2975 15-03-2010 18:46:01 8.1 C 5.08 g/m*3 8.1 C 0 km/h
Sensor: Nr:Datum:Temp:Abs-Feuchte:Windchill:Wind:
Aussen-T/F 2976 15-03-2010 18:58:01 7.7 C 5.27 g/m*3 7.7 C 0 km/h
2977 15-03-2010 19:10:02 7.5 C 5.36 g/m*3 7.5 C 0 km/h
2978 15-03-2010 19:22:01 7.2 C 5.42 g/m*3 7.2 C 0 km/h
2979 15-03-2010 19:34:02 7.1 C 5.46 g/m*3 7.1 C 0 km/h
2980 15-03-2010 19:46:01 7 C 5.5 g/m*3 7 C 0 km/h
2981 15-03-2010 19:58:01 7 C 5.58 g/m*3 7 C 0 km/h
2982 15-03-2010 20:10:02 6.7 C 5.77 g/m*3 6.7 C 0 km/h
2983 15-03-2010 20:22:01 6.8 C 5.81 g/m*3 6.8 C 0 km/h
2984 15-03-2010 20:34:02 6.9 C 5.62 g/m*3 6.9 C 0 km/h
2985 15-03-2010 20:46:01 6.8 C 5.58 g/m*3 6.8 C 0 km/h
2986 15-03-2010 20:58:01 6.8 C 5.58 g/m*3 6.8 C 0 km/h
2987 15-03-2010 21:10:02 6.9 C 5.47 g/m*3 6.9 C 0 km/h
2988 15-03-2010 21:22:02 6.6 C 5.59 g/m*3 6.6 C 0 km/h
2989 15-03-2010 21:34:02 6.4 C 5.66 g/m*3 6.4 C 0 km/h
2990 15-03-2010 21:46:01 6.3 C 5.85 g/m*3 6.3 C 0 km/h
2991 15-03-2010 21:58:01 6.2 C 5.81 g/m*3 6.2 C 0 km/h
2992 15-03-2010 22:10:01 6.1 C 5.77 g/m*3 6.1 C 0 km/h
2993 15-03-2010 22:23:02 6 C 5.73 g/m*3 6 C 0 km/h
2994 15-03-2010 22:35:02 6 C 5.88 g/m*3 6 C 0 km/h
2995 15-03-2010 22:47:02 5.8 C 5.95 g/m*3 5.8 C 0 km/h
2996 15-03-2010 22:59:02 5.8 C 6.02 g/m*3 5.8 C 0 km/h
2997 15-03-2010 23:11:02 5.7 C 6.05 g/m*3 5.7 C 0 km/h
2998 15-03-2010 23:23:02 5.6 C 6.08 g/m*3 5.6 C 0 km/h
2999 15-03-2010 23:35:03 5.5 C 6.11 g/m*3 5.5 C 0 km/h
3000 15-03-2010 23:47:03 5.5 C 6.11 g/m*3 5.5 C 0 km/h
Sensor: Nr:Datum:Temp:Abs-Feuchte:Windchill:Wind:
Aussen-T/F 3001 15-03-2010 23:59:03 5.4 C 6.07 g/m*3 5.4 C 0 km/h
3002 16-03-2010 00:11:03 5.4 C 6.14 g/m*3 5.4 C 0 km/h
3003 16-03-2010 00:23:03 5.4 C 6.14 g/m*3 5.4 C 0 km/h
3004 16-03-2010 00:35:03 5.3 C 6.1 g/m*3 5.3 C 0 km/h
3005 16-03-2010 00:47:03 5.2 C 6.13 g/m*3 5.2 C 0 km/h
3006 16-03-2010 00:59:03 5.1 C 6.09 g/m*3 5.1 C 0 km/h
3007 16-03-2010 01:11:03 5 C 5.98 g/m*3 5 C 0 km/h
3008 16-03-2010 01:23:03 5 C 6.05 g/m*3 5 C 0 km/h
3009 16-03-2010 01:35:03 5 C 6.05 g/m*3 5 C 0 km/h
3010 16-03-2010 01:47:03 5 C 6.05 g/m*3 5 C 0 km/h
3011 16-03-2010 01:59:03 5 C 6.05 g/m*3 5 C 0 km/h
3012 16-03-2010 02:11:03 5 C 6.12 g/m*3 5 C 0 km/h
3013 16-03-2010 02:23:03 4.9 C 6.08 g/m*3 4.9 C 0 km/h
3014 16-03-2010 02:35:03 4.9 C 6.08 g/m*3 4.9 C 0 km/h
3015 16-03-2010 02:47:03 4.9 C 6.08 g/m*3 4.9 C 0 km/h
3016 16-03-2010 02:59:03 4.8 C 5.97 g/m*3 4.8 C 0 km/h
3017 16-03-2010 03:11:03 4.8 C 5.97 g/m*3 4.8 C 0 km/h
3018 16-03-2010 03:23:03 4.7 C 5.93 g/m*3 4.7 C 0 km/h
3019 16-03-2010 03:35:04 4.8 C 6.04 g/m*3 4.8 C 0 km/h
3020 16-03-2010 03:47:04 4.8 C 6.04 g/m*3 4.8 C 0 km/h
3021 16-03-2010 03:59:04 4.8 C 6.1 g/m*3 4.8 C 0 km/h
3022 16-03-2010 04:11:04 4.8 C 6.1 g/m*3 4.8 C 0 km/h
3023 16-03-2010 04:23:04 4.8 C 6.1 g/m*3 4.8 C 0 km/h
3024 16-03-2010 04:35:04 4.7 C 6.06 g/m*3 4.7 C 0 km/h
3025 16-03-2010 04:47:04 4.8 C 6.1 g/m*3 4.8 C 0 km/h
Sensor: Nr:Datum:Temp:Abs-Feuchte:Windchill:Wind:
Aussen-T/F 3026 16-03-2010 04:59:04 4.7 C 6.06 g/m*3 4.7 C 0 km/h
3027 16-03-2010 05:11:04 4.7 C 6.06 g/m*3 4.7 C 0 km/h
3028 16-03-2010 05:23:04 4.7 C 6.13 g/m*3 4.7 C 0 km/h
3029 16-03-2010 05:35:04 4.7 C 6.13 g/m*3 4.7 C 0 km/h
3030 16-03-2010 05:47:04 4.6 C 6.02 g/m*3 4.6 C 0 km/h
3031 16-03-2010 05:59:04 4.6 C 6.02 g/m*3 4.6 C 0 km/h
3032 16-03-2010 06:11:04 4.6 C 6.02 g/m*3 4.6 C 0 km/h
3033 16-03-2010 06:23:04 4.6 C 5.96 g/m*3 4.6 C 0 km/h
3034 16-03-2010 06:35:04 4.6 C 5.96 g/m*3 4.6 C 0 km/h
3035 16-03-2010 06:47:04 4.7 C 6.06 g/m*3 4.7 C 0 km/h
3036 16-03-2010 06:59:04 4.7 C 6.06 g/m*3 4.7 C 0 km/h
3037 16-03-2010 07:11:02 4.7 C 6.06 g/m*3 4.7 C 0 km/h
3038 16-03-2010 07:23:01 4.8 C 6.1 g/m*3 4.8 C 0 km/h
3039 16-03-2010 07:35:02 4.9 C 6.21 g/m*3 4.9 C 0 km/h
3040 16-03-2010 07:47:02 5 C 6.18 g/m*3 5 C 0 km/h
3041 16-03-2010 07:59:02 5 C 6.18 g/m*3 5 C 0 km/h
3042 16-03-2010 08:11:02 5 C 6.18 g/m*3 5 C 0 km/h
3043 16-03-2010 08:23:02 5.1 C 6.22 g/m*3 5.1 C 0 km/h
3044 16-03-2010 08:35:02 5.3 C 6.31 g/m*3 5.3 C 0 km/h
3045 16-03-2010 08:47:02 5.3 C 6.24 g/m*3 5.3 C 0 km/h
3046 16-03-2010 08:59:02 5.5 C 6.32 g/m*3 5.5 C 0 km/h
3047 16-03-2010 09:11:01 5.7 C 6.4 g/m*3 5.7 C 0 km/h
3048 16-03-2010 09:23:02 6 C 6.46 g/m*3 6 C 0 km/h
3049 16-03-2010 09:35:01 6.4 C 6.48 g/m*3 6.4 C 0 km/h
3050 16-03-2010 09:47:02 6.4 C 6.26 g/m*3 6.4 C 0 km/h
Sensor: Nr:Datum:Temp:Abs-Feuchte:Windchill:Wind:
Aussen-T/F 3051 16-03-2010 09:59:02 6.6 C 6.11 g/m*3 6.6 C 0 km/h
3052 16-03-2010 10:11:01 6.7 C 6 g/m*3 6.7 C 0 km/h
3053 16-03-2010 10:23:01 6.8 C 5.97 g/m*3 6.8 C 0 km/h
3054 16-03-2010 10:35:02 6.8 C 5.81 g/m*3 6.8 C 0 km/h
3055 16-03-2010 10:47:02 6.8 C 5.66 g/m*3 6.8 C 0 km/h
3056 16-03-2010 10:59:03 6.9 C 5.7 g/m*3 6.9 C 0 km/h
3057 16-03-2010 11:11:01 7.1 C 5.62 g/m*3 7.1 C 0 km/h
3058 16-03-2010 11:23:02 7.5 C 5.44 g/m*3 7.5 C 0 km/h
3059 16-03-2010 11:35:02 8.1 C 5.41 g/m*3 8.1 C 0 km/h
3060 16-03-2010 11:47:02 8.5 C 5.29 g/m*3 8.5 C 0 km/h
3061 16-03-2010 11:59:02 8.7 C 5.1 g/m*3 8.7 C 0 km/h
3062 16-03-2010 12:11:03 8.7 C 5.1 g/m*3 8.7 C 0 km/h
3063 16-03-2010 12:23:02 8.9 C 5.26 g/m*3 8.9 C 0 km/h
3064 16-03-2010 12:35:02 8.4 C 5.17 g/m*3 8.4 C 0 km/h
3065 16-03-2010 12:47:02 7.9 C 5.34 g/m*3 7.9 C 0 km/h
3066 16-03-2010 12:59:02 7.8 C 5.39 g/m*3 7.8 C 0 km/h
3067 16-03-2010 13:11:02 8 C 5.29 g/m*3 8 C 0 km/h
3068 16-03-2010 13:23:01 7.8 C 5.14 g/m*3 7.8 C 0 km/h
3069 16-03-2010 13:35:02 8.7 C 5.45 g/m*3 8.7 C 0 km/h
3070 16-03-2010 13:47:02 8.2 C 5.11 g/m*3 8.2 C 0 km/h
3071 16-03-2010 13:59:02 8.1 C 5.08 g/m*3 8.1 C 0 km/h
3072 16-03-2010 14:11:02 8.1 C 5.16 g/m*3 8.1 C 0 km/h
3073 16-03-2010 14:23:01 8.7 C 5.36 g/m*3 8.7 C 0 km/h
3074 16-03-2010 14:35:02 8.7 C 5.1 g/m*3 8.7 C 0 km/h
3075 16-03-2010 14:47:02 8.2 C 4.94 g/m*3 8.2 C 0 km/h
Sensor: Nr:Datum:Temp:Abs-Feuchte:Windchill:Wind:
Aussen-T/F 3076 16-03-2010 14:59:02 8.1 C 4.99 g/m*3 8.1 C 0 km/h
3077 16-03-2010 15:11:02 8.1 C 5.08 g/m*3 8.1 C 0 km/h
3078 16-03-2010 15:23:01 8.5 C 5.12 g/m*3 8.5 C 0 km/h
3079 16-03-2010 15:35:02 8.6 C 4.81 g/m*3 8.6 C 0 km/h
3080 16-03-2010 15:47:01 8.8 C 4.79 g/m*3 8.8 C 0 km/h
3081 16-03-2010 15:59:01 9 C 4.85 g/m*3 9 C 0 km/h
3082 16-03-2010 16:11:02 8.7 C 4.76 g/m*3 8.7 C 0 km/h
3083 16-03-2010 16:23:02 8.5 C 4.78 g/m*3 8.5 C 0 km/h
3084 16-03-2010 16:35:02 8.7 C 4.84 g/m*3 8.7 C 0 km/h
3085 16-03-2010 16:47:02 8.7 C 4.84 g/m*3 8.7 C 0 km/h
3086 16-03-2010 16:59:02 8.7 C 4.84 g/m*3 8.7 C 0 km/h
3087 16-03-2010 17:11:02 8.9 C 4.99 g/m*3 8.9 C 0 km/h
3088 16-03-2010 17:23:02 8.8 C 5.05 g/m*3 8.8 C 0 km/h
3089 16-03-2010 17:35:01 8.6 C 4.98 g/m*3 8.6 C 0 km/h
3090 16-03-2010 17:47:02 8.6 C 4.98 g/m*3 8.6 C 0 km/h
3091 16-03-2010 17:59:02 8.4 C 5.01 g/m*3 8.4 C 0 km/h
3092 16-03-2010 18:11:01 8.2 C 5.28 g/m*3 8.2 C 0 km/h
3093 16-03-2010 18:23:02 8 C 5.37 g/m*3 8 C 0 km/h
3094 16-03-2010 18:35:01 7.8 C 5.55 g/m*3 7.8 C 0 km/h
3095 16-03-2010 18:47:02 7.5 C 5.52 g/m*3 7.5 C 0 km/h
3096 16-03-2010 18:59:02 7.3 C 5.53 g/m*3 7.3 C 0 km/h
3097 16-03-2010 19:11:02 7.1 C 5.46 g/m*3 7.1 C 0 km/h
3098 16-03-2010 19:23:02 7 C 5.58 g/m*3 7 C 0 km/h
3099 16-03-2010 19:35:03 6.9 C 5.62 g/m*3 6.9 C 0 km/h
3100 16-03-2010 19:47:02 6.8 C 5.58 g/m*3 6.8 C 0 km/h
Sensor: Nr:Datum:Temp:Abs-Feuchte:Windchill:Wind:
Aussen-T/F 3101 16-03-2010 19:59:02 6.6 C 5.51 g/m*3 6.6 C 0 km/h
3102 16-03-2010 20:11:01 6.2 C 5.37 g/m*3 6.2 C 0 km/h
3103 16-03-2010 20:23:02 5.7 C 5.34 g/m*3 5.7 C 0 km/h
3104 16-03-2010 20:35:02 5.3 C 5.2 g/m*3 5.3 C 0 km/h
3105 16-03-2010 20:47:02 4.9 C 5.2 g/m*3 4.9 C 0 km/h
3106 16-03-2010 20:59:03 4.6 C 5.16 g/m*3 4.6 C 0 km/h
3107 16-03-2010 21:11:01 4.4 C 5.09 g/m*3 4.4 C 0 km/h
3108 16-03-2010 21:23:01 4.2 C 5.03 g/m*3 4.2 C 0 km/h
3109 16-03-2010 21:36:04 4 C 5.02 g/m*3 4 C 0 km/h
3110 16-03-2010 21:48:04 3.8 C 5.02 g/m*3 3.8 C 0 km/h
3111 16-03-2010 22:00:04 3.7 C 5.05 g/m*3 3.7 C 0 km/h
3112 16-03-2010 22:12:04 3.3 C 4.91 g/m*3 3.3 C 0 km/h
3113 16-03-2010 22:24:04 3.2 C 4.88 g/m*3 3.2 C 0 km/h
3114 16-03-2010 22:36:04 2.9 C 4.84 g/m*3 2.9 C 0 km/h
3115 16-03-2010 22:48:04 2.8 C 4.81 g/m*3 2.8 C 0 km/h
3116 16-03-2010 23:00:04 2.7 C 4.78 g/m*3 2.7 C 0 km/h
3117 16-03-2010 23:12:04 2.5 C 4.71 g/m*3 2.5 C 0 km/h
3118 16-03-2010 23:24:04 2.4 C 4.74 g/m*3 2.4 C 0 km/h
3119 16-03-2010 23:36:04 2.2 C 4.68 g/m*3 2.2 C 0 km/h
3120 16-03-2010 23:48:04 2 C 4.61 g/m*3 2 C 0 km/h
3121 17-03-2010 00:00:04 2.3 C 4.76 g/m*3 2.3 C 0 km/h
3122 17-03-2010 00:12:04 2 C 4.67 g/m*3 2 C 0 km/h
3123 17-03-2010 00:24:05 2.2 C 4.73 g/m*3 2.2 C 0 km/h
3124 17-03-2010 00:36:05 2.3 C 4.82 g/m*3 2.3 C 0 km/h
3125 17-03-2010 00:48:05 2.3 C 4.76 g/m*3 2.3 C 0 km/h
Sensor: Nr:Datum:Temp:Abs-Feuchte:Windchill:Wind:
Aussen-T/F 3126 17-03-2010 01:00:05 2.3 C 4.76 g/m*3 2.3 C 0 km/h
3127 17-03-2010 01:12:05 2.3 C 4.76 g/m*3 2.3 C 0 km/h
3128 17-03-2010 01:24:05 1.8 C 4.6 g/m*3 1.8 C 0 km/h
3129 17-03-2010 01:36:05 1.6 C 4.54 g/m*3 1.6 C 0 km/h
3130 17-03-2010 01:48:05 1.7 C 4.63 g/m*3 1.7 C 0 km/h
3131 17-03-2010 02:00:05 2 C 4.67 g/m*3 2 C 0 km/h
3132 17-03-2010 02:12:05 2 C 4.67 g/m*3 2 C 0 km/h
3133 17-03-2010 02:24:05 2.1 C 4.64 g/m*3 2.1 C 0 km/h
3134 17-03-2010 02:36:05 2.1 C 4.64 g/m*3 2.1 C 0 km/h
3135 17-03-2010 02:48:05 2.1 C 4.59 g/m*3 2.1 C 0 km/h
3136 17-03-2010 03:00:05 2.2 C 4.62 g/m*3 2.2 C 0 km/h
3137 17-03-2010 03:12:05 2 C 4.56 g/m*3 2 C 0 km/h
3138 17-03-2010 03:24:05 2.1 C 4.59 g/m*3 2.1 C 0 km/h
3139 17-03-2010 03:36:05 2 C 4.56 g/m*3 2 C 0 km/h
3140 17-03-2010 03:48:05 2.1 C 4.59 g/m*3 2.1 C 0 km/h
3141 17-03-2010 04:00:05 2 C 4.56 g/m*3 2 C 0 km/h
3142 17-03-2010 04:12:05 1.9 C 4.58 g/m*3 1.9 C 0 km/h
3143 17-03-2010 04:24:05 1.7 C 4.46 g/m*3 1.7 C 0 km/h
3144 17-03-2010 04:36:06 1.4 C 4.37 g/m*3 1.4 C 0 km/h
3145 17-03-2010 04:48:06 1.1 C 4.34 g/m*3 1.1 C 0 km/h
3146 17-03-2010 05:00:06 1 C 4.31 g/m*3 1 C 0 km/h
3147 17-03-2010 05:12:06 0.8 C 4.3 g/m*3 0.8 C 0 km/h
3148 17-03-2010 05:24:06 0.8 C 4.35 g/m*3 0.8 C 0 km/h
3149 17-03-2010 05:36:06 0.7 C 4.32 g/m*3 0.7 C 0 km/h
3150 17-03-2010 05:48:06 0.7 C 4.37 g/m*3 0.7 C 0 km/h
Sensor: Nr:Datum:Temp:Abs-Feuchte:Windchill:Wind:
Aussen-T/F 3151 17-03-2010 06:00:06 0.6 C 4.34 g/m*3 0.6 C 0 km/h
3152 17-03-2010 06:12:06 0.5 C 4.31 g/m*3 0.5 C 0 km/h
3153 17-03-2010 06:24:06 0.6 C 4.39 g/m*3 0.6 C 0 km/h
3154 17-03-2010 06:36:06 0.4 C 4.33 g/m*3 0.4 C 0 km/h
3155 17-03-2010 06:48:02 0.6 C 4.39 g/m*3 0.6 C 0 km/h
3156 17-03-2010 07:00:02 0.5 C 4.36 g/m*3 0.5 C 0 km/h
3157 17-03-2010 07:12:02 0.6 C 4.44 g/m*3 0.6 C 0 km/h
3158 17-03-2010 07:24:03 0.8 C 4.51 g/m*3 0.8 C 0 km/h
3159 17-03-2010 07:36:02 1.2 C 4.63 g/m*3 1.2 C 0 km/h
3160 17-03-2010 07:48:02 1.5 C 4.73 g/m*3 1.5 C 0 km/h
3161 17-03-2010 08:00:02 1.6 C 4.7 g/m*3 1.6 C 0 km/h
3162 17-03-2010 08:12:02 1.8 C 4.77 g/m*3 1.8 C 0 km/h
3163 17-03-2010 08:24:02 2 C 4.72 g/m*3 2 C 0 km/h
3164 17-03-2010 08:36:02 2.3 C 4.76 g/m*3 2.3 C 0 km/h
3165 17-03-2010 08:48:02 2.6 C 4.8 g/m*3 2.6 C 0 km/h
3166 17-03-2010 09:00:02 2.9 C 4.67 g/m*3 2.9 C 0 km/h
3167 17-03-2010 09:12:02 3.5 C 4.67 g/m*3 3.5 C 0 km/h
3168 17-03-2010 09:24:03 4.2 C 4.77 g/m*3 4.2 C 0 km/h
3169 17-03-2010 09:36:02 4.6 C 4.5 g/m*3 4.6 C 0 km/h
3170 17-03-2010 09:48:02 4.8 C 4.36 g/m*3 4.8 C 0 km/h
3171 17-03-2010 10:00:02 5.2 C 4.41 g/m*3 5.2 C 0 km/h
3172 17-03-2010 10:12:02 5.5 C 4.35 g/m*3 5.5 C 0 km/h
3173 17-03-2010 10:24:02 6.2 C 4.27 g/m*3 6.2 C 0 km/h
3174 17-03-2010 10:36:02 6.8 C 4.36 g/m*3 6.8 C 0 km/h
3175 17-03-2010 10:48:02 7.1 C 4.21 g/m*3 7.1 C 0 km/h
Sensor: Nr:Datum:Temp:Abs-Feuchte:Windchill:Wind:
Aussen-T/F 3176 17-03-2010 11:00:02 7.6 C 4.11 g/m*3 7.6 C 0 km/h
3177 17-03-2010 11:12:02 8.2 C 3.94 g/m*3 8.2 C 0 km/h
3178 17-03-2010 11:24:02 8.8 C 3.92 g/m*3 8.8 C 0 km/h
3179 17-03-2010 11:36:01 9 C 3.79 g/m*3 9 C 0 km/h
3180 17-03-2010 11:48:02 9.1 C 3.73 g/m*3 9.1 C 0 km/h
3181 17-03-2010 12:00:02 9.6 C 3.94 g/m*3 9.6 C 0 km/h
3182 17-03-2010 12:12:01 10.1 C 3.78 g/m*3 10.1 C 0 km/h
3183 17-03-2010 12:24:02 10.4 C 3.66 g/m*3 10.4 C 0 km/h
3184 17-03-2010 12:36:02 11.1 C 3.73 g/m*3 11.1 C 0 km/h
3185 17-03-2010 12:48:02 11.5 C 3.72 g/m*3 11.5 C 0 km/h
3186 17-03-2010 13:00:03 11.8 C 3.58 g/m*3 11.8 C 0 km/h
3187 17-03-2010 13:12:02 12.2 C 3.45 g/m*3 12.2 C 0 km/h
3188 17-03-2010 13:24:02 12.8 C 3.47 g/m*3 12.8 C 0 km/h
3189 17-03-2010 13:36:02 13.1 C 3.42 g/m*3 13.1 C 0 km/h
3190 17-03-2010 13:48:02 13.2 C 3.44 g/m*3 13.2 C 0 km/h
3191 17-03-2010 14:00:02 13.4 C 3.02 g/m*3 13.4 C 0 km/h
3192 17-03-2010 14:12:02 13.5 C 2.92 g/m*3 13.5 C 0 km/h
3193 17-03-2010 14:24:01 13.4 C 2.91 g/m*3 13.4 C 0 km/h
3194 17-03-2010 14:36:02 13.8 C 3.1 g/m*3 13.8 C 0 km/h
3195 17-03-2010 14:48:02 14.1 C 2.79 g/m*3 14.1 C 0 km/h
3196 17-03-2010 15:00:02 14.5 C 3.11 g/m*3 14.5 C 0 km/h
3197 17-03-2010 15:12:02 14.7 C 3.15 g/m*3 14.7 C 0 km/h
3198 17-03-2010 15:24:02 14.6 C 3.13 g/m*3 14.6 C 0 km/h
3199 17-03-2010 15:36:02 14.6 C 3.13 g/m*3 14.6 C 0 km/h
3200 17-03-2010 15:48:02 14.1 C 3.16 g/m*3 14.1 C 0 km/h
Sensor: Nr:Datum:Temp:Abs-Feuchte:Windchill:Wind:
Aussen-T/F 3201 17-03-2010 16:00:02 14.1 C 3.03 g/m*3 14.1 C 0 km/h
3202 17-03-2010 16:12:03 13.9 C 3 g/m*3 13.9 C 0 km/h
3203 17-03-2010 16:24:02 14 C 3.14 g/m*3 14 C 0 km/h
3204 17-03-2010 16:36:02 13.9 C 3.12 g/m*3 13.9 C 0 km/h
3205 17-03-2010 16:48:01 13.8 C 2.98 g/m*3 13.8 C 0 km/h
3206 17-03-2010 17:00:01 13.7 C 3.08 g/m*3 13.7 C 0 km/h
3207 17-03-2010 17:12:02 13.7 C 3.08 g/m*3 13.7 C 0 km/h
3208 17-03-2010 17:24:01 13.4 C 3.25 g/m*3 13.4 C 0 km/h
3209 17-03-2010 17:36:01 13.1 C 3.42 g/m*3 13.1 C 0 km/h
3210 17-03-2010 17:48:01 12.5 C 3.63 g/m*3 12.5 C 0 km/h
3211 17-03-2010 18:00:01 12 C 3.62 g/m*3 12 C 0 km/h
3212 17-03-2010 18:12:02 11.7 C 3.77 g/m*3 11.7 C 0 km/h
3213 17-03-2010 18:24:02 11.2 C 3.75 g/m*3 11.2 C 0 km/h
3214 17-03-2010 18:36:01 10.8 C 3.76 g/m*3 10.8 C 0 km/h
3215 17-03-2010 18:48:01 10.4 C 3.86 g/m*3 10.4 C 0 km/h
3216 17-03-2010 19:00:01 10 C 3.95 g/m*3 10 C 0 km/h
3217 17-03-2010 19:12:01 9.6 C 3.94 g/m*3 9.6 C 0 km/h
3218 17-03-2010 19:24:02 9.5 C 3.91 g/m*3 9.5 C 0 km/h
3219 17-03-2010 19:36:01 9.2 C 4.02 g/m*3 9.2 C 0 km/h
3220 17-03-2010 19:48:03 9 C 4.14 g/m*3 9 C 0 km/h
3221 17-03-2010 20:00:03 8.6 C 4.12 g/m*3 8.6 C 0 km/h
3222 17-03-2010 20:12:02 8.5 C 4.18 g/m*3 8.5 C 0 km/h
3223 17-03-2010 20:24:02 8.2 C 4.19 g/m*3 8.2 C 0 km/h
3224 17-03-2010 20:36:02 7.9 C 4.19 g/m*3 7.9 C 0 km/h
3225 17-03-2010 20:48:02 7.8 C 4.24 g/m*3 7.8 C 0 km/h
Sensor: Nr:Datum:Temp:Abs-Feuchte:Windchill:Wind:
Aussen-T/F 3226 17-03-2010 21:00:02 7.5 C 4.32 g/m*3 7.5 C 0 km/h
3227 17-03-2010 21:13:03 7.3 C 4.35 g/m*3 7.3 C 0 km/h
3228 17-03-2010 21:25:03 7.3 C 4.35 g/m*3 7.3 C 0 km/h
3229 17-03-2010 21:37:03 7 C 4.26 g/m*3 7 C 0 km/h
3230 17-03-2010 21:49:03 6.9 C 4.39 g/m*3 6.9 C 0 km/h
3231 17-03-2010 22:01:03 6.9 C 4.39 g/m*3 6.9 C 0 km/h
3232 17-03-2010 22:13:03 6.9 C 4.39 g/m*3 6.9 C 0 km/h
3233 17-03-2010 22:25:03 6.9 C 4.31 g/m*3 6.9 C 0 km/h
3234 17-03-2010 22:37:03 6.9 C 4.23 g/m*3 6.9 C 0 km/h
3235 17-03-2010 22:49:03 6.8 C 4.28 g/m*3 6.8 C 0 km/h
3236 17-03-2010 23:01:03 6.6 C 4.38 g/m*3 6.6 C 0 km/h
3237 17-03-2010 23:13:03 6.4 C 4.4 g/m*3 6.4 C 0 km/h
3238 17-03-2010 23:25:03 6.1 C 4.38 g/m*3 6.1 C 0 km/h
3239 17-03-2010 23:37:03 5.9 C 4.47 g/m*3 5.9 C 0 km/h
3240 17-03-2010 23:49:03 6.2 C 4.49 g/m*3 6.2 C 0 km/h
3241 18-03-2010 00:01:03 6.1 C 4.38 g/m*3 6.1 C 0 km/h
3242 18-03-2010 00:13:03 6.1 C 4.38 g/m*3 6.1 C 0 km/h
3243 18-03-2010 00:25:03 5.8 C 4.44 g/m*3 5.8 C 0 km/h
3244 18-03-2010 00:37:03 5.7 C 4.41 g/m*3 5.7 C 0 km/h
3245 18-03-2010 00:49:03 5.7 C 4.41 g/m*3 5.7 C 0 km/h
3246 18-03-2010 01:01:03 5.6 C 4.38 g/m*3 5.6 C 0 km/h